<?xml version="1.0" encoding="UTF-8" standalone="no" ?>
<gpx xmlns="http://www.topografix.com/GPX/1/1" xmlns:xsi="http://www.w3.org/2001/XMLSchema-instance" xsi:schemaLocation="http://www.topografix.com/GPX/1/1 http://www.topografix.com/GPX/1/1/gpx.xsd" version="1.1" creator="VisuGPX - https://www.visugpx.com">
  <metadata>
    <name>sortie du soir</name>
    <desc><![CDATA[petite sortie après le boulot pour décompresser
trop court car la nuit tombe a 17h15]]></desc>
  </metadata>
  <trk>
    <name><![CDATA[20171122_163402.gpx]]></name>
    <trkseg>
      <trkpt lat="48.60594" lon="2.5635">
        <ele>162.10086</ele>
        <time>2017-11-22T15:34:09Z</time>
      </trkpt>
      <trkpt lat="48.60594" lon="2.5635">
        <ele>162.10086</ele>
        <time>2017-11-22T15:34:09Z</time>
      </trkpt>
      <trkpt lat="48.60601" lon="2.56357">
        <ele>161.50371</ele>
        <time>2017-11-22T15:34:15Z</time>
      </trkpt>
      <trkpt lat="48.60601" lon="2.56358">
        <ele>161.77058</ele>
        <time>2017-11-22T15:34:16Z</time>
      </trkpt>
      <trkpt lat="48.60601" lon="2.56358">
        <ele>161.77058</ele>
        <time>2017-11-22T15:34:16Z</time>
      </trkpt>
      <trkpt lat="48.60611" lon="2.56338">
        <ele>161.58298</ele>
        <time>2017-11-22T15:34:35Z</time>
      </trkpt>
      <trkpt lat="48.60618" lon="2.56329">
        <ele>161.59355</ele>
        <time>2017-11-22T15:34:38Z</time>
      </trkpt>
      <trkpt lat="48.60627" lon="2.56318">
        <ele>161.80757</ele>
        <time>2017-11-22T15:34:42Z</time>
      </trkpt>
      <trkpt lat="48.60637" lon="2.56316">
        <ele>161.79436</ele>
        <time>2017-11-22T15:34:46Z</time>
      </trkpt>
      <trkpt lat="48.60638" lon="2.56317">
        <ele>162.25412</ele>
        <time>2017-11-22T15:34:51Z</time>
      </trkpt>
      <trkpt lat="48.60638" lon="2.56317">
        <ele>162.25412</ele>
        <time>2017-11-22T15:34:51Z</time>
      </trkpt>
      <trkpt lat="48.60667" lon="2.56318">
        <ele>162.6161</ele>
        <time>2017-11-22T15:35:36Z</time>
      </trkpt>
      <trkpt lat="48.60667" lon="2.56337">
        <ele>162.30696</ele>
        <time>2017-11-22T15:35:39Z</time>
      </trkpt>
      <trkpt lat="48.60666" lon="2.56352">
        <ele>162.25146</ele>
        <time>2017-11-22T15:35:41Z</time>
      </trkpt>
      <trkpt lat="48.60664" lon="2.56368">
        <ele>162.41</ele>
        <time>2017-11-22T15:35:43Z</time>
      </trkpt>
      <trkpt lat="48.60663" lon="2.56386">
        <ele>162.4153</ele>
        <time>2017-11-22T15:35:45Z</time>
      </trkpt>
      <trkpt lat="48.60658" lon="2.56412">
        <ele>162.15106</ele>
        <time>2017-11-22T15:35:48Z</time>
      </trkpt>
      <trkpt lat="48.60653" lon="2.56431">
        <ele>162.04272</ele>
        <time>2017-11-22T15:35:50Z</time>
      </trkpt>
      <trkpt lat="48.60646" lon="2.56447">
        <ele>162.78786</ele>
        <time>2017-11-22T15:35:52Z</time>
      </trkpt>
      <trkpt lat="48.60639" lon="2.56463">
        <ele>162.88562</ele>
        <time>2017-11-22T15:35:54Z</time>
      </trkpt>
      <trkpt lat="48.60629" lon="2.56478">
        <ele>162.47342</ele>
        <time>2017-11-22T15:35:56Z</time>
      </trkpt>
      <trkpt lat="48.60618" lon="2.56492">
        <ele>162.12465</ele>
        <time>2017-11-22T15:35:58Z</time>
      </trkpt>
      <trkpt lat="48.60608" lon="2.56505">
        <ele>161.8287</ele>
        <time>2017-11-22T15:36:00Z</time>
      </trkpt>
      <trkpt lat="48.60595" lon="2.56515">
        <ele>162.50513</ele>
        <time>2017-11-22T15:36:02Z</time>
      </trkpt>
      <trkpt lat="48.60583" lon="2.56524">
        <ele>162.18013</ele>
        <time>2017-11-22T15:36:04Z</time>
      </trkpt>
      <trkpt lat="48.6057" lon="2.56529">
        <ele>162.93054</ele>
        <time>2017-11-22T15:36:06Z</time>
      </trkpt>
      <trkpt lat="48.60558" lon="2.56535">
        <ele>162.43643</ele>
        <time>2017-11-22T15:36:08Z</time>
      </trkpt>
      <trkpt lat="48.60544" lon="2.56538">
        <ele>162.66895</ele>
        <time>2017-11-22T15:36:10Z</time>
      </trkpt>
      <trkpt lat="48.60531" lon="2.5654">
        <ele>162.12993</ele>
        <time>2017-11-22T15:36:12Z</time>
      </trkpt>
      <trkpt lat="48.60519" lon="2.56542">
        <ele>161.35574</ele>
        <time>2017-11-22T15:36:14Z</time>
      </trkpt>
      <trkpt lat="48.60508" lon="2.5654">
        <ele>161.99252</ele>
        <time>2017-11-22T15:36:16Z</time>
      </trkpt>
      <trkpt lat="48.60493" lon="2.56522">
        <ele>161.97139</ele>
        <time>2017-11-22T15:36:19Z</time>
      </trkpt>
      <trkpt lat="48.60488" lon="2.56504">
        <ele>161.7785</ele>
        <time>2017-11-22T15:36:21Z</time>
      </trkpt>
      <trkpt lat="48.60486" lon="2.56484">
        <ele>162.76143</ele>
        <time>2017-11-22T15:36:23Z</time>
      </trkpt>
      <trkpt lat="48.60484" lon="2.56462">
        <ele>163.12607</ele>
        <time>2017-11-22T15:36:25Z</time>
      </trkpt>
      <trkpt lat="48.60482" lon="2.5644">
        <ele>162.0533</ele>
        <time>2017-11-22T15:36:27Z</time>
      </trkpt>
      <trkpt lat="48.60479" lon="2.56419">
        <ele>161.15756</ele>
        <time>2017-11-22T15:36:29Z</time>
      </trkpt>
      <trkpt lat="48.60476" lon="2.56397">
        <ele>161.70717</ele>
        <time>2017-11-22T15:36:31Z</time>
      </trkpt>
      <trkpt lat="48.60474" lon="2.56375">
        <ele>161.40594</ele>
        <time>2017-11-22T15:36:33Z</time>
      </trkpt>
      <trkpt lat="48.60471" lon="2.56352">
        <ele>161.60147</ele>
        <time>2017-11-22T15:36:35Z</time>
      </trkpt>
      <trkpt lat="48.60468" lon="2.56329">
        <ele>161.53806</ele>
        <time>2017-11-22T15:36:37Z</time>
      </trkpt>
      <trkpt lat="48.60467" lon="2.56307">
        <ele>162.14578</ele>
        <time>2017-11-22T15:36:39Z</time>
      </trkpt>
      <trkpt lat="48.60464" lon="2.56285">
        <ele>161.73358</ele>
        <time>2017-11-22T15:36:41Z</time>
      </trkpt>
      <trkpt lat="48.60461" lon="2.56266">
        <ele>162.3598</ele>
        <time>2017-11-22T15:36:43Z</time>
      </trkpt>
      <trkpt lat="48.60458" lon="2.56246">
        <ele>162.02687</ele>
        <time>2017-11-22T15:36:45Z</time>
      </trkpt>
      <trkpt lat="48.60454" lon="2.56228">
        <ele>162.21976</ele>
        <time>2017-11-22T15:36:47Z</time>
      </trkpt>
      <trkpt lat="48.6045" lon="2.56209">
        <ele>162.49721</ele>
        <time>2017-11-22T15:36:49Z</time>
      </trkpt>
      <trkpt lat="48.60445" lon="2.5619">
        <ele>162.6848</ele>
        <time>2017-11-22T15:36:51Z</time>
      </trkpt>
      <trkpt lat="48.6044" lon="2.56171">
        <ele>162.71915</ele>
        <time>2017-11-22T15:36:53Z</time>
      </trkpt>
      <trkpt lat="48.60434" lon="2.56153">
        <ele>162.36508</ele>
        <time>2017-11-22T15:36:55Z</time>
      </trkpt>
      <trkpt lat="48.60428" lon="2.56134">
        <ele>162.45229</ele>
        <time>2017-11-22T15:36:57Z</time>
      </trkpt>
      <trkpt lat="48.60423" lon="2.56117">
        <ele>162.53947</ele>
        <time>2017-11-22T15:36:59Z</time>
      </trkpt>
      <trkpt lat="48.60417" lon="2.561">
        <ele>161.88155</ele>
        <time>2017-11-22T15:37:01Z</time>
      </trkpt>
      <trkpt lat="48.60413" lon="2.56087">
        <ele>162.3783</ele>
        <time>2017-11-22T15:37:03Z</time>
      </trkpt>
      <trkpt lat="48.60409" lon="2.56074">
        <ele>161.54333</ele>
        <time>2017-11-22T15:37:05Z</time>
      </trkpt>
      <trkpt lat="48.60405" lon="2.56061">
        <ele>162.68216</ele>
        <time>2017-11-22T15:37:07Z</time>
      </trkpt>
      <trkpt lat="48.60401" lon="2.56045">
        <ele>161.93968</ele>
        <time>2017-11-22T15:37:09Z</time>
      </trkpt>
      <trkpt lat="48.60403" lon="2.56026">
        <ele>162.6161</ele>
        <time>2017-11-22T15:37:11Z</time>
      </trkpt>
      <trkpt lat="48.60407" lon="2.56007">
        <ele>163.53033</ele>
        <time>2017-11-22T15:37:13Z</time>
      </trkpt>
      <trkpt lat="48.6041" lon="2.56">
        <ele>163.69943</ele>
        <time>2017-11-22T15:37:14Z</time>
      </trkpt>
      <trkpt lat="48.60412" lon="2.55977">
        <ele>163.73643</ele>
        <time>2017-11-22T15:37:16Z</time>
      </trkpt>
      <trkpt lat="48.60421" lon="2.5596">
        <ele>164.30452</ele>
        <time>2017-11-22T15:37:18Z</time>
      </trkpt>
      <trkpt lat="48.60431" lon="2.55944">
        <ele>164.40756</ele>
        <time>2017-11-22T15:37:20Z</time>
      </trkpt>
      <trkpt lat="48.60435" lon="2.55936">
        <ele>164.48947</ele>
        <time>2017-11-22T15:37:21Z</time>
      </trkpt>
      <trkpt lat="48.6044" lon="2.55929">
        <ele>164.5846</ele>
        <time>2017-11-22T15:37:22Z</time>
      </trkpt>
      <trkpt lat="48.60445" lon="2.55921">
        <ele>164.70879</ele>
        <time>2017-11-22T15:37:23Z</time>
      </trkpt>
      <trkpt lat="48.6045" lon="2.55913">
        <ele>164.50533</ele>
        <time>2017-11-22T15:37:24Z</time>
      </trkpt>
      <trkpt lat="48.6046" lon="2.55898">
        <ele>164.91753</ele>
        <time>2017-11-22T15:37:26Z</time>
      </trkpt>
      <trkpt lat="48.60466" lon="2.5589">
        <ele>164.82768</ele>
        <time>2017-11-22T15:37:27Z</time>
      </trkpt>
      <trkpt lat="48.60476" lon="2.55874">
        <ele>165.16325</ele>
        <time>2017-11-22T15:37:29Z</time>
      </trkpt>
      <trkpt lat="48.60482" lon="2.55868">
        <ele>164.81712</ele>
        <time>2017-11-22T15:37:30Z</time>
      </trkpt>
      <trkpt lat="48.60493" lon="2.55852">
        <ele>165.03908</ele>
        <time>2017-11-22T15:37:32Z</time>
      </trkpt>
      <trkpt lat="48.60498" lon="2.55844">
        <ele>164.81448</ele>
        <time>2017-11-22T15:37:33Z</time>
      </trkpt>
      <trkpt lat="48.60509" lon="2.55829">
        <ele>165.61508</ele>
        <time>2017-11-22T15:37:35Z</time>
      </trkpt>
      <trkpt lat="48.60515" lon="2.55821">
        <ele>165.52525</ele>
        <time>2017-11-22T15:37:36Z</time>
      </trkpt>
      <trkpt lat="48.60525" lon="2.55805">
        <ele>166.03786</ele>
        <time>2017-11-22T15:37:38Z</time>
      </trkpt>
      <trkpt lat="48.60531" lon="2.55796">
        <ele>166.02728</ele>
        <time>2017-11-22T15:37:39Z</time>
      </trkpt>
      <trkpt lat="48.60543" lon="2.55781">
        <ele>165.82646</ele>
        <time>2017-11-22T15:37:41Z</time>
      </trkpt>
      <trkpt lat="48.60555" lon="2.55766">
        <ele>167.1344</ele>
        <time>2017-11-22T15:37:43Z</time>
      </trkpt>
      <trkpt lat="48.60561" lon="2.55759">
        <ele>167.7844</ele>
        <time>2017-11-22T15:37:44Z</time>
      </trkpt>
      <trkpt lat="48.60568" lon="2.55752">
        <ele>167.3537</ele>
        <time>2017-11-22T15:37:45Z</time>
      </trkpt>
      <trkpt lat="48.60584" lon="2.55731">
        <ele>167.62321</ele>
        <time>2017-11-22T15:37:47Z</time>
      </trkpt>
      <trkpt lat="48.60595" lon="2.55724">
        <ele>166.57687</ele>
        <time>2017-11-22T15:37:49Z</time>
      </trkpt>
      <trkpt lat="48.60609" lon="2.55713">
        <ele>167.21367</ele>
        <time>2017-11-22T15:37:51Z</time>
      </trkpt>
      <trkpt lat="48.60623" lon="2.55701">
        <ele>166.48969</ele>
        <time>2017-11-22T15:37:53Z</time>
      </trkpt>
      <trkpt lat="48.60637" lon="2.5569">
        <ele>166.45268</ele>
        <time>2017-11-22T15:37:55Z</time>
      </trkpt>
      <trkpt lat="48.60652" lon="2.55679">
        <ele>165.9348</ele>
        <time>2017-11-22T15:37:57Z</time>
      </trkpt>
      <trkpt lat="48.60667" lon="2.55669">
        <ele>166.06163</ele>
        <time>2017-11-22T15:37:59Z</time>
      </trkpt>
      <trkpt lat="48.60691" lon="2.55656">
        <ele>166.22017</ele>
        <time>2017-11-22T15:38:02Z</time>
      </trkpt>
      <trkpt lat="48.60707" lon="2.55647">
        <ele>165.7102</ele>
        <time>2017-11-22T15:38:04Z</time>
      </trkpt>
      <trkpt lat="48.60724" lon="2.55639">
        <ele>166.04842</ele>
        <time>2017-11-22T15:38:06Z</time>
      </trkpt>
      <trkpt lat="48.60741" lon="2.55631">
        <ele>166.2096</ele>
        <time>2017-11-22T15:38:08Z</time>
      </trkpt>
      <trkpt lat="48.60757" lon="2.55624">
        <ele>165.44862</ele>
        <time>2017-11-22T15:38:10Z</time>
      </trkpt>
      <trkpt lat="48.60774" lon="2.55616">
        <ele>165.78156</ele>
        <time>2017-11-22T15:38:12Z</time>
      </trkpt>
      <trkpt lat="48.60791" lon="2.55608">
        <ele>165.39313</ele>
        <time>2017-11-22T15:38:14Z</time>
      </trkpt>
      <trkpt lat="48.60808" lon="2.55599">
        <ele>164.92545</ele>
        <time>2017-11-22T15:38:16Z</time>
      </trkpt>
      <trkpt lat="48.60824" lon="2.55592">
        <ele>165.29008</ele>
        <time>2017-11-22T15:38:18Z</time>
      </trkpt>
      <trkpt lat="48.60841" lon="2.55584">
        <ele>164.85939</ele>
        <time>2017-11-22T15:38:20Z</time>
      </trkpt>
      <trkpt lat="48.60857" lon="2.55575">
        <ele>165.80005</ele>
        <time>2017-11-22T15:38:22Z</time>
      </trkpt>
      <trkpt lat="48.60874" lon="2.55568">
        <ele>164.99944</ele>
        <time>2017-11-22T15:38:24Z</time>
      </trkpt>
      <trkpt lat="48.60891" lon="2.5556">
        <ele>164.62688</ele>
        <time>2017-11-22T15:38:26Z</time>
      </trkpt>
      <trkpt lat="48.60899" lon="2.55556">
        <ele>164.92017</ele>
        <time>2017-11-22T15:38:27Z</time>
      </trkpt>
      <trkpt lat="48.60908" lon="2.55552">
        <ele>164.91225</ele>
        <time>2017-11-22T15:38:28Z</time>
      </trkpt>
      <trkpt lat="48.60925" lon="2.55544">
        <ele>164.90431</ele>
        <time>2017-11-22T15:38:30Z</time>
      </trkpt>
      <trkpt lat="48.60942" lon="2.55536">
        <ele>164.67708</ele>
        <time>2017-11-22T15:38:32Z</time>
      </trkpt>
      <trkpt lat="48.60951" lon="2.55532">
        <ele>164.2913</ele>
        <time>2017-11-22T15:38:33Z</time>
      </trkpt>
      <trkpt lat="48.60968" lon="2.55524">
        <ele>164.67444</ele>
        <time>2017-11-22T15:38:35Z</time>
      </trkpt>
      <trkpt lat="48.60986" lon="2.55516">
        <ele>164.72992</ele>
        <time>2017-11-22T15:38:37Z</time>
      </trkpt>
      <trkpt lat="48.61002" lon="2.55508">
        <ele>164.22789</ele>
        <time>2017-11-22T15:38:39Z</time>
      </trkpt>
      <trkpt lat="48.61012" lon="2.55504">
        <ele>164.26753</ele>
        <time>2017-11-22T15:38:40Z</time>
      </trkpt>
      <trkpt lat="48.6102" lon="2.55499">
        <ele>164.25168</ele>
        <time>2017-11-22T15:38:41Z</time>
      </trkpt>
      <trkpt lat="48.61037" lon="2.55491">
        <ele>164.96509</ele>
        <time>2017-11-22T15:38:43Z</time>
      </trkpt>
      <trkpt lat="48.61047" lon="2.55487">
        <ele>164.32037</ele>
        <time>2017-11-22T15:38:44Z</time>
      </trkpt>
      <trkpt lat="48.61063" lon="2.5548">
        <ele>164.33887</ele>
        <time>2017-11-22T15:38:46Z</time>
      </trkpt>
      <trkpt lat="48.61072" lon="2.55476">
        <ele>164.67444</ele>
        <time>2017-11-22T15:38:47Z</time>
      </trkpt>
      <trkpt lat="48.61081" lon="2.55471">
        <ele>164.07199</ele>
        <time>2017-11-22T15:38:48Z</time>
      </trkpt>
      <trkpt lat="48.61098" lon="2.55463">
        <ele>164.08257</ele>
        <time>2017-11-22T15:38:50Z</time>
      </trkpt>
      <trkpt lat="48.61107" lon="2.55459">
        <ele>163.99802</ele>
        <time>2017-11-22T15:38:51Z</time>
      </trkpt>
      <trkpt lat="48.61116" lon="2.55455">
        <ele>164.09842</ele>
        <time>2017-11-22T15:38:52Z</time>
      </trkpt>
      <trkpt lat="48.61133" lon="2.55448">
        <ele>163.2846</ele>
        <time>2017-11-22T15:38:54Z</time>
      </trkpt>
      <trkpt lat="48.61159" lon="2.55435">
        <ele>164.4155</ele>
        <time>2017-11-22T15:38:57Z</time>
      </trkpt>
      <trkpt lat="48.61176" lon="2.55427">
        <ele>164.3098</ele>
        <time>2017-11-22T15:38:59Z</time>
      </trkpt>
      <trkpt lat="48.61193" lon="2.55419">
        <ele>163.32423</ele>
        <time>2017-11-22T15:39:01Z</time>
      </trkpt>
      <trkpt lat="48.61209" lon="2.5541">
        <ele>163.37708</ele>
        <time>2017-11-22T15:39:03Z</time>
      </trkpt>
      <trkpt lat="48.61218" lon="2.55406">
        <ele>163.07057</ele>
        <time>2017-11-22T15:39:04Z</time>
      </trkpt>
      <trkpt lat="48.61234" lon="2.55398">
        <ele>162.6663</ele>
        <time>2017-11-22T15:39:06Z</time>
      </trkpt>
      <trkpt lat="48.61243" lon="2.55394">
        <ele>162.82484</ele>
        <time>2017-11-22T15:39:07Z</time>
      </trkpt>
      <trkpt lat="48.61261" lon="2.55387">
        <ele>163.49599</ele>
        <time>2017-11-22T15:39:09Z</time>
      </trkpt>
      <trkpt lat="48.61276" lon="2.55379">
        <ele>162.98602</ele>
        <time>2017-11-22T15:39:11Z</time>
      </trkpt>
      <trkpt lat="48.61293" lon="2.55369">
        <ele>163.09172</ele>
        <time>2017-11-22T15:39:13Z</time>
      </trkpt>
      <trkpt lat="48.61308" lon="2.55356">
        <ele>163.77078</ele>
        <time>2017-11-22T15:39:15Z</time>
      </trkpt>
      <trkpt lat="48.61321" lon="2.55339">
        <ele>164.64273</ele>
        <time>2017-11-22T15:39:17Z</time>
      </trkpt>
      <trkpt lat="48.61333" lon="2.55322">
        <ele>163.69943</ele>
        <time>2017-11-22T15:39:19Z</time>
      </trkpt>
      <trkpt lat="48.61346" lon="2.55309">
        <ele>163.784</ele>
        <time>2017-11-22T15:39:21Z</time>
      </trkpt>
      <trkpt lat="48.61359" lon="2.55298">
        <ele>163.79192</ele>
        <time>2017-11-22T15:39:23Z</time>
      </trkpt>
      <trkpt lat="48.61372" lon="2.55289">
        <ele>163.63338</ele>
        <time>2017-11-22T15:39:25Z</time>
      </trkpt>
      <trkpt lat="48.61387" lon="2.55283">
        <ele>163.54883</ele>
        <time>2017-11-22T15:39:27Z</time>
      </trkpt>
      <trkpt lat="48.61396" lon="2.55279">
        <ele>163.46164</ele>
        <time>2017-11-22T15:39:31Z</time>
      </trkpt>
      <trkpt lat="48.6141" lon="2.55283">
        <ele>163.45634</ele>
        <time>2017-11-22T15:39:34Z</time>
      </trkpt>
      <trkpt lat="48.61421" lon="2.55293">
        <ele>163.86325</ele>
        <time>2017-11-22T15:39:35Z</time>
      </trkpt>
      <trkpt lat="48.61433" lon="2.55298">
        <ele>163.90817</ele>
        <time>2017-11-22T15:39:38Z</time>
      </trkpt>
      <trkpt lat="48.61454" lon="2.55286">
        <ele>164.14598</ele>
        <time>2017-11-22T15:39:40Z</time>
      </trkpt>
      <trkpt lat="48.61463" lon="2.55267">
        <ele>165.16855</ele>
        <time>2017-11-22T15:39:42Z</time>
      </trkpt>
      <trkpt lat="48.61468" lon="2.55246">
        <ele>165.88988</ele>
        <time>2017-11-22T15:39:44Z</time>
      </trkpt>
      <trkpt lat="48.61462" lon="2.55225">
        <ele>165.75777</ele>
        <time>2017-11-22T15:39:46Z</time>
      </trkpt>
      <trkpt lat="48.61454" lon="2.55204">
        <ele>165.12627</ele>
        <time>2017-11-22T15:39:48Z</time>
      </trkpt>
      <trkpt lat="48.61441" lon="2.55196">
        <ele>164.60574</ele>
        <time>2017-11-22T15:39:50Z</time>
      </trkpt>
      <trkpt lat="48.61428" lon="2.55194">
        <ele>165.32443</ele>
        <time>2017-11-22T15:39:52Z</time>
      </trkpt>
      <trkpt lat="48.61417" lon="2.552">
        <ele>164.75635</ele>
        <time>2017-11-22T15:39:54Z</time>
      </trkpt>
      <trkpt lat="48.61405" lon="2.55207">
        <ele>164.47362</ele>
        <time>2017-11-22T15:39:56Z</time>
      </trkpt>
      <trkpt lat="48.61392" lon="2.55206">
        <ele>164.50005</ele>
        <time>2017-11-22T15:39:58Z</time>
      </trkpt>
      <trkpt lat="48.61378" lon="2.55196">
        <ele>164.5159</ele>
        <time>2017-11-22T15:40:00Z</time>
      </trkpt>
      <trkpt lat="48.61367" lon="2.55181">
        <ele>164.26224</ele>
        <time>2017-11-22T15:40:02Z</time>
      </trkpt>
      <trkpt lat="48.61355" lon="2.55163">
        <ele>163.5726</ele>
        <time>2017-11-22T15:40:04Z</time>
      </trkpt>
      <trkpt lat="48.61345" lon="2.55144">
        <ele>163.62546</ele>
        <time>2017-11-22T15:40:06Z</time>
      </trkpt>
      <trkpt lat="48.61336" lon="2.55121">
        <ele>163.25554</ele>
        <time>2017-11-22T15:40:08Z</time>
      </trkpt>
      <trkpt lat="48.61329" lon="2.55099">
        <ele>163.41672</ele>
        <time>2017-11-22T15:40:10Z</time>
      </trkpt>
      <trkpt lat="48.61323" lon="2.55077">
        <ele>163.41936</ele>
        <time>2017-11-22T15:40:12Z</time>
      </trkpt>
      <trkpt lat="48.61316" lon="2.55054">
        <ele>163.40878</ele>
        <time>2017-11-22T15:40:14Z</time>
      </trkpt>
      <trkpt lat="48.61309" lon="2.55031">
        <ele>164.44984</ele>
        <time>2017-11-22T15:40:16Z</time>
      </trkpt>
      <trkpt lat="48.61305" lon="2.55009">
        <ele>163.17627</ele>
        <time>2017-11-22T15:40:18Z</time>
      </trkpt>
      <trkpt lat="48.61296" lon="2.54975">
        <ele>163.01245</ele>
        <time>2017-11-22T15:40:21Z</time>
      </trkpt>
      <trkpt lat="48.61289" lon="2.54954">
        <ele>163.31366</ele>
        <time>2017-11-22T15:40:23Z</time>
      </trkpt>
      <trkpt lat="48.61282" lon="2.54931">
        <ele>164.09842</ele>
        <time>2017-11-22T15:40:25Z</time>
      </trkpt>
      <trkpt lat="48.61276" lon="2.5491">
        <ele>163.10492</ele>
        <time>2017-11-22T15:40:27Z</time>
      </trkpt>
      <trkpt lat="48.61271" lon="2.54887">
        <ele>163.22119</ele>
        <time>2017-11-22T15:40:29Z</time>
      </trkpt>
      <trkpt lat="48.61263" lon="2.54865">
        <ele>163.70207</ele>
        <time>2017-11-22T15:40:31Z</time>
      </trkpt>
      <trkpt lat="48.61257" lon="2.54844">
        <ele>163.5277</ele>
        <time>2017-11-22T15:40:33Z</time>
      </trkpt>
      <trkpt lat="48.61251" lon="2.54822">
        <ele>164.34415</ele>
        <time>2017-11-22T15:40:35Z</time>
      </trkpt>
      <trkpt lat="48.61245" lon="2.54802">
        <ele>164.40756</ele>
        <time>2017-11-22T15:40:37Z</time>
      </trkpt>
      <trkpt lat="48.61239" lon="2.54782">
        <ele>164.47362</ele>
        <time>2017-11-22T15:40:39Z</time>
      </trkpt>
      <trkpt lat="48.61233" lon="2.54761">
        <ele>163.96631</ele>
        <time>2017-11-22T15:40:41Z</time>
      </trkpt>
      <trkpt lat="48.61226" lon="2.54731">
        <ele>164.41286</ele>
        <time>2017-11-22T15:40:44Z</time>
      </trkpt>
      <trkpt lat="48.61219" lon="2.54711">
        <ele>163.96103</ele>
        <time>2017-11-22T15:40:46Z</time>
      </trkpt>
      <trkpt lat="48.61213" lon="2.5469">
        <ele>163.5224</ele>
        <time>2017-11-22T15:40:48Z</time>
      </trkpt>
      <trkpt lat="48.61208" lon="2.54668">
        <ele>164.5344</ele>
        <time>2017-11-22T15:40:50Z</time>
      </trkpt>
      <trkpt lat="48.61202" lon="2.54648">
        <ele>165.30066</ele>
        <time>2017-11-22T15:40:52Z</time>
      </trkpt>
      <trkpt lat="48.61196" lon="2.54628">
        <ele>163.99274</ele>
        <time>2017-11-22T15:40:54Z</time>
      </trkpt>
      <trkpt lat="48.61189" lon="2.54606">
        <ele>163.86061</ele>
        <time>2017-11-22T15:40:56Z</time>
      </trkpt>
      <trkpt lat="48.61184" lon="2.54586">
        <ele>163.76814</ele>
        <time>2017-11-22T15:40:58Z</time>
      </trkpt>
      <trkpt lat="48.61178" lon="2.54564">
        <ele>164.21997</ele>
        <time>2017-11-22T15:41:00Z</time>
      </trkpt>
      <trkpt lat="48.61173" lon="2.54543">
        <ele>164.06143</ele>
        <time>2017-11-22T15:41:02Z</time>
      </trkpt>
      <trkpt lat="48.61168" lon="2.54521">
        <ele>164.03236</ele>
        <time>2017-11-22T15:41:04Z</time>
      </trkpt>
      <trkpt lat="48.61162" lon="2.54499">
        <ele>163.26346</ele>
        <time>2017-11-22T15:41:06Z</time>
      </trkpt>
      <trkpt lat="48.61155" lon="2.54477">
        <ele>163.23705</ele>
        <time>2017-11-22T15:41:08Z</time>
      </trkpt>
      <trkpt lat="48.61149" lon="2.54455">
        <ele>163.02037</ele>
        <time>2017-11-22T15:41:10Z</time>
      </trkpt>
      <trkpt lat="48.61142" lon="2.54433">
        <ele>163.33217</ele>
        <time>2017-11-22T15:41:12Z</time>
      </trkpt>
      <trkpt lat="48.61135" lon="2.54409">
        <ele>165.07607</ele>
        <time>2017-11-22T15:41:14Z</time>
      </trkpt>
      <trkpt lat="48.61128" lon="2.54388">
        <ele>165.39842</ele>
        <time>2017-11-22T15:41:16Z</time>
      </trkpt>
      <trkpt lat="48.61122" lon="2.54367">
        <ele>164.46042</ele>
        <time>2017-11-22T15:41:18Z</time>
      </trkpt>
      <trkpt lat="48.61116" lon="2.54344">
        <ele>163.59639</ele>
        <time>2017-11-22T15:41:20Z</time>
      </trkpt>
      <trkpt lat="48.6111" lon="2.54321">
        <ele>163.63074</ele>
        <time>2017-11-22T15:41:22Z</time>
      </trkpt>
      <trkpt lat="48.61104" lon="2.543">
        <ele>163.07057</ele>
        <time>2017-11-22T15:41:24Z</time>
      </trkpt>
      <trkpt lat="48.61098" lon="2.54278">
        <ele>162.93318</ele>
        <time>2017-11-22T15:41:26Z</time>
      </trkpt>
      <trkpt lat="48.61092" lon="2.54255">
        <ele>162.73236</ele>
        <time>2017-11-22T15:41:28Z</time>
      </trkpt>
      <trkpt lat="48.61085" lon="2.54233">
        <ele>162.79842</ele>
        <time>2017-11-22T15:41:30Z</time>
      </trkpt>
      <trkpt lat="48.61078" lon="2.54211">
        <ele>163.00981</ele>
        <time>2017-11-22T15:41:32Z</time>
      </trkpt>
      <trkpt lat="48.61072" lon="2.54188">
        <ele>162.9596</ele>
        <time>2017-11-22T15:41:34Z</time>
      </trkpt>
      <trkpt lat="48.61066" lon="2.54165">
        <ele>162.4285</ele>
        <time>2017-11-22T15:41:36Z</time>
      </trkpt>
      <trkpt lat="48.61059" lon="2.54142">
        <ele>162.65045</ele>
        <time>2017-11-22T15:41:38Z</time>
      </trkpt>
      <trkpt lat="48.61052" lon="2.54119">
        <ele>162.89883</ele>
        <time>2017-11-22T15:41:40Z</time>
      </trkpt>
      <trkpt lat="48.61047" lon="2.54097">
        <ele>162.32281</ele>
        <time>2017-11-22T15:41:42Z</time>
      </trkpt>
      <trkpt lat="48.61041" lon="2.54074">
        <ele>163.00452</ele>
        <time>2017-11-22T15:41:44Z</time>
      </trkpt>
      <trkpt lat="48.61034" lon="2.54052">
        <ele>162.9596</ele>
        <time>2017-11-22T15:41:46Z</time>
      </trkpt>
      <trkpt lat="48.61028" lon="2.54029">
        <ele>162.30168</ele>
        <time>2017-11-22T15:41:48Z</time>
      </trkpt>
      <trkpt lat="48.61022" lon="2.54008">
        <ele>162.75879</ele>
        <time>2017-11-22T15:41:50Z</time>
      </trkpt>
      <trkpt lat="48.61015" lon="2.53986">
        <ele>162.55533</ele>
        <time>2017-11-22T15:41:52Z</time>
      </trkpt>
      <trkpt lat="48.61009" lon="2.53963">
        <ele>163.53297</ele>
        <time>2017-11-22T15:41:54Z</time>
      </trkpt>
      <trkpt lat="48.61002" lon="2.53941">
        <ele>163.16306</ele>
        <time>2017-11-22T15:41:56Z</time>
      </trkpt>
      <trkpt lat="48.60997" lon="2.53921">
        <ele>163.31631</ele>
        <time>2017-11-22T15:41:58Z</time>
      </trkpt>
      <trkpt lat="48.60992" lon="2.53899">
        <ele>163.9848</ele>
        <time>2017-11-22T15:42:00Z</time>
      </trkpt>
      <trkpt lat="48.60986" lon="2.53878">
        <ele>163.59111</ele>
        <time>2017-11-22T15:42:02Z</time>
      </trkpt>
      <trkpt lat="48.6098" lon="2.53857">
        <ele>163.27931</ele>
        <time>2017-11-22T15:42:04Z</time>
      </trkpt>
      <trkpt lat="48.60973" lon="2.53836">
        <ele>163.65187</ele>
        <time>2017-11-22T15:42:06Z</time>
      </trkpt>
      <trkpt lat="48.60968" lon="2.53815">
        <ele>164.18562</ele>
        <time>2017-11-22T15:42:08Z</time>
      </trkpt>
      <trkpt lat="48.60962" lon="2.53794">
        <ele>164.08257</ele>
        <time>2017-11-22T15:42:10Z</time>
      </trkpt>
      <trkpt lat="48.60956" lon="2.53774">
        <ele>164.14598</ele>
        <time>2017-11-22T15:42:12Z</time>
      </trkpt>
      <trkpt lat="48.6095" lon="2.53753">
        <ele>164.37321</ele>
        <time>2017-11-22T15:42:14Z</time>
      </trkpt>
      <trkpt lat="48.60944" lon="2.53733">
        <ele>164.08257</ele>
        <time>2017-11-22T15:42:16Z</time>
      </trkpt>
      <trkpt lat="48.60939" lon="2.53713">
        <ele>163.2529</ele>
        <time>2017-11-22T15:42:18Z</time>
      </trkpt>
      <trkpt lat="48.60934" lon="2.53695">
        <ele>163.10228</ele>
        <time>2017-11-22T15:42:20Z</time>
      </trkpt>
      <trkpt lat="48.6093" lon="2.53677">
        <ele>164.07465</ele>
        <time>2017-11-22T15:42:22Z</time>
      </trkpt>
      <trkpt lat="48.6093" lon="2.53659">
        <ele>163.39293</ele>
        <time>2017-11-22T15:42:24Z</time>
      </trkpt>
      <trkpt lat="48.60937" lon="2.53643">
        <ele>163.41672</ele>
        <time>2017-11-22T15:42:26Z</time>
      </trkpt>
      <trkpt lat="48.60941" lon="2.53623">
        <ele>163.61224</ele>
        <time>2017-11-22T15:42:28Z</time>
      </trkpt>
      <trkpt lat="48.60949" lon="2.53608">
        <ele>163.26875</ele>
        <time>2017-11-22T15:42:30Z</time>
      </trkpt>
      <trkpt lat="48.60963" lon="2.536">
        <ele>162.9596</ele>
        <time>2017-11-22T15:42:32Z</time>
      </trkpt>
      <trkpt lat="48.60977" lon="2.53591">
        <ele>162.72972</ele>
        <time>2017-11-22T15:42:34Z</time>
      </trkpt>
      <trkpt lat="48.60992" lon="2.53582">
        <ele>164.20676</ele>
        <time>2017-11-22T15:42:36Z</time>
      </trkpt>
      <trkpt lat="48.61006" lon="2.53572">
        <ele>163.37708</ele>
        <time>2017-11-22T15:42:38Z</time>
      </trkpt>
      <trkpt lat="48.61022" lon="2.53562">
        <ele>162.88826</ele>
        <time>2017-11-22T15:42:40Z</time>
      </trkpt>
      <trkpt lat="48.61037" lon="2.53553">
        <ele>162.85919</ele>
        <time>2017-11-22T15:42:42Z</time>
      </trkpt>
      <trkpt lat="48.61054" lon="2.53542">
        <ele>162.75351</ele>
        <time>2017-11-22T15:42:44Z</time>
      </trkpt>
      <trkpt lat="48.61069" lon="2.53533">
        <ele>163.15514</ele>
        <time>2017-11-22T15:42:46Z</time>
      </trkpt>
      <trkpt lat="48.61077" lon="2.53527">
        <ele>162.6399</ele>
        <time>2017-11-22T15:42:47Z</time>
      </trkpt>
      <trkpt lat="48.61086" lon="2.53522">
        <ele>162.85391</ele>
        <time>2017-11-22T15:42:48Z</time>
      </trkpt>
      <trkpt lat="48.61102" lon="2.53511">
        <ele>163.66508</ele>
        <time>2017-11-22T15:42:50Z</time>
      </trkpt>
      <trkpt lat="48.61118" lon="2.53502">
        <ele>162.34923</ele>
        <time>2017-11-22T15:42:52Z</time>
      </trkpt>
      <trkpt lat="48.61134" lon="2.53493">
        <ele>163.05208</ele>
        <time>2017-11-22T15:42:54Z</time>
      </trkpt>
      <trkpt lat="48.61149" lon="2.53482">
        <ele>162.92525</ele>
        <time>2017-11-22T15:42:56Z</time>
      </trkpt>
      <trkpt lat="48.61165" lon="2.53472">
        <ele>162.83278</ele>
        <time>2017-11-22T15:42:58Z</time>
      </trkpt>
      <trkpt lat="48.6118" lon="2.53462">
        <ele>162.43115</ele>
        <time>2017-11-22T15:43:00Z</time>
      </trkpt>
      <trkpt lat="48.61194" lon="2.53453">
        <ele>162.69273</ele>
        <time>2017-11-22T15:43:02Z</time>
      </trkpt>
      <trkpt lat="48.61208" lon="2.53443">
        <ele>163.61752</ele>
        <time>2017-11-22T15:43:04Z</time>
      </trkpt>
      <trkpt lat="48.61221" lon="2.53435">
        <ele>162.7033</ele>
        <time>2017-11-22T15:43:06Z</time>
      </trkpt>
      <trkpt lat="48.61234" lon="2.53427">
        <ele>162.67688</ele>
        <time>2017-11-22T15:43:08Z</time>
      </trkpt>
      <trkpt lat="48.61245" lon="2.53419">
        <ele>163.09964</ele>
        <time>2017-11-22T15:43:10Z</time>
      </trkpt>
      <trkpt lat="48.61256" lon="2.53412">
        <ele>162.5342</ele>
        <time>2017-11-22T15:43:12Z</time>
      </trkpt>
      <trkpt lat="48.61266" lon="2.53405">
        <ele>162.65839</ele>
        <time>2017-11-22T15:43:14Z</time>
      </trkpt>
      <trkpt lat="48.61277" lon="2.534">
        <ele>162.78522</ele>
        <time>2017-11-22T15:43:16Z</time>
      </trkpt>
      <trkpt lat="48.61287" lon="2.53393">
        <ele>163.0785</ele>
        <time>2017-11-22T15:43:18Z</time>
      </trkpt>
      <trkpt lat="48.61296" lon="2.53388">
        <ele>162.46286</ele>
        <time>2017-11-22T15:43:20Z</time>
      </trkpt>
      <trkpt lat="48.61305" lon="2.53382">
        <ele>162.17221</ele>
        <time>2017-11-22T15:43:22Z</time>
      </trkpt>
      <trkpt lat="48.61314" lon="2.53376">
        <ele>162.62138</ele>
        <time>2017-11-22T15:43:24Z</time>
      </trkpt>
      <trkpt lat="48.61323" lon="2.5337">
        <ele>162.31224</ele>
        <time>2017-11-22T15:43:26Z</time>
      </trkpt>
      <trkpt lat="48.61331" lon="2.53364">
        <ele>161.81021</ele>
        <time>2017-11-22T15:43:28Z</time>
      </trkpt>
      <trkpt lat="48.6134" lon="2.53356">
        <ele>162.78786</ele>
        <time>2017-11-22T15:43:30Z</time>
      </trkpt>
      <trkpt lat="48.61351" lon="2.53349">
        <ele>162.96225</ele>
        <time>2017-11-22T15:43:32Z</time>
      </trkpt>
      <trkpt lat="48.61363" lon="2.53341">
        <ele>162.75615</ele>
        <time>2017-11-22T15:43:34Z</time>
      </trkpt>
      <trkpt lat="48.61375" lon="2.53334">
        <ele>162.60289</ele>
        <time>2017-11-22T15:43:36Z</time>
      </trkpt>
      <trkpt lat="48.61387" lon="2.53326">
        <ele>162.36774</ele>
        <time>2017-11-22T15:43:38Z</time>
      </trkpt>
      <trkpt lat="48.61398" lon="2.53319">
        <ele>161.98196</ele>
        <time>2017-11-22T15:43:40Z</time>
      </trkpt>
      <trkpt lat="48.61408" lon="2.53311">
        <ele>162.41264</ele>
        <time>2017-11-22T15:43:42Z</time>
      </trkpt>
      <trkpt lat="48.61413" lon="2.53294">
        <ele>162.93318</ele>
        <time>2017-11-22T15:43:44Z</time>
      </trkpt>
      <trkpt lat="48.6141" lon="2.53274">
        <ele>163.74435</ele>
        <time>2017-11-22T15:43:46Z</time>
      </trkpt>
      <trkpt lat="48.61404" lon="2.53253">
        <ele>163.20798</ele>
        <time>2017-11-22T15:43:48Z</time>
      </trkpt>
      <trkpt lat="48.61398" lon="2.53231">
        <ele>164.34944</ele>
        <time>2017-11-22T15:43:50Z</time>
      </trkpt>
      <trkpt lat="48.61391" lon="2.53208">
        <ele>163.43521</ele>
        <time>2017-11-22T15:43:52Z</time>
      </trkpt>
      <trkpt lat="48.61385" lon="2.53184">
        <ele>163.22119</ele>
        <time>2017-11-22T15:43:54Z</time>
      </trkpt>
      <trkpt lat="48.61379" lon="2.53161">
        <ele>163.2529</ele>
        <time>2017-11-22T15:43:56Z</time>
      </trkpt>
      <trkpt lat="48.61372" lon="2.53138">
        <ele>164.75635</ele>
        <time>2017-11-22T15:43:58Z</time>
      </trkpt>
      <trkpt lat="48.61366" lon="2.53116">
        <ele>165.03378</ele>
        <time>2017-11-22T15:44:00Z</time>
      </trkpt>
      <trkpt lat="48.61359" lon="2.53094">
        <ele>163.46692</ele>
        <time>2017-11-22T15:44:02Z</time>
      </trkpt>
      <trkpt lat="48.61354" lon="2.53071">
        <ele>163.93988</ele>
        <time>2017-11-22T15:44:04Z</time>
      </trkpt>
      <trkpt lat="48.61348" lon="2.53049">
        <ele>163.62282</ele>
        <time>2017-11-22T15:44:06Z</time>
      </trkpt>
      <trkpt lat="48.61341" lon="2.53026">
        <ele>164.35736</ele>
        <time>2017-11-22T15:44:08Z</time>
      </trkpt>
      <trkpt lat="48.61335" lon="2.53004">
        <ele>163.6598</ele>
        <time>2017-11-22T15:44:10Z</time>
      </trkpt>
      <trkpt lat="48.61328" lon="2.52981">
        <ele>163.97159</ele>
        <time>2017-11-22T15:44:12Z</time>
      </trkpt>
      <trkpt lat="48.61322" lon="2.5296">
        <ele>164.27281</ele>
        <time>2017-11-22T15:44:14Z</time>
      </trkpt>
      <trkpt lat="48.61316" lon="2.52938">
        <ele>164.02708</ele>
        <time>2017-11-22T15:44:16Z</time>
      </trkpt>
      <trkpt lat="48.61309" lon="2.52917">
        <ele>164.50533</ele>
        <time>2017-11-22T15:44:18Z</time>
      </trkpt>
      <trkpt lat="48.61303" lon="2.52897">
        <ele>164.09578</ele>
        <time>2017-11-22T15:44:20Z</time>
      </trkpt>
      <trkpt lat="48.61296" lon="2.52877">
        <ele>164.52911</ele>
        <time>2017-11-22T15:44:22Z</time>
      </trkpt>
      <trkpt lat="48.61288" lon="2.52858">
        <ele>163.95045</ele>
        <time>2017-11-22T15:44:24Z</time>
      </trkpt>
      <trkpt lat="48.61279" lon="2.52839">
        <ele>164.1354</ele>
        <time>2017-11-22T15:44:26Z</time>
      </trkpt>
      <trkpt lat="48.61269" lon="2.52821">
        <ele>164.71407</ele>
        <time>2017-11-22T15:44:28Z</time>
      </trkpt>
      <trkpt lat="48.61259" lon="2.52804">
        <ele>164.47891</ele>
        <time>2017-11-22T15:44:30Z</time>
      </trkpt>
      <trkpt lat="48.61248" lon="2.52786">
        <ele>164.07993</ele>
        <time>2017-11-22T15:44:32Z</time>
      </trkpt>
      <trkpt lat="48.61238" lon="2.52767">
        <ele>163.99538</ele>
        <time>2017-11-22T15:44:34Z</time>
      </trkpt>
      <trkpt lat="48.61229" lon="2.52748">
        <ele>163.784</ele>
        <time>2017-11-22T15:44:36Z</time>
      </trkpt>
      <trkpt lat="48.61219" lon="2.52729">
        <ele>163.63338</ele>
        <time>2017-11-22T15:44:38Z</time>
      </trkpt>
      <trkpt lat="48.61211" lon="2.52708">
        <ele>163.62546</ele>
        <time>2017-11-22T15:44:40Z</time>
      </trkpt>
      <trkpt lat="48.61204" lon="2.52686">
        <ele>163.97423</ele>
        <time>2017-11-22T15:44:42Z</time>
      </trkpt>
      <trkpt lat="48.61197" lon="2.52664">
        <ele>162.96225</ele>
        <time>2017-11-22T15:44:44Z</time>
      </trkpt>
      <trkpt lat="48.61192" lon="2.52641">
        <ele>162.89618</ele>
        <time>2017-11-22T15:44:46Z</time>
      </trkpt>
      <trkpt lat="48.61188" lon="2.52617">
        <ele>163.13663</ele>
        <time>2017-11-22T15:44:48Z</time>
      </trkpt>
      <trkpt lat="48.61184" lon="2.52592">
        <ele>163.89232</ele>
        <time>2017-11-22T15:44:50Z</time>
      </trkpt>
      <trkpt lat="48.61181" lon="2.52568">
        <ele>162.68744</ele>
        <time>2017-11-22T15:44:52Z</time>
      </trkpt>
      <trkpt lat="48.6118" lon="2.52543">
        <ele>162.81427</ele>
        <time>2017-11-22T15:44:54Z</time>
      </trkpt>
      <trkpt lat="48.61179" lon="2.52517">
        <ele>162.75351</ele>
        <time>2017-11-22T15:44:56Z</time>
      </trkpt>
      <trkpt lat="48.6118" lon="2.52491">
        <ele>163.27667</ele>
        <time>2017-11-22T15:44:58Z</time>
      </trkpt>
      <trkpt lat="48.61185" lon="2.52468">
        <ele>163.45634</ele>
        <time>2017-11-22T15:45:00Z</time>
      </trkpt>
      <trkpt lat="48.61191" lon="2.52448">
        <ele>163.1657</ele>
        <time>2017-11-22T15:45:02Z</time>
      </trkpt>
      <trkpt lat="48.61194" lon="2.52423">
        <ele>162.93318</ele>
        <time>2017-11-22T15:45:04Z</time>
      </trkpt>
      <trkpt lat="48.61193" lon="2.52397">
        <ele>162.59233</ele>
        <time>2017-11-22T15:45:06Z</time>
      </trkpt>
      <trkpt lat="48.61198" lon="2.52372">
        <ele>162.45757</ele>
        <time>2017-11-22T15:45:08Z</time>
      </trkpt>
      <trkpt lat="48.61205" lon="2.5235">
        <ele>162.63724</ele>
        <time>2017-11-22T15:45:10Z</time>
      </trkpt>
      <trkpt lat="48.61213" lon="2.52326">
        <ele>161.7468</ele>
        <time>2017-11-22T15:45:12Z</time>
      </trkpt>
      <trkpt lat="48.61223" lon="2.52304">
        <ele>162.07973</ele>
        <time>2017-11-22T15:45:14Z</time>
      </trkpt>
      <trkpt lat="48.61232" lon="2.52283">
        <ele>161.81285</ele>
        <time>2017-11-22T15:45:16Z</time>
      </trkpt>
      <trkpt lat="48.61243" lon="2.52263">
        <ele>161.58826</ele>
        <time>2017-11-22T15:45:18Z</time>
      </trkpt>
      <trkpt lat="48.61249" lon="2.52253">
        <ele>161.28969</ele>
        <time>2017-11-22T15:45:19Z</time>
      </trkpt>
      <trkpt lat="48.61255" lon="2.52242">
        <ele>162.16956</ele>
        <time>2017-11-22T15:45:20Z</time>
      </trkpt>
      <trkpt lat="48.61266" lon="2.52222">
        <ele>162.01102</ele>
        <time>2017-11-22T15:45:22Z</time>
      </trkpt>
      <trkpt lat="48.61277" lon="2.52201">
        <ele>161.37688</ele>
        <time>2017-11-22T15:45:24Z</time>
      </trkpt>
      <trkpt lat="48.61287" lon="2.52181">
        <ele>161.33989</ele>
        <time>2017-11-22T15:45:26Z</time>
      </trkpt>
      <trkpt lat="48.61293" lon="2.5217">
        <ele>161.40067</ele>
        <time>2017-11-22T15:45:27Z</time>
      </trkpt>
      <trkpt lat="48.61302" lon="2.52149">
        <ele>161.76793</ele>
        <time>2017-11-22T15:45:29Z</time>
      </trkpt>
      <trkpt lat="48.61308" lon="2.52138">
        <ele>161.75473</ele>
        <time>2017-11-22T15:45:30Z</time>
      </trkpt>
      <trkpt lat="48.61317" lon="2.52117">
        <ele>161.65697</ele>
        <time>2017-11-22T15:45:32Z</time>
      </trkpt>
      <trkpt lat="48.61327" lon="2.52095">
        <ele>160.82729</ele>
        <time>2017-11-22T15:45:34Z</time>
      </trkpt>
      <trkpt lat="48.61336" lon="2.52074">
        <ele>160.33847</ele>
        <time>2017-11-22T15:45:36Z</time>
      </trkpt>
      <trkpt lat="48.61345" lon="2.52056">
        <ele>160.63704</ele>
        <time>2017-11-22T15:45:38Z</time>
      </trkpt>
      <trkpt lat="48.61355" lon="2.52037">
        <ele>161.31082</ele>
        <time>2017-11-22T15:45:40Z</time>
      </trkpt>
      <trkpt lat="48.61364" lon="2.52021">
        <ele>160.84842</ele>
        <time>2017-11-22T15:45:42Z</time>
      </trkpt>
      <trkpt lat="48.61367" lon="2.52001">
        <ele>161.19984</ele>
        <time>2017-11-22T15:45:44Z</time>
      </trkpt>
      <trkpt lat="48.6137" lon="2.51979">
        <ele>160.4468</ele>
        <time>2017-11-22T15:45:46Z</time>
      </trkpt>
      <trkpt lat="48.61378" lon="2.51959">
        <ele>160.15086</ele>
        <time>2017-11-22T15:45:48Z</time>
      </trkpt>
      <trkpt lat="48.61386" lon="2.51939">
        <ele>160.00026</ele>
        <time>2017-11-22T15:45:50Z</time>
      </trkpt>
      <trkpt lat="48.61395" lon="2.51918">
        <ele>160.20634</ele>
        <time>2017-11-22T15:45:52Z</time>
      </trkpt>
      <trkpt lat="48.61403" lon="2.51897">
        <ele>160.10594</ele>
        <time>2017-11-22T15:45:54Z</time>
      </trkpt>
      <trkpt lat="48.61411" lon="2.51876">
        <ele>160.19843</ele>
        <time>2017-11-22T15:45:56Z</time>
      </trkpt>
      <trkpt lat="48.61419" lon="2.51854">
        <ele>160.68988</ele>
        <time>2017-11-22T15:45:58Z</time>
      </trkpt>
      <trkpt lat="48.61428" lon="2.51833">
        <ele>160.92769</ele>
        <time>2017-11-22T15:46:00Z</time>
      </trkpt>
      <trkpt lat="48.61436" lon="2.51812">
        <ele>160.50229</ele>
        <time>2017-11-22T15:46:02Z</time>
      </trkpt>
      <trkpt lat="48.61443" lon="2.5179">
        <ele>160.72688</ele>
        <time>2017-11-22T15:46:04Z</time>
      </trkpt>
      <trkpt lat="48.61451" lon="2.5177">
        <ele>161.24477</ele>
        <time>2017-11-22T15:46:06Z</time>
      </trkpt>
      <trkpt lat="48.61459" lon="2.51749">
        <ele>160.57362</ele>
        <time>2017-11-22T15:46:08Z</time>
      </trkpt>
      <trkpt lat="48.61467" lon="2.51727">
        <ele>161.44823</ele>
        <time>2017-11-22T15:46:10Z</time>
      </trkpt>
      <trkpt lat="48.61475" lon="2.51707">
        <ele>161.18663</ele>
        <time>2017-11-22T15:46:12Z</time>
      </trkpt>
      <trkpt lat="48.61484" lon="2.51686">
        <ele>161.80229</ele>
        <time>2017-11-22T15:46:14Z</time>
      </trkpt>
      <trkpt lat="48.61493" lon="2.51665">
        <ele>161.08359</ele>
        <time>2017-11-22T15:46:16Z</time>
      </trkpt>
      <trkpt lat="48.61501" lon="2.51644">
        <ele>162.1088</ele>
        <time>2017-11-22T15:46:18Z</time>
      </trkpt>
      <trkpt lat="48.61508" lon="2.51622">
        <ele>162.48135</ele>
        <time>2017-11-22T15:46:20Z</time>
      </trkpt>
      <trkpt lat="48.61515" lon="2.516">
        <ele>161.92647</ele>
        <time>2017-11-22T15:46:22Z</time>
      </trkpt>
      <trkpt lat="48.61523" lon="2.51578">
        <ele>162.64781</ele>
        <time>2017-11-22T15:46:24Z</time>
      </trkpt>
      <trkpt lat="48.61532" lon="2.51557">
        <ele>163.43521</ele>
        <time>2017-11-22T15:46:26Z</time>
      </trkpt>
      <trkpt lat="48.61541" lon="2.51537">
        <ele>162.6399</ele>
        <time>2017-11-22T15:46:28Z</time>
      </trkpt>
      <trkpt lat="48.61548" lon="2.51518">
        <ele>161.46936</ele>
        <time>2017-11-22T15:46:30Z</time>
      </trkpt>
      <trkpt lat="48.61556" lon="2.515">
        <ele>161.9344</ele>
        <time>2017-11-22T15:46:32Z</time>
      </trkpt>
      <trkpt lat="48.61562" lon="2.51482">
        <ele>162.26732</ele>
        <time>2017-11-22T15:46:34Z</time>
      </trkpt>
      <trkpt lat="48.61569" lon="2.51466">
        <ele>162.63724</ele>
        <time>2017-11-22T15:46:36Z</time>
      </trkpt>
      <trkpt lat="48.61576" lon="2.5145">
        <ele>163.30046</ele>
        <time>2017-11-22T15:46:38Z</time>
      </trkpt>
      <trkpt lat="48.61582" lon="2.51432">
        <ele>162.57912</ele>
        <time>2017-11-22T15:46:40Z</time>
      </trkpt>
      <trkpt lat="48.61588" lon="2.51415">
        <ele>162.56326</ele>
        <time>2017-11-22T15:46:42Z</time>
      </trkpt>
      <trkpt lat="48.61593" lon="2.514">
        <ele>162.39944</ele>
        <time>2017-11-22T15:46:44Z</time>
      </trkpt>
      <trkpt lat="48.61599" lon="2.51385">
        <ele>162.54477</ele>
        <time>2017-11-22T15:46:46Z</time>
      </trkpt>
      <trkpt lat="48.61605" lon="2.51371">
        <ele>162.99396</ele>
        <time>2017-11-22T15:46:48Z</time>
      </trkpt>
      <trkpt lat="48.6161" lon="2.51358">
        <ele>163.51448</ele>
        <time>2017-11-22T15:46:50Z</time>
      </trkpt>
      <trkpt lat="48.61618" lon="2.51347">
        <ele>162.95432</ele>
        <time>2017-11-22T15:46:52Z</time>
      </trkpt>
      <trkpt lat="48.61625" lon="2.51334">
        <ele>164.0033</ele>
        <time>2017-11-22T15:46:54Z</time>
      </trkpt>
      <trkpt lat="48.61628" lon="2.51317">
        <ele>163.69943</ele>
        <time>2017-11-22T15:46:56Z</time>
      </trkpt>
      <trkpt lat="48.61625" lon="2.51298">
        <ele>164.32301</ele>
        <time>2017-11-22T15:46:58Z</time>
      </trkpt>
      <trkpt lat="48.61618" lon="2.51281">
        <ele>163.94518</ele>
        <time>2017-11-22T15:47:00Z</time>
      </trkpt>
      <trkpt lat="48.61614" lon="2.51262">
        <ele>164.46042</ele>
        <time>2017-11-22T15:47:02Z</time>
      </trkpt>
      <trkpt lat="48.61614" lon="2.5124">
        <ele>164.24638</ele>
        <time>2017-11-22T15:47:04Z</time>
      </trkpt>
      <trkpt lat="48.6161" lon="2.51219">
        <ele>164.14598</ele>
        <time>2017-11-22T15:47:06Z</time>
      </trkpt>
      <trkpt lat="48.61605" lon="2.51198">
        <ele>164.40756</ele>
        <time>2017-11-22T15:47:08Z</time>
      </trkpt>
      <trkpt lat="48.61601" lon="2.51177">
        <ele>164.55289</ele>
        <time>2017-11-22T15:47:10Z</time>
      </trkpt>
      <trkpt lat="48.61596" lon="2.51155">
        <ele>165.18704</ele>
        <time>2017-11-22T15:47:12Z</time>
      </trkpt>
      <trkpt lat="48.61591" lon="2.51135">
        <ele>164.75107</ele>
        <time>2017-11-22T15:47:14Z</time>
      </trkpt>
      <trkpt lat="48.61588" lon="2.51114">
        <ele>164.48155</ele>
        <time>2017-11-22T15:47:16Z</time>
      </trkpt>
      <trkpt lat="48.61583" lon="2.51095">
        <ele>165.6785</ele>
        <time>2017-11-22T15:47:18Z</time>
      </trkpt>
      <trkpt lat="48.61579" lon="2.51074">
        <ele>164.4657</ele>
        <time>2017-11-22T15:47:20Z</time>
      </trkpt>
      <trkpt lat="48.61577" lon="2.51055">
        <ele>165.15533</ele>
        <time>2017-11-22T15:47:22Z</time>
      </trkpt>
      <trkpt lat="48.61577" lon="2.51034">
        <ele>165.37729</ele>
        <time>2017-11-22T15:47:24Z</time>
      </trkpt>
      <trkpt lat="48.61577" lon="2.51013">
        <ele>164.94923</ele>
        <time>2017-11-22T15:47:26Z</time>
      </trkpt>
      <trkpt lat="48.61578" lon="2.50992">
        <ele>165.20554</ele>
        <time>2017-11-22T15:47:28Z</time>
      </trkpt>
      <trkpt lat="48.61578" lon="2.50972">
        <ele>165.61244</ele>
        <time>2017-11-22T15:47:30Z</time>
      </trkpt>
      <trkpt lat="48.6158" lon="2.50952">
        <ele>165.65208</ele>
        <time>2017-11-22T15:47:32Z</time>
      </trkpt>
      <trkpt lat="48.61583" lon="2.50932">
        <ele>165.40898</ele>
        <time>2017-11-22T15:47:34Z</time>
      </trkpt>
      <trkpt lat="48.61583" lon="2.50912">
        <ele>165.37463</ele>
        <time>2017-11-22T15:47:36Z</time>
      </trkpt>
      <trkpt lat="48.61584" lon="2.50893">
        <ele>164.57404</ele>
        <time>2017-11-22T15:47:38Z</time>
      </trkpt>
      <trkpt lat="48.61592" lon="2.50878">
        <ele>164.56346</ele>
        <time>2017-11-22T15:47:40Z</time>
      </trkpt>
      <trkpt lat="48.61603" lon="2.50872">
        <ele>164.72992</ele>
        <time>2017-11-22T15:47:42Z</time>
      </trkpt>
      <trkpt lat="48.61615" lon="2.50865">
        <ele>164.74841</ele>
        <time>2017-11-22T15:47:44Z</time>
      </trkpt>
      <trkpt lat="48.61629" lon="2.50856">
        <ele>164.42606</ele>
        <time>2017-11-22T15:47:46Z</time>
      </trkpt>
      <trkpt lat="48.61643" lon="2.50847">
        <ele>164.28339</ele>
        <time>2017-11-22T15:47:48Z</time>
      </trkpt>
      <trkpt lat="48.61658" lon="2.5084">
        <ele>164.24902</ele>
        <time>2017-11-22T15:47:50Z</time>
      </trkpt>
      <trkpt lat="48.61673" lon="2.5084">
        <ele>164.04294</ele>
        <time>2017-11-22T15:47:52Z</time>
      </trkpt>
      <trkpt lat="48.61687" lon="2.5085">
        <ele>164.17241</ele>
        <time>2017-11-22T15:47:54Z</time>
      </trkpt>
      <trkpt lat="48.61701" lon="2.50861">
        <ele>163.8342</ele>
        <time>2017-11-22T15:47:56Z</time>
      </trkpt>
      <trkpt lat="48.61716" lon="2.50873">
        <ele>163.55675</ele>
        <time>2017-11-22T15:47:58Z</time>
      </trkpt>
      <trkpt lat="48.61731" lon="2.50885">
        <ele>164.08257</ele>
        <time>2017-11-22T15:48:00Z</time>
      </trkpt>
      <trkpt lat="48.61746" lon="2.50897">
        <ele>163.86325</ele>
        <time>2017-11-22T15:48:02Z</time>
      </trkpt>
      <trkpt lat="48.61762" lon="2.50909">
        <ele>163.70737</ele>
        <time>2017-11-22T15:48:04Z</time>
      </trkpt>
      <trkpt lat="48.61778" lon="2.50921">
        <ele>163.22119</ele>
        <time>2017-11-22T15:48:06Z</time>
      </trkpt>
      <trkpt lat="48.61786" lon="2.50928">
        <ele>164.17769</ele>
        <time>2017-11-22T15:48:07Z</time>
      </trkpt>
      <trkpt lat="48.61795" lon="2.50934">
        <ele>163.14192</ele>
        <time>2017-11-22T15:48:08Z</time>
      </trkpt>
      <trkpt lat="48.61811" lon="2.50946">
        <ele>163.4722</ele>
        <time>2017-11-22T15:48:10Z</time>
      </trkpt>
      <trkpt lat="48.61827" lon="2.50958">
        <ele>162.4153</ele>
        <time>2017-11-22T15:48:12Z</time>
      </trkpt>
      <trkpt lat="48.61836" lon="2.50965">
        <ele>162.1907</ele>
        <time>2017-11-22T15:48:13Z</time>
      </trkpt>
      <trkpt lat="48.61845" lon="2.50972">
        <ele>162.78522</ele>
        <time>2017-11-22T15:48:14Z</time>
      </trkpt>
      <trkpt lat="48.61853" lon="2.50979">
        <ele>162.75615</ele>
        <time>2017-11-22T15:48:15Z</time>
      </trkpt>
      <trkpt lat="48.61863" lon="2.50986">
        <ele>162.75085</ele>
        <time>2017-11-22T15:48:16Z</time>
      </trkpt>
      <trkpt lat="48.61872" lon="2.50993">
        <ele>162.40736</ele>
        <time>2017-11-22T15:48:17Z</time>
      </trkpt>
      <trkpt lat="48.61882" lon="2.51">
        <ele>162.34659</ele>
        <time>2017-11-22T15:48:18Z</time>
      </trkpt>
      <trkpt lat="48.61891" lon="2.51007">
        <ele>162.71123</ele>
        <time>2017-11-22T15:48:19Z</time>
      </trkpt>
      <trkpt lat="48.61899" lon="2.51015">
        <ele>162.02159</ele>
        <time>2017-11-22T15:48:20Z</time>
      </trkpt>
      <trkpt lat="48.61908" lon="2.51022">
        <ele>162.7033</ele>
        <time>2017-11-22T15:48:21Z</time>
      </trkpt>
      <trkpt lat="48.61917" lon="2.51029">
        <ele>162.08765</ele>
        <time>2017-11-22T15:48:22Z</time>
      </trkpt>
      <trkpt lat="48.61926" lon="2.51037">
        <ele>162.18541</ele>
        <time>2017-11-22T15:48:23Z</time>
      </trkpt>
      <trkpt lat="48.61935" lon="2.51045">
        <ele>161.40858</ele>
        <time>2017-11-22T15:48:24Z</time>
      </trkpt>
      <trkpt lat="48.61945" lon="2.51052">
        <ele>162.07709</ele>
        <time>2017-11-22T15:48:25Z</time>
      </trkpt>
      <trkpt lat="48.61954" lon="2.5106">
        <ele>161.8974</ele>
        <time>2017-11-22T15:48:26Z</time>
      </trkpt>
      <trkpt lat="48.61963" lon="2.51067">
        <ele>161.59355</ele>
        <time>2017-11-22T15:48:27Z</time>
      </trkpt>
      <trkpt lat="48.61972" lon="2.51075">
        <ele>161.81815</ele>
        <time>2017-11-22T15:48:28Z</time>
      </trkpt>
      <trkpt lat="48.61981" lon="2.51082">
        <ele>161.65167</ele>
        <time>2017-11-22T15:48:29Z</time>
      </trkpt>
      <trkpt lat="48.6199" lon="2.51089">
        <ele>161.87363</ele>
        <time>2017-11-22T15:48:30Z</time>
      </trkpt>
      <trkpt lat="48.62" lon="2.51096">
        <ele>161.51163</ele>
        <time>2017-11-22T15:48:31Z</time>
      </trkpt>
      <trkpt lat="48.62008" lon="2.51103">
        <ele>161.6464</ele>
        <time>2017-11-22T15:48:32Z</time>
      </trkpt>
      <trkpt lat="48.62016" lon="2.5111">
        <ele>161.56712</ele>
        <time>2017-11-22T15:48:33Z</time>
      </trkpt>
      <trkpt lat="48.62025" lon="2.51116">
        <ele>162.0718</ele>
        <time>2017-11-22T15:48:34Z</time>
      </trkpt>
      <trkpt lat="48.6204" lon="2.51129">
        <ele>161.71245</ele>
        <time>2017-11-22T15:48:36Z</time>
      </trkpt>
      <trkpt lat="48.62056" lon="2.5114">
        <ele>161.96082</ele>
        <time>2017-11-22T15:48:38Z</time>
      </trkpt>
      <trkpt lat="48.62064" lon="2.51147">
        <ele>161.71509</ele>
        <time>2017-11-22T15:48:39Z</time>
      </trkpt>
      <trkpt lat="48.62079" lon="2.51159">
        <ele>161.31876</ele>
        <time>2017-11-22T15:48:41Z</time>
      </trkpt>
      <trkpt lat="48.62095" lon="2.51171">
        <ele>161.72037</ele>
        <time>2017-11-22T15:48:43Z</time>
      </trkpt>
      <trkpt lat="48.62103" lon="2.51177">
        <ele>161.02017</ele>
        <time>2017-11-22T15:48:44Z</time>
      </trkpt>
      <trkpt lat="48.62118" lon="2.51189">
        <ele>161.35838</ele>
        <time>2017-11-22T15:48:46Z</time>
      </trkpt>
      <trkpt lat="48.62127" lon="2.51196">
        <ele>161.82343</ele>
        <time>2017-11-22T15:48:47Z</time>
      </trkpt>
      <trkpt lat="48.62135" lon="2.51202">
        <ele>161.28705</ele>
        <time>2017-11-22T15:48:48Z</time>
      </trkpt>
      <trkpt lat="48.6215" lon="2.51216">
        <ele>161.18135</ele>
        <time>2017-11-22T15:48:50Z</time>
      </trkpt>
      <trkpt lat="48.62166" lon="2.51229">
        <ele>160.73216</ele>
        <time>2017-11-22T15:48:52Z</time>
      </trkpt>
      <trkpt lat="48.62181" lon="2.5124">
        <ele>160.66083</ele>
        <time>2017-11-22T15:48:54Z</time>
      </trkpt>
      <trkpt lat="48.62197" lon="2.51253">
        <ele>160.86691</ele>
        <time>2017-11-22T15:48:56Z</time>
      </trkpt>
      <trkpt lat="48.62214" lon="2.51266">
        <ele>162.44171</ele>
        <time>2017-11-22T15:48:58Z</time>
      </trkpt>
      <trkpt lat="48.62229" lon="2.51277">
        <ele>160.172</ele>
        <time>2017-11-22T15:49:00Z</time>
      </trkpt>
      <trkpt lat="48.62245" lon="2.51289">
        <ele>160.30676</ele>
        <time>2017-11-22T15:49:02Z</time>
      </trkpt>
      <trkpt lat="48.62253" lon="2.51296">
        <ele>160.49435</ele>
        <time>2017-11-22T15:49:03Z</time>
      </trkpt>
      <trkpt lat="48.62268" lon="2.51309">
        <ele>159.85228</ele>
        <time>2017-11-22T15:49:05Z</time>
      </trkpt>
      <trkpt lat="48.62276" lon="2.51316">
        <ele>159.81265</ele>
        <time>2017-11-22T15:49:06Z</time>
      </trkpt>
      <trkpt lat="48.62285" lon="2.51322">
        <ele>160.26712</ele>
        <time>2017-11-22T15:49:07Z</time>
      </trkpt>
      <trkpt lat="48.623" lon="2.51334">
        <ele>159.14944</ele>
        <time>2017-11-22T15:49:09Z</time>
      </trkpt>
      <trkpt lat="48.62315" lon="2.51345">
        <ele>159.21814</ele>
        <time>2017-11-22T15:49:11Z</time>
      </trkpt>
      <trkpt lat="48.62329" lon="2.51357">
        <ele>159.27892</ele>
        <time>2017-11-22T15:49:13Z</time>
      </trkpt>
      <trkpt lat="48.62343" lon="2.51369">
        <ele>159.90778</ele>
        <time>2017-11-22T15:49:15Z</time>
      </trkpt>
      <trkpt lat="48.62355" lon="2.51378">
        <ele>159.5907</ele>
        <time>2017-11-22T15:49:17Z</time>
      </trkpt>
      <trkpt lat="48.62367" lon="2.51388">
        <ele>159.69376</ele>
        <time>2017-11-22T15:49:19Z</time>
      </trkpt>
      <trkpt lat="48.62378" lon="2.51397">
        <ele>159.85493</ele>
        <time>2017-11-22T15:49:21Z</time>
      </trkpt>
      <trkpt lat="48.62389" lon="2.51405">
        <ele>159.46387</ele>
        <time>2017-11-22T15:49:23Z</time>
      </trkpt>
      <trkpt lat="48.62399" lon="2.51412">
        <ele>159.44273</ele>
        <time>2017-11-22T15:49:25Z</time>
      </trkpt>
      <trkpt lat="48.62408" lon="2.5142">
        <ele>160.23277</ele>
        <time>2017-11-22T15:49:27Z</time>
      </trkpt>
      <trkpt lat="48.62417" lon="2.51427">
        <ele>160.12709</ele>
        <time>2017-11-22T15:49:29Z</time>
      </trkpt>
      <trkpt lat="48.62427" lon="2.51434">
        <ele>160.36752</ele>
        <time>2017-11-22T15:49:31Z</time>
      </trkpt>
      <trkpt lat="48.62437" lon="2.51442">
        <ele>159.95006</ele>
        <time>2017-11-22T15:49:33Z</time>
      </trkpt>
      <trkpt lat="48.62448" lon="2.5145">
        <ele>160.51021</ele>
        <time>2017-11-22T15:49:35Z</time>
      </trkpt>
      <trkpt lat="48.62459" lon="2.51459">
        <ele>160.38603</ele>
        <time>2017-11-22T15:49:37Z</time>
      </trkpt>
      <trkpt lat="48.6247" lon="2.51468">
        <ele>160.23805</ele>
        <time>2017-11-22T15:49:39Z</time>
      </trkpt>
      <trkpt lat="48.62481" lon="2.51477">
        <ele>160.47058</ele>
        <time>2017-11-22T15:49:41Z</time>
      </trkpt>
      <trkpt lat="48.62493" lon="2.51485">
        <ele>161.34781</ele>
        <time>2017-11-22T15:49:43Z</time>
      </trkpt>
      <trkpt lat="48.62505" lon="2.51495">
        <ele>161.08887</ele>
        <time>2017-11-22T15:49:45Z</time>
      </trkpt>
      <trkpt lat="48.62516" lon="2.51504">
        <ele>161.26062</ele>
        <time>2017-11-22T15:49:47Z</time>
      </trkpt>
      <trkpt lat="48.6253" lon="2.51512">
        <ele>160.98582</ele>
        <time>2017-11-22T15:49:49Z</time>
      </trkpt>
      <trkpt lat="48.62544" lon="2.51519">
        <ele>160.6661</ele>
        <time>2017-11-22T15:49:51Z</time>
      </trkpt>
      <trkpt lat="48.62556" lon="2.51524">
        <ele>161.11266</ele>
        <time>2017-11-22T15:49:53Z</time>
      </trkpt>
      <trkpt lat="48.6257" lon="2.5153">
        <ele>161.39801</ele>
        <time>2017-11-22T15:49:55Z</time>
      </trkpt>
      <trkpt lat="48.62584" lon="2.51536">
        <ele>162.05594</ele>
        <time>2017-11-22T15:49:57Z</time>
      </trkpt>
      <trkpt lat="48.62596" lon="2.51542">
        <ele>161.14436</ele>
        <time>2017-11-22T15:49:59Z</time>
      </trkpt>
      <trkpt lat="48.62608" lon="2.51549">
        <ele>161.39537</ele>
        <time>2017-11-22T15:50:01Z</time>
      </trkpt>
      <trkpt lat="48.62622" lon="2.51556">
        <ele>162.45229</ele>
        <time>2017-11-22T15:50:03Z</time>
      </trkpt>
      <trkpt lat="48.62634" lon="2.51561">
        <ele>161.27911</ele>
        <time>2017-11-22T15:50:05Z</time>
      </trkpt>
      <trkpt lat="48.62647" lon="2.51566">
        <ele>162.15636</ele>
        <time>2017-11-22T15:50:07Z</time>
      </trkpt>
      <trkpt lat="48.62658" lon="2.5157">
        <ele>161.50635</ele>
        <time>2017-11-22T15:50:09Z</time>
      </trkpt>
      <trkpt lat="48.62672" lon="2.51572">
        <ele>161.86041</ele>
        <time>2017-11-22T15:50:11Z</time>
      </trkpt>
      <trkpt lat="48.62683" lon="2.51574">
        <ele>160.93033</ele>
        <time>2017-11-22T15:50:13Z</time>
      </trkpt>
      <trkpt lat="48.62695" lon="2.51577">
        <ele>161.1972</ele>
        <time>2017-11-22T15:50:15Z</time>
      </trkpt>
      <trkpt lat="48.62706" lon="2.5158">
        <ele>160.86163</ele>
        <time>2017-11-22T15:50:17Z</time>
      </trkpt>
      <trkpt lat="48.62716" lon="2.51583">
        <ele>160.98318</ele>
        <time>2017-11-22T15:50:19Z</time>
      </trkpt>
      <trkpt lat="48.62729" lon="2.51585">
        <ele>160.30412</ele>
        <time>2017-11-22T15:50:22Z</time>
      </trkpt>
      <trkpt lat="48.62739" lon="2.51587">
        <ele>160.05574</ele>
        <time>2017-11-22T15:50:25Z</time>
      </trkpt>
      <trkpt lat="48.62748" lon="2.51592">
        <ele>159.9342</ele>
        <time>2017-11-22T15:50:29Z</time>
      </trkpt>
      <trkpt lat="48.62757" lon="2.51598">
        <ele>159.56956</ele>
        <time>2017-11-22T15:50:33Z</time>
      </trkpt>
      <trkpt lat="48.62761" lon="2.51603">
        <ele>159.1468</ele>
        <time>2017-11-22T15:50:40Z</time>
      </trkpt>
      <trkpt lat="48.62761" lon="2.51603">
        <ele>159.1468</ele>
        <time>2017-11-22T15:50:40Z</time>
      </trkpt>
      <trkpt lat="48.62773" lon="2.51618">
        <ele>159.73338</ele>
        <time>2017-11-22T15:50:57Z</time>
      </trkpt>
      <trkpt lat="48.62783" lon="2.51633">
        <ele>159.28156</ele>
        <time>2017-11-22T15:51:00Z</time>
      </trkpt>
      <trkpt lat="48.62789" lon="2.51643">
        <ele>159.60127</ele>
        <time>2017-11-22T15:51:02Z</time>
      </trkpt>
      <trkpt lat="48.62795" lon="2.51654">
        <ele>159.45067</ele>
        <time>2017-11-22T15:51:04Z</time>
      </trkpt>
      <trkpt lat="48.62801" lon="2.51666">
        <ele>159.30533</ele>
        <time>2017-11-22T15:51:07Z</time>
      </trkpt>
      <trkpt lat="48.62802" lon="2.51679">
        <ele>159.30533</ele>
        <time>2017-11-22T15:51:11Z</time>
      </trkpt>
      <trkpt lat="48.62805" lon="2.51696">
        <ele>160.95676</ele>
        <time>2017-11-22T15:51:14Z</time>
      </trkpt>
      <trkpt lat="48.62817" lon="2.51706">
        <ele>160.87485</ele>
        <time>2017-11-22T15:51:17Z</time>
      </trkpt>
      <trkpt lat="48.62826" lon="2.51699">
        <ele>161.78378</ele>
        <time>2017-11-22T15:51:19Z</time>
      </trkpt>
      <trkpt lat="48.62832" lon="2.51682">
        <ele>161.43501</ele>
        <time>2017-11-22T15:51:21Z</time>
      </trkpt>
      <trkpt lat="48.62842" lon="2.51663">
        <ele>160.52078</ele>
        <time>2017-11-22T15:51:23Z</time>
      </trkpt>
      <trkpt lat="48.62854" lon="2.51648">
        <ele>161.53278</ele>
        <time>2017-11-22T15:51:25Z</time>
      </trkpt>
      <trkpt lat="48.62868" lon="2.51632">
        <ele>161.05716</ele>
        <time>2017-11-22T15:51:27Z</time>
      </trkpt>
      <trkpt lat="48.62881" lon="2.51617">
        <ele>161.08887</ele>
        <time>2017-11-22T15:51:29Z</time>
      </trkpt>
      <trkpt lat="48.62893" lon="2.516">
        <ele>160.6661</ele>
        <time>2017-11-22T15:51:31Z</time>
      </trkpt>
      <trkpt lat="48.62907" lon="2.51586">
        <ele>161.24477</ele>
        <time>2017-11-22T15:51:33Z</time>
      </trkpt>
      <trkpt lat="48.62921" lon="2.5157">
        <ele>161.0096</ele>
        <time>2017-11-22T15:51:35Z</time>
      </trkpt>
      <trkpt lat="48.62934" lon="2.51555">
        <ele>161.21306</ele>
        <time>2017-11-22T15:51:37Z</time>
      </trkpt>
      <trkpt lat="48.62946" lon="2.51541">
        <ele>161.2157</ele>
        <time>2017-11-22T15:51:39Z</time>
      </trkpt>
      <trkpt lat="48.62959" lon="2.51526">
        <ele>162.43907</ele>
        <time>2017-11-22T15:51:41Z</time>
      </trkpt>
      <trkpt lat="48.62972" lon="2.51512">
        <ele>162.93318</ele>
        <time>2017-11-22T15:51:43Z</time>
      </trkpt>
      <trkpt lat="48.62985" lon="2.51498">
        <ele>163.35066</ele>
        <time>2017-11-22T15:51:45Z</time>
      </trkpt>
      <trkpt lat="48.62999" lon="2.51486">
        <ele>163.4775</ele>
        <time>2017-11-22T15:51:47Z</time>
      </trkpt>
      <trkpt lat="48.63014" lon="2.51479">
        <ele>164.53703</ele>
        <time>2017-11-22T15:51:49Z</time>
      </trkpt>
      <trkpt lat="48.6303" lon="2.51471">
        <ele>164.94923</ele>
        <time>2017-11-22T15:51:51Z</time>
      </trkpt>
      <trkpt lat="48.63041" lon="2.51454">
        <ele>165.85025</ele>
        <time>2017-11-22T15:51:53Z</time>
      </trkpt>
      <trkpt lat="48.63054" lon="2.51441">
        <ele>166.96793</ele>
        <time>2017-11-22T15:51:55Z</time>
      </trkpt>
      <trkpt lat="48.63068" lon="2.51431">
        <ele>166.90451</ele>
        <time>2017-11-22T15:51:57Z</time>
      </trkpt>
      <trkpt lat="48.63083" lon="2.51421">
        <ele>166.8728</ele>
        <time>2017-11-22T15:51:59Z</time>
      </trkpt>
      <trkpt lat="48.63097" lon="2.51412">
        <ele>167.54659</ele>
        <time>2017-11-22T15:52:01Z</time>
      </trkpt>
      <trkpt lat="48.63111" lon="2.51403">
        <ele>167.60208</ele>
        <time>2017-11-22T15:52:03Z</time>
      </trkpt>
      <trkpt lat="48.63125" lon="2.51394">
        <ele>167.55716</ele>
        <time>2017-11-22T15:52:05Z</time>
      </trkpt>
      <trkpt lat="48.63139" lon="2.51384">
        <ele>167.59415</ele>
        <time>2017-11-22T15:52:07Z</time>
      </trkpt>
      <trkpt lat="48.63152" lon="2.51374">
        <ele>168.31813</ele>
        <time>2017-11-22T15:52:09Z</time>
      </trkpt>
      <trkpt lat="48.63159" lon="2.51369">
        <ele>167.95879</ele>
        <time>2017-11-22T15:52:10Z</time>
      </trkpt>
      <trkpt lat="48.63173" lon="2.51359">
        <ele>167.1793</ele>
        <time>2017-11-22T15:52:12Z</time>
      </trkpt>
      <trkpt lat="48.63187" lon="2.5135">
        <ele>167.73683</ele>
        <time>2017-11-22T15:52:14Z</time>
      </trkpt>
      <trkpt lat="48.63202" lon="2.5134">
        <ele>167.01021</ele>
        <time>2017-11-22T15:52:16Z</time>
      </trkpt>
      <trkpt lat="48.63217" lon="2.51331">
        <ele>166.00879</ele>
        <time>2017-11-22T15:52:18Z</time>
      </trkpt>
      <trkpt lat="48.63233" lon="2.51321">
        <ele>165.372</ele>
        <time>2017-11-22T15:52:20Z</time>
      </trkpt>
      <trkpt lat="48.63249" lon="2.51315">
        <ele>165.19232</ele>
        <time>2017-11-22T15:52:22Z</time>
      </trkpt>
      <trkpt lat="48.63265" lon="2.51312">
        <ele>165.21875</ele>
        <time>2017-11-22T15:52:24Z</time>
      </trkpt>
      <trkpt lat="48.63283" lon="2.51306">
        <ele>164.09314</ele>
        <time>2017-11-22T15:52:26Z</time>
      </trkpt>
      <trkpt lat="48.63298" lon="2.51293">
        <ele>163.41672</ele>
        <time>2017-11-22T15:52:28Z</time>
      </trkpt>
      <trkpt lat="48.63315" lon="2.51285">
        <ele>162.83012</ele>
        <time>2017-11-22T15:52:30Z</time>
      </trkpt>
      <trkpt lat="48.63324" lon="2.51282">
        <ele>162.09822</ele>
        <time>2017-11-22T15:52:31Z</time>
      </trkpt>
      <trkpt lat="48.6334" lon="2.51277">
        <ele>161.90797</ele>
        <time>2017-11-22T15:52:33Z</time>
      </trkpt>
      <trkpt lat="48.63357" lon="2.51272">
        <ele>161.50371</ele>
        <time>2017-11-22T15:52:35Z</time>
      </trkpt>
      <trkpt lat="48.63371" lon="2.51276">
        <ele>161.92383</ele>
        <time>2017-11-22T15:52:37Z</time>
      </trkpt>
      <trkpt lat="48.63384" lon="2.51289">
        <ele>161.07565</ele>
        <time>2017-11-22T15:52:39Z</time>
      </trkpt>
      <trkpt lat="48.63397" lon="2.51291">
        <ele>161.45087</ele>
        <time>2017-11-22T15:52:41Z</time>
      </trkpt>
      <trkpt lat="48.6341" lon="2.51282">
        <ele>161.19193</ele>
        <time>2017-11-22T15:52:43Z</time>
      </trkpt>
      <trkpt lat="48.63421" lon="2.51267">
        <ele>161.78644</ele>
        <time>2017-11-22T15:52:45Z</time>
      </trkpt>
      <trkpt lat="48.63435" lon="2.51261">
        <ele>160.97789</ele>
        <time>2017-11-22T15:52:47Z</time>
      </trkpt>
      <trkpt lat="48.6345" lon="2.51258">
        <ele>161.8287</ele>
        <time>2017-11-22T15:52:49Z</time>
      </trkpt>
      <trkpt lat="48.63466" lon="2.51256">
        <ele>161.50371</ele>
        <time>2017-11-22T15:52:52Z</time>
      </trkpt>
      <trkpt lat="48.63481" lon="2.51255">
        <ele>161.58562</ele>
        <time>2017-11-22T15:52:54Z</time>
      </trkpt>
      <trkpt lat="48.63496" lon="2.51254">
        <ele>161.22098</ele>
        <time>2017-11-22T15:52:56Z</time>
      </trkpt>
      <trkpt lat="48.63512" lon="2.51251">
        <ele>161.472</ele>
        <time>2017-11-22T15:52:58Z</time>
      </trkpt>
      <trkpt lat="48.6353" lon="2.51249">
        <ele>161.47993</ele>
        <time>2017-11-22T15:53:00Z</time>
      </trkpt>
      <trkpt lat="48.63545" lon="2.51245">
        <ele>160.85371</ele>
        <time>2017-11-22T15:53:02Z</time>
      </trkpt>
      <trkpt lat="48.63562" lon="2.51242">
        <ele>161.00696</ele>
        <time>2017-11-22T15:53:04Z</time>
      </trkpt>
      <trkpt lat="48.63579" lon="2.51238">
        <ele>161.60147</ele>
        <time>2017-11-22T15:53:06Z</time>
      </trkpt>
      <trkpt lat="48.63596" lon="2.51235">
        <ele>160.62119</ele>
        <time>2017-11-22T15:53:08Z</time>
      </trkpt>
      <trkpt lat="48.63612" lon="2.51231">
        <ele>160.95412</ele>
        <time>2017-11-22T15:53:10Z</time>
      </trkpt>
      <trkpt lat="48.63628" lon="2.51226">
        <ele>161.20248</ele>
        <time>2017-11-22T15:53:12Z</time>
      </trkpt>
      <trkpt lat="48.63644" lon="2.51223">
        <ele>161.95554</ele>
        <time>2017-11-22T15:53:14Z</time>
      </trkpt>
      <trkpt lat="48.63658" lon="2.51218">
        <ele>161.02017</ele>
        <time>2017-11-22T15:53:16Z</time>
      </trkpt>
      <trkpt lat="48.63672" lon="2.51214">
        <ele>161.50899</ele>
        <time>2017-11-22T15:53:18Z</time>
      </trkpt>
      <trkpt lat="48.63684" lon="2.51209">
        <ele>161.23419</ele>
        <time>2017-11-22T15:53:20Z</time>
      </trkpt>
      <trkpt lat="48.63697" lon="2.51203">
        <ele>161.69395</ele>
        <time>2017-11-22T15:53:22Z</time>
      </trkpt>
      <trkpt lat="48.63709" lon="2.51193">
        <ele>160.66347</ele>
        <time>2017-11-22T15:53:24Z</time>
      </trkpt>
      <trkpt lat="48.63715" lon="2.51177">
        <ele>160.6344</ele>
        <time>2017-11-22T15:53:26Z</time>
      </trkpt>
      <trkpt lat="48.63718" lon="2.51157">
        <ele>160.69518</ele>
        <time>2017-11-22T15:53:28Z</time>
      </trkpt>
      <trkpt lat="48.63722" lon="2.51137">
        <ele>160.59477</ele>
        <time>2017-11-22T15:53:30Z</time>
      </trkpt>
      <trkpt lat="48.63728" lon="2.51119">
        <ele>160.00818</ele>
        <time>2017-11-22T15:53:32Z</time>
      </trkpt>
      <trkpt lat="48.63735" lon="2.51102">
        <ele>160.63704</ele>
        <time>2017-11-22T15:53:34Z</time>
      </trkpt>
      <trkpt lat="48.63744" lon="2.51087">
        <ele>160.03197</ele>
        <time>2017-11-22T15:53:36Z</time>
      </trkpt>
      <trkpt lat="48.63752" lon="2.51075">
        <ele>160.15614</ele>
        <time>2017-11-22T15:53:38Z</time>
      </trkpt>
      <trkpt lat="48.6376" lon="2.51063">
        <ele>159.62505</ele>
        <time>2017-11-22T15:53:40Z</time>
      </trkpt>
      <trkpt lat="48.63771" lon="2.51061">
        <ele>159.95534</ele>
        <time>2017-11-22T15:53:42Z</time>
      </trkpt>
      <trkpt lat="48.63779" lon="2.51071">
        <ele>159.4718</ele>
        <time>2017-11-22T15:53:44Z</time>
      </trkpt>
      <trkpt lat="48.63785" lon="2.51087">
        <ele>159.94212</ele>
        <time>2017-11-22T15:53:46Z</time>
      </trkpt>
      <trkpt lat="48.6379" lon="2.51102">
        <ele>159.4216</ele>
        <time>2017-11-22T15:53:48Z</time>
      </trkpt>
      <trkpt lat="48.63796" lon="2.51116">
        <ele>159.70695</ele>
        <time>2017-11-22T15:53:50Z</time>
      </trkpt>
      <trkpt lat="48.63802" lon="2.51129">
        <ele>159.47444</ele>
        <time>2017-11-22T15:53:52Z</time>
      </trkpt>
      <trkpt lat="48.63807" lon="2.51142">
        <ele>159.64354</ele>
        <time>2017-11-22T15:53:54Z</time>
      </trkpt>
      <trkpt lat="48.63813" lon="2.51159">
        <ele>160.31732</ele>
        <time>2017-11-22T15:53:57Z</time>
      </trkpt>
      <trkpt lat="48.6382" lon="2.51171">
        <ele>160.57098</ele>
        <time>2017-11-22T15:54:01Z</time>
      </trkpt>
      <trkpt lat="48.63817" lon="2.51184">
        <ele>159.04375</ele>
        <time>2017-11-22T15:54:07Z</time>
      </trkpt>
      <trkpt lat="48.63812" lon="2.5119">
        <ele>158.79538</ele>
        <time>2017-11-22T15:54:16Z</time>
      </trkpt>
      <trkpt lat="48.63812" lon="2.5119">
        <ele>158.79538</ele>
        <time>2017-11-22T15:54:16Z</time>
      </trkpt>
      <trkpt lat="48.63811" lon="2.51207">
        <ele>159.20229</ele>
        <time>2017-11-22T15:54:42Z</time>
      </trkpt>
      <trkpt lat="48.63808" lon="2.51222">
        <ele>160.01875</ele>
        <time>2017-11-22T15:54:45Z</time>
      </trkpt>
      <trkpt lat="48.63803" lon="2.5124">
        <ele>160.35696</ele>
        <time>2017-11-22T15:54:48Z</time>
      </trkpt>
      <trkpt lat="48.63799" lon="2.51255">
        <ele>160.09802</ele>
        <time>2017-11-22T15:54:50Z</time>
      </trkpt>
      <trkpt lat="48.63794" lon="2.5127">
        <ele>160.40453</ele>
        <time>2017-11-22T15:54:52Z</time>
      </trkpt>
      <trkpt lat="48.6379" lon="2.51286">
        <ele>161.0915</ele>
        <time>2017-11-22T15:54:54Z</time>
      </trkpt>
      <trkpt lat="48.63786" lon="2.51303">
        <ele>160.54985</ele>
        <time>2017-11-22T15:54:56Z</time>
      </trkpt>
      <trkpt lat="48.63781" lon="2.51319">
        <ele>161.13643</ele>
        <time>2017-11-22T15:54:58Z</time>
      </trkpt>
      <trkpt lat="48.63776" lon="2.51337">
        <ele>160.86427</ele>
        <time>2017-11-22T15:55:00Z</time>
      </trkpt>
      <trkpt lat="48.63757" lon="2.51409">
        <ele>160.71367</ele>
        <time>2017-11-22T15:55:08Z</time>
      </trkpt>
      <trkpt lat="48.63751" lon="2.51428">
        <ele>160.95148</ele>
        <time>2017-11-22T15:55:10Z</time>
      </trkpt>
      <trkpt lat="48.63746" lon="2.51447">
        <ele>162.3598</ele>
        <time>2017-11-22T15:55:12Z</time>
      </trkpt>
      <trkpt lat="48.63742" lon="2.51468">
        <ele>161.49579</ele>
        <time>2017-11-22T15:55:14Z</time>
      </trkpt>
      <trkpt lat="48.63725" lon="2.51514">
        <ele>162.84598</ele>
        <time>2017-11-22T15:55:19Z</time>
      </trkpt>
      <trkpt lat="48.63719" lon="2.51534">
        <ele>162.16692</ele>
        <time>2017-11-22T15:55:21Z</time>
      </trkpt>
      <trkpt lat="48.63714" lon="2.51554">
        <ele>163.47484</ele>
        <time>2017-11-22T15:55:23Z</time>
      </trkpt>
      <trkpt lat="48.63708" lon="2.51574">
        <ele>163.44579</ele>
        <time>2017-11-22T15:55:25Z</time>
      </trkpt>
      <trkpt lat="48.63702" lon="2.51595">
        <ele>162.35452</ele>
        <time>2017-11-22T15:55:27Z</time>
      </trkpt>
      <trkpt lat="48.63696" lon="2.51615">
        <ele>161.92647</ele>
        <time>2017-11-22T15:55:29Z</time>
      </trkpt>
      <trkpt lat="48.63691" lon="2.51636">
        <ele>163.35066</ele>
        <time>2017-11-22T15:55:31Z</time>
      </trkpt>
      <trkpt lat="48.63685" lon="2.51657">
        <ele>162.17221</ele>
        <time>2017-11-22T15:55:33Z</time>
      </trkpt>
      <trkpt lat="48.63679" lon="2.51678">
        <ele>162.50777</ele>
        <time>2017-11-22T15:55:35Z</time>
      </trkpt>
      <trkpt lat="48.63666" lon="2.51719">
        <ele>161.96611</ele>
        <time>2017-11-22T15:55:39Z</time>
      </trkpt>
      <trkpt lat="48.6366" lon="2.5174">
        <ele>162.48135</ele>
        <time>2017-11-22T15:55:41Z</time>
      </trkpt>
      <trkpt lat="48.63655" lon="2.51761">
        <ele>160.88806</ele>
        <time>2017-11-22T15:55:43Z</time>
      </trkpt>
      <trkpt lat="48.63649" lon="2.51783">
        <ele>160.48907</ele>
        <time>2017-11-22T15:55:45Z</time>
      </trkpt>
      <trkpt lat="48.63643" lon="2.51803">
        <ele>159.58542</ele>
        <time>2017-11-22T15:55:47Z</time>
      </trkpt>
      <trkpt lat="48.63637" lon="2.51823">
        <ele>160.35167</ele>
        <time>2017-11-22T15:55:49Z</time>
      </trkpt>
      <trkpt lat="48.63631" lon="2.51844">
        <ele>160.71103</ele>
        <time>2017-11-22T15:55:51Z</time>
      </trkpt>
      <trkpt lat="48.63625" lon="2.51864">
        <ele>160.14558</ele>
        <time>2017-11-22T15:55:53Z</time>
      </trkpt>
      <trkpt lat="48.6362" lon="2.51886">
        <ele>160.65025</ele>
        <time>2017-11-22T15:55:55Z</time>
      </trkpt>
      <trkpt lat="48.63614" lon="2.51907">
        <ele>159.92363</ele>
        <time>2017-11-22T15:55:57Z</time>
      </trkpt>
      <trkpt lat="48.63608" lon="2.51926">
        <ele>160.58156</ele>
        <time>2017-11-22T15:55:59Z</time>
      </trkpt>
      <trkpt lat="48.63602" lon="2.51947">
        <ele>160.4468</ele>
        <time>2017-11-22T15:56:01Z</time>
      </trkpt>
      <trkpt lat="48.63598" lon="2.51967">
        <ele>160.65025</ele>
        <time>2017-11-22T15:56:03Z</time>
      </trkpt>
      <trkpt lat="48.63591" lon="2.51986">
        <ele>160.06895</ele>
        <time>2017-11-22T15:56:05Z</time>
      </trkpt>
      <trkpt lat="48.63586" lon="2.52005">
        <ele>159.94476</ele>
        <time>2017-11-22T15:56:07Z</time>
      </trkpt>
      <trkpt lat="48.6358" lon="2.52025">
        <ele>160.93562</ele>
        <time>2017-11-22T15:56:09Z</time>
      </trkpt>
      <trkpt lat="48.63574" lon="2.52045">
        <ele>161.96347</ele>
        <time>2017-11-22T15:56:11Z</time>
      </trkpt>
      <trkpt lat="48.63569" lon="2.52064">
        <ele>162.89883</ele>
        <time>2017-11-22T15:56:13Z</time>
      </trkpt>
      <trkpt lat="48.63563" lon="2.52085">
        <ele>162.18013</ele>
        <time>2017-11-22T15:56:15Z</time>
      </trkpt>
      <trkpt lat="48.63558" lon="2.52105">
        <ele>162.48135</ele>
        <time>2017-11-22T15:56:17Z</time>
      </trkpt>
      <trkpt lat="48.63553" lon="2.52125">
        <ele>162.55797</ele>
        <time>2017-11-22T15:56:19Z</time>
      </trkpt>
      <trkpt lat="48.63547" lon="2.52143">
        <ele>163.02301</ele>
        <time>2017-11-22T15:56:21Z</time>
      </trkpt>
      <trkpt lat="48.63541" lon="2.52162">
        <ele>162.5157</ele>
        <time>2017-11-22T15:56:23Z</time>
      </trkpt>
      <trkpt lat="48.63536" lon="2.52182">
        <ele>163.15778</ele>
        <time>2017-11-22T15:56:25Z</time>
      </trkpt>
      <trkpt lat="48.6353" lon="2.522">
        <ele>162.68216</ele>
        <time>2017-11-22T15:56:27Z</time>
      </trkpt>
      <trkpt lat="48.63524" lon="2.52218">
        <ele>164.36</ele>
        <time>2017-11-22T15:56:29Z</time>
      </trkpt>
      <trkpt lat="48.63519" lon="2.52238">
        <ele>162.79578</ele>
        <time>2017-11-22T15:56:31Z</time>
      </trkpt>
      <trkpt lat="48.63514" lon="2.52257">
        <ele>163.25024</ele>
        <time>2017-11-22T15:56:33Z</time>
      </trkpt>
      <trkpt lat="48.63509" lon="2.52277">
        <ele>162.38623</ele>
        <time>2017-11-22T15:56:35Z</time>
      </trkpt>
      <trkpt lat="48.63503" lon="2.52296">
        <ele>163.00188</ele>
        <time>2017-11-22T15:56:37Z</time>
      </trkpt>
      <trkpt lat="48.63497" lon="2.52314">
        <ele>163.24232</ele>
        <time>2017-11-22T15:56:39Z</time>
      </trkpt>
      <trkpt lat="48.63491" lon="2.52332">
        <ele>162.83012</ele>
        <time>2017-11-22T15:56:41Z</time>
      </trkpt>
      <trkpt lat="48.63486" lon="2.52352">
        <ele>163.06529</ele>
        <time>2017-11-22T15:56:43Z</time>
      </trkpt>
      <trkpt lat="48.63481" lon="2.52372">
        <ele>163.31102</ele>
        <time>2017-11-22T15:56:45Z</time>
      </trkpt>
      <trkpt lat="48.63476" lon="2.52391">
        <ele>162.7905</ele>
        <time>2017-11-22T15:56:47Z</time>
      </trkpt>
      <trkpt lat="48.63471" lon="2.52409">
        <ele>164.11691</ele>
        <time>2017-11-22T15:56:49Z</time>
      </trkpt>
      <trkpt lat="48.63463" lon="2.52428">
        <ele>163.78928</ele>
        <time>2017-11-22T15:56:51Z</time>
      </trkpt>
      <trkpt lat="48.63456" lon="2.52445">
        <ele>163.4537</ele>
        <time>2017-11-22T15:56:53Z</time>
      </trkpt>
      <trkpt lat="48.6345" lon="2.52461">
        <ele>163.71265</ele>
        <time>2017-11-22T15:56:55Z</time>
      </trkpt>
      <trkpt lat="48.63443" lon="2.52479">
        <ele>163.41672</ele>
        <time>2017-11-22T15:56:57Z</time>
      </trkpt>
      <trkpt lat="48.63437" lon="2.52494">
        <ele>163.41672</ele>
        <time>2017-11-22T15:56:59Z</time>
      </trkpt>
      <trkpt lat="48.6343" lon="2.5251">
        <ele>162.84598</ele>
        <time>2017-11-22T15:57:01Z</time>
      </trkpt>
      <trkpt lat="48.63423" lon="2.52526">
        <ele>163.3031</ele>
        <time>2017-11-22T15:57:03Z</time>
      </trkpt>
      <trkpt lat="48.63416" lon="2.52542">
        <ele>163.25554</ele>
        <time>2017-11-22T15:57:05Z</time>
      </trkpt>
      <trkpt lat="48.63408" lon="2.52558">
        <ele>163.27403</ele>
        <time>2017-11-22T15:57:07Z</time>
      </trkpt>
      <trkpt lat="48.63401" lon="2.52574">
        <ele>163.85533</ele>
        <time>2017-11-22T15:57:09Z</time>
      </trkpt>
      <trkpt lat="48.63395" lon="2.52591">
        <ele>163.56732</ele>
        <time>2017-11-22T15:57:11Z</time>
      </trkpt>
      <trkpt lat="48.63388" lon="2.52606">
        <ele>163.96895</ele>
        <time>2017-11-22T15:57:13Z</time>
      </trkpt>
      <trkpt lat="48.63381" lon="2.52622">
        <ele>163.2529</ele>
        <time>2017-11-22T15:57:15Z</time>
      </trkpt>
      <trkpt lat="48.63374" lon="2.52638">
        <ele>163.31102</ele>
        <time>2017-11-22T15:57:17Z</time>
      </trkpt>
      <trkpt lat="48.63368" lon="2.52654">
        <ele>163.45898</ele>
        <time>2017-11-22T15:57:19Z</time>
      </trkpt>
      <trkpt lat="48.63362" lon="2.52671">
        <ele>163.84476</ele>
        <time>2017-11-22T15:57:21Z</time>
      </trkpt>
      <trkpt lat="48.63359" lon="2.52688">
        <ele>162.78522</ele>
        <time>2017-11-22T15:57:23Z</time>
      </trkpt>
      <trkpt lat="48.63358" lon="2.52705">
        <ele>163.63602</ele>
        <time>2017-11-22T15:57:25Z</time>
      </trkpt>
      <trkpt lat="48.63359" lon="2.52721">
        <ele>163.10492</ele>
        <time>2017-11-22T15:57:27Z</time>
      </trkpt>
      <trkpt lat="48.63361" lon="2.52739">
        <ele>163.17363</ele>
        <time>2017-11-22T15:57:29Z</time>
      </trkpt>
      <trkpt lat="48.63366" lon="2.52754">
        <ele>163.25554</ele>
        <time>2017-11-22T15:57:31Z</time>
      </trkpt>
      <trkpt lat="48.6337" lon="2.52769">
        <ele>163.70207</ele>
        <time>2017-11-22T15:57:33Z</time>
      </trkpt>
      <trkpt lat="48.63378" lon="2.52782">
        <ele>163.8157</ele>
        <time>2017-11-22T15:57:35Z</time>
      </trkpt>
      <trkpt lat="48.63388" lon="2.52794">
        <ele>163.23705</ele>
        <time>2017-11-22T15:57:37Z</time>
      </trkpt>
      <trkpt lat="48.63399" lon="2.52805">
        <ele>162.7165</ele>
        <time>2017-11-22T15:57:39Z</time>
      </trkpt>
      <trkpt lat="48.6341" lon="2.52813">
        <ele>163.2159</ele>
        <time>2017-11-22T15:57:40Z</time>
      </trkpt>
      <trkpt lat="48.63422" lon="2.52823">
        <ele>164.10635</ele>
        <time>2017-11-22T15:57:42Z</time>
      </trkpt>
      <trkpt lat="48.63435" lon="2.52835">
        <ele>164.81183</ele>
        <time>2017-11-22T15:57:45Z</time>
      </trkpt>
      <trkpt lat="48.63447" lon="2.52849">
        <ele>164.75635</ele>
        <time>2017-11-22T15:57:47Z</time>
      </trkpt>
      <trkpt lat="48.6348" lon="2.52879">
        <ele>164.66386</ele>
        <time>2017-11-22T15:57:51Z</time>
      </trkpt>
      <trkpt lat="48.63494" lon="2.52892">
        <ele>164.72992</ele>
        <time>2017-11-22T15:57:53Z</time>
      </trkpt>
      <trkpt lat="48.63508" lon="2.52903">
        <ele>163.74171</ele>
        <time>2017-11-22T15:57:55Z</time>
      </trkpt>
      <trkpt lat="48.63521" lon="2.52915">
        <ele>163.3533</ele>
        <time>2017-11-22T15:57:57Z</time>
      </trkpt>
      <trkpt lat="48.63535" lon="2.52928">
        <ele>162.75879</ele>
        <time>2017-11-22T15:57:59Z</time>
      </trkpt>
      <trkpt lat="48.63548" lon="2.52941">
        <ele>163.25024</ele>
        <time>2017-11-22T15:58:01Z</time>
      </trkpt>
      <trkpt lat="48.63563" lon="2.52954">
        <ele>162.60553</ele>
        <time>2017-11-22T15:58:03Z</time>
      </trkpt>
      <trkpt lat="48.63577" lon="2.52966">
        <ele>161.23683</ele>
        <time>2017-11-22T15:58:05Z</time>
      </trkpt>
      <trkpt lat="48.63591" lon="2.52979">
        <ele>160.44151</ele>
        <time>2017-11-22T15:58:07Z</time>
      </trkpt>
      <trkpt lat="48.63605" lon="2.52991">
        <ele>160.24599</ele>
        <time>2017-11-22T15:58:09Z</time>
      </trkpt>
      <trkpt lat="48.63619" lon="2.53004">
        <ele>160.41508</ele>
        <time>2017-11-22T15:58:11Z</time>
      </trkpt>
      <trkpt lat="48.63633" lon="2.53016">
        <ele>160.58948</ele>
        <time>2017-11-22T15:58:13Z</time>
      </trkpt>
      <trkpt lat="48.63648" lon="2.53029">
        <ele>160.66083</ele>
        <time>2017-11-22T15:58:15Z</time>
      </trkpt>
      <trkpt lat="48.6366" lon="2.53043">
        <ele>160.21164</ele>
        <time>2017-11-22T15:58:17Z</time>
      </trkpt>
      <trkpt lat="48.63672" lon="2.53061">
        <ele>160.51285</ele>
        <time>2017-11-22T15:58:19Z</time>
      </trkpt>
      <trkpt lat="48.6368" lon="2.53083">
        <ele>160.43094</ele>
        <time>2017-11-22T15:58:21Z</time>
      </trkpt>
      <trkpt lat="48.63685" lon="2.53107">
        <ele>160.96204</ele>
        <time>2017-11-22T15:58:23Z</time>
      </trkpt>
      <trkpt lat="48.63687" lon="2.53131">
        <ele>161.59619</ele>
        <time>2017-11-22T15:58:25Z</time>
      </trkpt>
      <trkpt lat="48.63681" lon="2.53169">
        <ele>162.88033</ele>
        <time>2017-11-22T15:58:28Z</time>
      </trkpt>
      <trkpt lat="48.63674" lon="2.5319">
        <ele>163.26346</ele>
        <time>2017-11-22T15:58:30Z</time>
      </trkpt>
      <trkpt lat="48.63667" lon="2.53212">
        <ele>162.90411</ele>
        <time>2017-11-22T15:58:32Z</time>
      </trkpt>
      <trkpt lat="48.6366" lon="2.53232">
        <ele>163.05208</ele>
        <time>2017-11-22T15:58:34Z</time>
      </trkpt>
      <trkpt lat="48.63652" lon="2.53253">
        <ele>164.34415</ele>
        <time>2017-11-22T15:58:36Z</time>
      </trkpt>
      <trkpt lat="48.63644" lon="2.5327">
        <ele>164.01123</ele>
        <time>2017-11-22T15:58:38Z</time>
      </trkpt>
      <trkpt lat="48.63638" lon="2.53288">
        <ele>164.19618</ele>
        <time>2017-11-22T15:58:40Z</time>
      </trkpt>
      <trkpt lat="48.63631" lon="2.53305">
        <ele>164.49213</ele>
        <time>2017-11-22T15:58:42Z</time>
      </trkpt>
      <trkpt lat="48.63626" lon="2.53322">
        <ele>165.02586</ele>
        <time>2017-11-22T15:58:44Z</time>
      </trkpt>
      <trkpt lat="48.6362" lon="2.53339">
        <ele>166.20695</ele>
        <time>2017-11-22T15:58:46Z</time>
      </trkpt>
      <trkpt lat="48.63617" lon="2.53357">
        <ele>166.36021</ele>
        <time>2017-11-22T15:58:48Z</time>
      </trkpt>
      <trkpt lat="48.63614" lon="2.53374">
        <ele>167.35634</ele>
        <time>2017-11-22T15:58:50Z</time>
      </trkpt>
      <trkpt lat="48.6361" lon="2.53391">
        <ele>167.41711</ele>
        <time>2017-11-22T15:58:52Z</time>
      </trkpt>
      <trkpt lat="48.63607" lon="2.53408">
        <ele>167.47789</ele>
        <time>2017-11-22T15:58:54Z</time>
      </trkpt>
      <trkpt lat="48.63606" lon="2.53425">
        <ele>167.68135</ele>
        <time>2017-11-22T15:58:56Z</time>
      </trkpt>
      <trkpt lat="48.63603" lon="2.53441">
        <ele>170.13602</ele>
        <time>2017-11-22T15:58:58Z</time>
      </trkpt>
      <trkpt lat="48.63602" lon="2.53449">
        <ele>170.41345</ele>
        <time>2017-11-22T15:58:59Z</time>
      </trkpt>
      <trkpt lat="48.63601" lon="2.53457">
        <ele>169.04211</ele>
        <time>2017-11-22T15:59:00Z</time>
      </trkpt>
      <trkpt lat="48.63598" lon="2.53477">
        <ele>168.32341</ele>
        <time>2017-11-22T15:59:03Z</time>
      </trkpt>
      <trkpt lat="48.63596" lon="2.53495">
        <ele>168.41325</ele>
        <time>2017-11-22T15:59:06Z</time>
      </trkpt>
      <trkpt lat="48.63594" lon="2.53514">
        <ele>170.10167</ele>
        <time>2017-11-22T15:59:09Z</time>
      </trkpt>
      <trkpt lat="48.6359" lon="2.53534">
        <ele>170.35797</ele>
        <time>2017-11-22T15:59:12Z</time>
      </trkpt>
      <trkpt lat="48.63588" lon="2.53549">
        <ele>169.54414</ele>
        <time>2017-11-22T15:59:14Z</time>
      </trkpt>
      <trkpt lat="48.63586" lon="2.53565">
        <ele>168.83601</ele>
        <time>2017-11-22T15:59:16Z</time>
      </trkpt>
      <trkpt lat="48.63584" lon="2.53581">
        <ele>168.8598</ele>
        <time>2017-11-22T15:59:18Z</time>
      </trkpt>
      <trkpt lat="48.63582" lon="2.53599">
        <ele>168.6722</ele>
        <time>2017-11-22T15:59:20Z</time>
      </trkpt>
      <trkpt lat="48.6358" lon="2.53619">
        <ele>168.82545</ele>
        <time>2017-11-22T15:59:22Z</time>
      </trkpt>
      <trkpt lat="48.63578" lon="2.5364">
        <ele>168.59557</ele>
        <time>2017-11-22T15:59:24Z</time>
      </trkpt>
      <trkpt lat="48.63575" lon="2.5366">
        <ele>168.70654</ele>
        <time>2017-11-22T15:59:26Z</time>
      </trkpt>
      <trkpt lat="48.63572" lon="2.53682">
        <ele>167.74477</ele>
        <time>2017-11-22T15:59:28Z</time>
      </trkpt>
      <trkpt lat="48.63569" lon="2.53706">
        <ele>166.98642</ele>
        <time>2017-11-22T15:59:30Z</time>
      </trkpt>
      <trkpt lat="48.63567" lon="2.53731">
        <ele>166.64029</ele>
        <time>2017-11-22T15:59:32Z</time>
      </trkpt>
      <trkpt lat="48.63563" lon="2.53755">
        <ele>165.98236</ele>
        <time>2017-11-22T15:59:34Z</time>
      </trkpt>
      <trkpt lat="48.63561" lon="2.53769">
        <ele>165.78156</ele>
        <time>2017-11-22T15:59:35Z</time>
      </trkpt>
      <trkpt lat="48.6356" lon="2.53783">
        <ele>165.42749</ele>
        <time>2017-11-22T15:59:36Z</time>
      </trkpt>
      <trkpt lat="48.63555" lon="2.5381">
        <ele>165.07607</ele>
        <time>2017-11-22T15:59:38Z</time>
      </trkpt>
      <trkpt lat="48.63553" lon="2.53824">
        <ele>164.46042</ele>
        <time>2017-11-22T15:59:39Z</time>
      </trkpt>
      <trkpt lat="48.63552" lon="2.53839">
        <ele>165.3033</ele>
        <time>2017-11-22T15:59:40Z</time>
      </trkpt>
      <trkpt lat="48.63548" lon="2.53866">
        <ele>164.95187</ele>
        <time>2017-11-22T15:59:42Z</time>
      </trkpt>
      <trkpt lat="48.63547" lon="2.5388">
        <ele>164.29395</ele>
        <time>2017-11-22T15:59:43Z</time>
      </trkpt>
      <trkpt lat="48.63545" lon="2.53893">
        <ele>164.13277</ele>
        <time>2017-11-22T15:59:44Z</time>
      </trkpt>
      <trkpt lat="48.6354" lon="2.53918">
        <ele>164.57138</ele>
        <time>2017-11-22T15:59:46Z</time>
      </trkpt>
      <trkpt lat="48.63535" lon="2.53955">
        <ele>164.15126</ele>
        <time>2017-11-22T15:59:49Z</time>
      </trkpt>
      <trkpt lat="48.63532" lon="2.5398">
        <ele>164.23846</ele>
        <time>2017-11-22T15:59:51Z</time>
      </trkpt>
      <trkpt lat="48.63529" lon="2.54004">
        <ele>164.11427</ele>
        <time>2017-11-22T15:59:53Z</time>
      </trkpt>
      <trkpt lat="48.63527" lon="2.54027">
        <ele>163.96895</ele>
        <time>2017-11-22T15:59:55Z</time>
      </trkpt>
      <trkpt lat="48.63523" lon="2.54049">
        <ele>163.92139</ele>
        <time>2017-11-22T15:59:57Z</time>
      </trkpt>
      <trkpt lat="48.63521" lon="2.54072">
        <ele>163.68358</ele>
        <time>2017-11-22T15:59:59Z</time>
      </trkpt>
      <trkpt lat="48.63518" lon="2.54092">
        <ele>163.22383</ele>
        <time>2017-11-22T16:00:01Z</time>
      </trkpt>
      <trkpt lat="48.63515" lon="2.54111">
        <ele>163.12343</ele>
        <time>2017-11-22T16:00:03Z</time>
      </trkpt>
      <trkpt lat="48.63512" lon="2.54129">
        <ele>162.83278</ele>
        <time>2017-11-22T16:00:05Z</time>
      </trkpt>
      <trkpt lat="48.6351" lon="2.54147">
        <ele>162.86447</ele>
        <time>2017-11-22T16:00:07Z</time>
      </trkpt>
      <trkpt lat="48.63507" lon="2.54164">
        <ele>162.96489</ele>
        <time>2017-11-22T16:00:09Z</time>
      </trkpt>
      <trkpt lat="48.63504" lon="2.54182">
        <ele>162.97281</ele>
        <time>2017-11-22T16:00:11Z</time>
      </trkpt>
      <trkpt lat="48.63501" lon="2.54201">
        <ele>163.15248</ele>
        <time>2017-11-22T16:00:13Z</time>
      </trkpt>
      <trkpt lat="48.63499" lon="2.54217">
        <ele>162.40208</ele>
        <time>2017-11-22T16:00:15Z</time>
      </trkpt>
      <trkpt lat="48.63497" lon="2.54233">
        <ele>162.49191</ele>
        <time>2017-11-22T16:00:17Z</time>
      </trkpt>
      <trkpt lat="48.63495" lon="2.54249">
        <ele>162.79314</ele>
        <time>2017-11-22T16:00:19Z</time>
      </trkpt>
      <trkpt lat="48.63493" lon="2.54265">
        <ele>162.04538</ele>
        <time>2017-11-22T16:00:21Z</time>
      </trkpt>
      <trkpt lat="48.63491" lon="2.54281">
        <ele>162.2039</ele>
        <time>2017-11-22T16:00:23Z</time>
      </trkpt>
      <trkpt lat="48.6349" lon="2.54295">
        <ele>163.48805</ele>
        <time>2017-11-22T16:00:25Z</time>
      </trkpt>
      <trkpt lat="48.63488" lon="2.54311">
        <ele>162.93846</ele>
        <time>2017-11-22T16:00:27Z</time>
      </trkpt>
      <trkpt lat="48.63487" lon="2.54327">
        <ele>163.42464</ele>
        <time>2017-11-22T16:00:29Z</time>
      </trkpt>
      <trkpt lat="48.63485" lon="2.54344">
        <ele>163.02037</ele>
        <time>2017-11-22T16:00:31Z</time>
      </trkpt>
      <trkpt lat="48.63483" lon="2.54362">
        <ele>162.52626</ele>
        <time>2017-11-22T16:00:33Z</time>
      </trkpt>
      <trkpt lat="48.63482" lon="2.54379">
        <ele>162.29903</ele>
        <time>2017-11-22T16:00:35Z</time>
      </trkpt>
      <trkpt lat="48.63481" lon="2.54394">
        <ele>163.10757</ele>
        <time>2017-11-22T16:00:37Z</time>
      </trkpt>
      <trkpt lat="48.6348" lon="2.54409">
        <ele>162.92789</ele>
        <time>2017-11-22T16:00:39Z</time>
      </trkpt>
      <trkpt lat="48.63476" lon="2.5443">
        <ele>162.30432</ele>
        <time>2017-11-22T16:00:42Z</time>
      </trkpt>
      <trkpt lat="48.63468" lon="2.54441">
        <ele>161.96347</ele>
        <time>2017-11-22T16:00:44Z</time>
      </trkpt>
      <trkpt lat="48.63458" lon="2.54442">
        <ele>162.43115</ele>
        <time>2017-11-22T16:00:46Z</time>
      </trkpt>
      <trkpt lat="48.63446" lon="2.54443">
        <ele>162.15636</ele>
        <time>2017-11-22T16:00:48Z</time>
      </trkpt>
      <trkpt lat="48.63433" lon="2.54444">
        <ele>162.28317</ele>
        <time>2017-11-22T16:00:50Z</time>
      </trkpt>
      <trkpt lat="48.63421" lon="2.54444">
        <ele>161.96082</ele>
        <time>2017-11-22T16:00:52Z</time>
      </trkpt>
      <trkpt lat="48.63408" lon="2.54443">
        <ele>162.21976</ele>
        <time>2017-11-22T16:00:54Z</time>
      </trkpt>
      <trkpt lat="48.63396" lon="2.54443">
        <ele>163.59903</ele>
        <time>2017-11-22T16:00:56Z</time>
      </trkpt>
      <trkpt lat="48.63382" lon="2.54443">
        <ele>163.12077</ele>
        <time>2017-11-22T16:00:58Z</time>
      </trkpt>
      <trkpt lat="48.63369" lon="2.54443">
        <ele>163.51712</ele>
        <time>2017-11-22T16:01:00Z</time>
      </trkpt>
      <trkpt lat="48.63357" lon="2.54443">
        <ele>163.36122</ele>
        <time>2017-11-22T16:01:02Z</time>
      </trkpt>
      <trkpt lat="48.63345" lon="2.54443">
        <ele>163.39029</ele>
        <time>2017-11-22T16:01:04Z</time>
      </trkpt>
      <trkpt lat="48.63332" lon="2.54443">
        <ele>163.68623</ele>
        <time>2017-11-22T16:01:06Z</time>
      </trkpt>
      <trkpt lat="48.63319" lon="2.54443">
        <ele>163.45107</ele>
        <time>2017-11-22T16:01:08Z</time>
      </trkpt>
      <trkpt lat="48.63306" lon="2.54443">
        <ele>163.8844</ele>
        <time>2017-11-22T16:01:10Z</time>
      </trkpt>
      <trkpt lat="48.63292" lon="2.54442">
        <ele>163.7787</ele>
        <time>2017-11-22T16:01:12Z</time>
      </trkpt>
      <trkpt lat="48.63279" lon="2.54441">
        <ele>164.02708</ele>
        <time>2017-11-22T16:01:14Z</time>
      </trkpt>
      <trkpt lat="48.63266" lon="2.54441">
        <ele>164.59253</ele>
        <time>2017-11-22T16:01:16Z</time>
      </trkpt>
      <trkpt lat="48.63256" lon="2.5444">
        <ele>165.85025</ele>
        <time>2017-11-22T16:01:18Z</time>
      </trkpt>
      <trkpt lat="48.63246" lon="2.5444">
        <ele>165.77098</ele>
        <time>2017-11-22T16:01:20Z</time>
      </trkpt>
      <trkpt lat="48.63235" lon="2.54441">
        <ele>164.2411</ele>
        <time>2017-11-22T16:01:22Z</time>
      </trkpt>
      <trkpt lat="48.63225" lon="2.54434">
        <ele>164.18033</ele>
        <time>2017-11-22T16:01:24Z</time>
      </trkpt>
      <trkpt lat="48.63216" lon="2.54427">
        <ele>165.61244</ele>
        <time>2017-11-22T16:01:26Z</time>
      </trkpt>
      <trkpt lat="48.63204" lon="2.54428">
        <ele>164.12221</ele>
        <time>2017-11-22T16:01:28Z</time>
      </trkpt>
      <trkpt lat="48.63194" lon="2.54438">
        <ele>164.32301</ele>
        <time>2017-11-22T16:01:30Z</time>
      </trkpt>
      <trkpt lat="48.63187" lon="2.5445">
        <ele>164.3468</ele>
        <time>2017-11-22T16:01:32Z</time>
      </trkpt>
      <trkpt lat="48.63179" lon="2.54461">
        <ele>164.14334</ele>
        <time>2017-11-22T16:01:34Z</time>
      </trkpt>
      <trkpt lat="48.63171" lon="2.54469">
        <ele>164.86996</ele>
        <time>2017-11-22T16:01:36Z</time>
      </trkpt>
      <trkpt lat="48.63162" lon="2.54479">
        <ele>165.37729</ele>
        <time>2017-11-22T16:01:38Z</time>
      </trkpt>
      <trkpt lat="48.63154" lon="2.5449">
        <ele>165.48033</ele>
        <time>2017-11-22T16:01:40Z</time>
      </trkpt>
      <trkpt lat="48.63144" lon="2.545">
        <ele>165.28745</ele>
        <time>2017-11-22T16:01:42Z</time>
      </trkpt>
      <trkpt lat="48.63135" lon="2.54511">
        <ele>165.32707</ele>
        <time>2017-11-22T16:01:44Z</time>
      </trkpt>
      <trkpt lat="48.63126" lon="2.54523">
        <ele>165.40106</ele>
        <time>2017-11-22T16:01:46Z</time>
      </trkpt>
      <trkpt lat="48.63115" lon="2.54535">
        <ele>165.29272</ele>
        <time>2017-11-22T16:01:48Z</time>
      </trkpt>
      <trkpt lat="48.63105" lon="2.54547">
        <ele>165.74191</ele>
        <time>2017-11-22T16:01:50Z</time>
      </trkpt>
      <trkpt lat="48.63095" lon="2.54559">
        <ele>166.022</ele>
        <time>2017-11-22T16:01:52Z</time>
      </trkpt>
      <trkpt lat="48.63085" lon="2.5457">
        <ele>165.76834</ele>
        <time>2017-11-22T16:01:54Z</time>
      </trkpt>
      <trkpt lat="48.63075" lon="2.54582">
        <ele>166.04842</ele>
        <time>2017-11-22T16:01:56Z</time>
      </trkpt>
      <trkpt lat="48.63065" lon="2.54592">
        <ele>165.985</ele>
        <time>2017-11-22T16:01:58Z</time>
      </trkpt>
      <trkpt lat="48.63055" lon="2.54605">
        <ele>166.28094</ele>
        <time>2017-11-22T16:02:00Z</time>
      </trkpt>
      <trkpt lat="48.63044" lon="2.54618">
        <ele>166.07748</ele>
        <time>2017-11-22T16:02:02Z</time>
      </trkpt>
      <trkpt lat="48.63034" lon="2.5463">
        <ele>165.91895</ele>
        <time>2017-11-22T16:02:04Z</time>
      </trkpt>
      <trkpt lat="48.63025" lon="2.54641">
        <ele>166.03786</ele>
        <time>2017-11-22T16:02:06Z</time>
      </trkpt>
      <trkpt lat="48.63017" lon="2.54652">
        <ele>166.28094</ele>
        <time>2017-11-22T16:02:08Z</time>
      </trkpt>
      <trkpt lat="48.63009" lon="2.54662">
        <ele>166.5716</ele>
        <time>2017-11-22T16:02:10Z</time>
      </trkpt>
      <trkpt lat="48.62998" lon="2.54669">
        <ele>166.73277</ele>
        <time>2017-11-22T16:02:12Z</time>
      </trkpt>
      <trkpt lat="48.62989" lon="2.5468">
        <ele>166.39984</ele>
        <time>2017-11-22T16:02:14Z</time>
      </trkpt>
      <trkpt lat="48.62981" lon="2.54691">
        <ele>166.69843</ele>
        <time>2017-11-22T16:02:16Z</time>
      </trkpt>
      <trkpt lat="48.62971" lon="2.54702">
        <ele>167.359</ele>
        <time>2017-11-22T16:02:18Z</time>
      </trkpt>
      <trkpt lat="48.62962" lon="2.54714">
        <ele>167.08418</ele>
        <time>2017-11-22T16:02:20Z</time>
      </trkpt>
      <trkpt lat="48.62953" lon="2.54726">
        <ele>167.92972</ele>
        <time>2017-11-22T16:02:22Z</time>
      </trkpt>
      <trkpt lat="48.62943" lon="2.54738">
        <ele>167.61528</ele>
        <time>2017-11-22T16:02:24Z</time>
      </trkpt>
      <trkpt lat="48.62932" lon="2.5475">
        <ele>168.33662</ele>
        <time>2017-11-22T16:02:26Z</time>
      </trkpt>
      <trkpt lat="48.62922" lon="2.54762">
        <ele>166.92036</ele>
        <time>2017-11-22T16:02:28Z</time>
      </trkpt>
      <trkpt lat="48.62911" lon="2.54775">
        <ele>166.73277</ele>
        <time>2017-11-22T16:02:30Z</time>
      </trkpt>
      <trkpt lat="48.62899" lon="2.54788">
        <ele>167.81082</ele>
        <time>2017-11-22T16:02:32Z</time>
      </trkpt>
      <trkpt lat="48.62889" lon="2.54801">
        <ele>167.285</ele>
        <time>2017-11-22T16:02:34Z</time>
      </trkpt>
      <trkpt lat="48.62879" lon="2.54813">
        <ele>167.65228</ele>
        <time>2017-11-22T16:02:36Z</time>
      </trkpt>
      <trkpt lat="48.62869" lon="2.54824">
        <ele>167.79497</ele>
        <time>2017-11-22T16:02:38Z</time>
      </trkpt>
      <trkpt lat="48.62859" lon="2.54836">
        <ele>167.26915</ele>
        <time>2017-11-22T16:02:40Z</time>
      </trkpt>
      <trkpt lat="48.62849" lon="2.54847">
        <ele>166.91245</ele>
        <time>2017-11-22T16:02:42Z</time>
      </trkpt>
      <trkpt lat="48.6284" lon="2.54858">
        <ele>167.36163</ele>
        <time>2017-11-22T16:02:44Z</time>
      </trkpt>
      <trkpt lat="48.62832" lon="2.5487">
        <ele>167.50166</ele>
        <time>2017-11-22T16:02:46Z</time>
      </trkpt>
      <trkpt lat="48.62821" lon="2.54881">
        <ele>166.86752</ele>
        <time>2017-11-22T16:02:48Z</time>
      </trkpt>
      <trkpt lat="48.62812" lon="2.54893">
        <ele>167.47789</ele>
        <time>2017-11-22T16:02:50Z</time>
      </trkpt>
      <trkpt lat="48.62802" lon="2.54904">
        <ele>167.34578</ele>
        <time>2017-11-22T16:02:52Z</time>
      </trkpt>
      <trkpt lat="48.62792" lon="2.54915">
        <ele>167.88216</ele>
        <time>2017-11-22T16:02:54Z</time>
      </trkpt>
      <trkpt lat="48.62782" lon="2.54927">
        <ele>167.28764</ele>
        <time>2017-11-22T16:02:56Z</time>
      </trkpt>
      <trkpt lat="48.62774" lon="2.54937">
        <ele>167.35634</ele>
        <time>2017-11-22T16:02:58Z</time>
      </trkpt>
      <trkpt lat="48.62766" lon="2.54948">
        <ele>167.00227</ele>
        <time>2017-11-22T16:03:00Z</time>
      </trkpt>
      <trkpt lat="48.62759" lon="2.54957">
        <ele>166.62971</ele>
        <time>2017-11-22T16:03:02Z</time>
      </trkpt>
      <trkpt lat="48.62751" lon="2.54965">
        <ele>165.59659</ele>
        <time>2017-11-22T16:03:06Z</time>
      </trkpt>
      <trkpt lat="48.62751" lon="2.54965">
        <ele>164.96773</ele>
        <time>2017-11-22T16:03:10Z</time>
      </trkpt>
      <trkpt lat="48.62751" lon="2.54965">
        <ele>164.96773</ele>
        <time>2017-11-22T16:03:10Z</time>
      </trkpt>
      <trkpt lat="48.62745" lon="2.54983">
        <ele>165.53053</ele>
        <time>2017-11-22T16:03:17Z</time>
      </trkpt>
      <trkpt lat="48.62749" lon="2.55003">
        <ele>165.58867</ele>
        <time>2017-11-22T16:03:20Z</time>
      </trkpt>
      <trkpt lat="48.62751" lon="2.55019">
        <ele>166.34964</ele>
        <time>2017-11-22T16:03:22Z</time>
      </trkpt>
      <trkpt lat="48.62754" lon="2.55038">
        <ele>166.33907</ele>
        <time>2017-11-22T16:03:24Z</time>
      </trkpt>
      <trkpt lat="48.62758" lon="2.55055">
        <ele>166.81996</ele>
        <time>2017-11-22T16:03:26Z</time>
      </trkpt>
      <trkpt lat="48.62761" lon="2.55073">
        <ele>165.76834</ele>
        <time>2017-11-22T16:03:28Z</time>
      </trkpt>
      <trkpt lat="48.62763" lon="2.5509">
        <ele>165.76834</ele>
        <time>2017-11-22T16:03:30Z</time>
      </trkpt>
      <trkpt lat="48.62765" lon="2.55109">
        <ele>166.35228</ele>
        <time>2017-11-22T16:03:32Z</time>
      </trkpt>
      <trkpt lat="48.62767" lon="2.55128">
        <ele>166.43683</ele>
        <time>2017-11-22T16:03:34Z</time>
      </trkpt>
      <trkpt lat="48.62771" lon="2.55145">
        <ele>165.52525</ele>
        <time>2017-11-22T16:03:36Z</time>
      </trkpt>
      <trkpt lat="48.62775" lon="2.55162">
        <ele>165.38785</ele>
        <time>2017-11-22T16:03:38Z</time>
      </trkpt>
      <trkpt lat="48.62778" lon="2.55178">
        <ele>165.69699</ele>
        <time>2017-11-22T16:03:40Z</time>
      </trkpt>
      <trkpt lat="48.6278" lon="2.55194">
        <ele>165.41692</ele>
        <time>2017-11-22T16:03:42Z</time>
      </trkpt>
      <trkpt lat="48.62783" lon="2.5521">
        <ele>165.70493</ele>
        <time>2017-11-22T16:03:44Z</time>
      </trkpt>
      <trkpt lat="48.62786" lon="2.55228">
        <ele>165.4037</ele>
        <time>2017-11-22T16:03:47Z</time>
      </trkpt>
      <trkpt lat="48.62789" lon="2.55244">
        <ele>165.84232</ele>
        <time>2017-11-22T16:03:54Z</time>
      </trkpt>
      <trkpt lat="48.6279" lon="2.55258">
        <ele>167.03928</ele>
        <time>2017-11-22T16:03:57Z</time>
      </trkpt>
      <trkpt lat="48.62779" lon="2.55265">
        <ele>167.42769</ele>
        <time>2017-11-22T16:04:00Z</time>
      </trkpt>
      <trkpt lat="48.62769" lon="2.55265">
        <ele>165.92688</ele>
        <time>2017-11-22T16:04:02Z</time>
      </trkpt>
      <trkpt lat="48.62758" lon="2.55271">
        <ele>166.41833</ele>
        <time>2017-11-22T16:04:04Z</time>
      </trkpt>
      <trkpt lat="48.62746" lon="2.55276">
        <ele>165.94537</ele>
        <time>2017-11-22T16:04:06Z</time>
      </trkpt>
      <trkpt lat="48.62734" lon="2.55281">
        <ele>166.72484</ele>
        <time>2017-11-22T16:04:08Z</time>
      </trkpt>
      <trkpt lat="48.62721" lon="2.55287">
        <ele>166.0907</ele>
        <time>2017-11-22T16:04:10Z</time>
      </trkpt>
      <trkpt lat="48.62709" lon="2.55292">
        <ele>166.15411</ele>
        <time>2017-11-22T16:04:12Z</time>
      </trkpt>
      <trkpt lat="48.62698" lon="2.55297">
        <ele>165.9348</ele>
        <time>2017-11-22T16:04:14Z</time>
      </trkpt>
      <trkpt lat="48.62688" lon="2.553">
        <ele>165.7842</ele>
        <time>2017-11-22T16:04:16Z</time>
      </trkpt>
      <trkpt lat="48.62678" lon="2.55299">
        <ele>165.01001</ele>
        <time>2017-11-22T16:04:20Z</time>
      </trkpt>
      <trkpt lat="48.62674" lon="2.55285">
        <ele>165.7789</ele>
        <time>2017-11-22T16:04:24Z</time>
      </trkpt>
      <trkpt lat="48.62668" lon="2.55269">
        <ele>166.90451</ele>
        <time>2017-11-22T16:04:27Z</time>
      </trkpt>
      <trkpt lat="48.62659" lon="2.55262">
        <ele>167.51488</ele>
        <time>2017-11-22T16:04:29Z</time>
      </trkpt>
      <trkpt lat="48.6265" lon="2.5526">
        <ele>166.50554</ele>
        <time>2017-11-22T16:04:31Z</time>
      </trkpt>
      <trkpt lat="48.62639" lon="2.55261">
        <ele>165.86346</ele>
        <time>2017-11-22T16:04:34Z</time>
      </trkpt>
      <trkpt lat="48.62628" lon="2.55264">
        <ele>165.81061</ele>
        <time>2017-11-22T16:04:37Z</time>
      </trkpt>
      <trkpt lat="48.62622" lon="2.55251">
        <ele>166.0405</ele>
        <time>2017-11-22T16:04:39Z</time>
      </trkpt>
      <trkpt lat="48.62616" lon="2.55232">
        <ele>165.68907</ele>
        <time>2017-11-22T16:04:41Z</time>
      </trkpt>
      <trkpt lat="48.6261" lon="2.55211">
        <ele>166.10655</ele>
        <time>2017-11-22T16:04:43Z</time>
      </trkpt>
      <trkpt lat="48.62605" lon="2.55188">
        <ele>165.57545</ele>
        <time>2017-11-22T16:04:45Z</time>
      </trkpt>
      <trkpt lat="48.62598" lon="2.55165">
        <ele>165.47505</ele>
        <time>2017-11-22T16:04:47Z</time>
      </trkpt>
      <trkpt lat="48.62591" lon="2.55142">
        <ele>165.84232</ele>
        <time>2017-11-22T16:04:49Z</time>
      </trkpt>
      <trkpt lat="48.62585" lon="2.55117">
        <ele>166.13562</ele>
        <time>2017-11-22T16:04:51Z</time>
      </trkpt>
      <trkpt lat="48.62578" lon="2.55093">
        <ele>166.39192</ele>
        <time>2017-11-22T16:04:53Z</time>
      </trkpt>
      <trkpt lat="48.62574" lon="2.55081">
        <ele>165.85025</ele>
        <time>2017-11-22T16:04:54Z</time>
      </trkpt>
      <trkpt lat="48.6257" lon="2.55068">
        <ele>165.77626</ele>
        <time>2017-11-22T16:04:55Z</time>
      </trkpt>
      <trkpt lat="48.62563" lon="2.55043">
        <ele>165.88724</ele>
        <time>2017-11-22T16:04:57Z</time>
      </trkpt>
      <trkpt lat="48.62559" lon="2.55029">
        <ele>165.97444</ele>
        <time>2017-11-22T16:04:58Z</time>
      </trkpt>
      <trkpt lat="48.62555" lon="2.55015">
        <ele>165.43277</ele>
        <time>2017-11-22T16:04:59Z</time>
      </trkpt>
      <trkpt lat="48.62552" lon="2.55001">
        <ele>166.08806</ele>
        <time>2017-11-22T16:05:00Z</time>
      </trkpt>
      <trkpt lat="48.62548" lon="2.54988">
        <ele>166.1224</ele>
        <time>2017-11-22T16:05:01Z</time>
      </trkpt>
      <trkpt lat="48.62544" lon="2.54973">
        <ele>166.26244</ele>
        <time>2017-11-22T16:05:02Z</time>
      </trkpt>
      <trkpt lat="48.6254" lon="2.5496">
        <ele>166.1409</ele>
        <time>2017-11-22T16:05:03Z</time>
      </trkpt>
      <trkpt lat="48.62536" lon="2.54946">
        <ele>166.28094</ele>
        <time>2017-11-22T16:05:04Z</time>
      </trkpt>
      <trkpt lat="48.62532" lon="2.54933">
        <ele>165.60452</ele>
        <time>2017-11-22T16:05:05Z</time>
      </trkpt>
      <trkpt lat="48.62528" lon="2.54918">
        <ele>165.71284</ele>
        <time>2017-11-22T16:05:06Z</time>
      </trkpt>
      <trkpt lat="48.62524" lon="2.54905">
        <ele>166.18053</ele>
        <time>2017-11-22T16:05:07Z</time>
      </trkpt>
      <trkpt lat="48.62521" lon="2.54891">
        <ele>166.38135</ele>
        <time>2017-11-22T16:05:08Z</time>
      </trkpt>
      <trkpt lat="48.62517" lon="2.54879">
        <ele>166.04842</ele>
        <time>2017-11-22T16:05:09Z</time>
      </trkpt>
      <trkpt lat="48.62513" lon="2.54865">
        <ele>166.43155</ele>
        <time>2017-11-22T16:05:10Z</time>
      </trkpt>
      <trkpt lat="48.62509" lon="2.5485">
        <ele>165.69435</ele>
        <time>2017-11-22T16:05:11Z</time>
      </trkpt>
      <trkpt lat="48.62506" lon="2.54837">
        <ele>165.64415</ele>
        <time>2017-11-22T16:05:12Z</time>
      </trkpt>
      <trkpt lat="48.62502" lon="2.54824">
        <ele>166.45268</ele>
        <time>2017-11-22T16:05:13Z</time>
      </trkpt>
      <trkpt lat="48.62499" lon="2.5481">
        <ele>166.02464</ele>
        <time>2017-11-22T16:05:14Z</time>
      </trkpt>
      <trkpt lat="48.62495" lon="2.54797">
        <ele>166.29944</ele>
        <time>2017-11-22T16:05:15Z</time>
      </trkpt>
      <trkpt lat="48.62491" lon="2.54784">
        <ele>166.23338</ele>
        <time>2017-11-22T16:05:16Z</time>
      </trkpt>
      <trkpt lat="48.62487" lon="2.54772">
        <ele>165.79741</ele>
        <time>2017-11-22T16:05:17Z</time>
      </trkpt>
      <trkpt lat="48.62481" lon="2.54747">
        <ele>165.31387</ele>
        <time>2017-11-22T16:05:19Z</time>
      </trkpt>
      <trkpt lat="48.62474" lon="2.54723">
        <ele>165.985</ele>
        <time>2017-11-22T16:05:21Z</time>
      </trkpt>
      <trkpt lat="48.62471" lon="2.54711">
        <ele>166.22809</ele>
        <time>2017-11-22T16:05:22Z</time>
      </trkpt>
      <trkpt lat="48.62467" lon="2.54698">
        <ele>165.81326</ele>
        <time>2017-11-22T16:05:23Z</time>
      </trkpt>
      <trkpt lat="48.6246" lon="2.54675">
        <ele>165.34293</ele>
        <time>2017-11-22T16:05:25Z</time>
      </trkpt>
      <trkpt lat="48.62452" lon="2.5465">
        <ele>165.86874</ele>
        <time>2017-11-22T16:05:27Z</time>
      </trkpt>
      <trkpt lat="48.62447" lon="2.54626">
        <ele>165.29802</ele>
        <time>2017-11-22T16:05:29Z</time>
      </trkpt>
      <trkpt lat="48.62439" lon="2.54601">
        <ele>164.81976</ele>
        <time>2017-11-22T16:05:31Z</time>
      </trkpt>
      <trkpt lat="48.62433" lon="2.54578">
        <ele>164.88318</ele>
        <time>2017-11-22T16:05:33Z</time>
      </trkpt>
      <trkpt lat="48.6243" lon="2.54565">
        <ele>164.65065</ele>
        <time>2017-11-22T16:05:34Z</time>
      </trkpt>
      <trkpt lat="48.62424" lon="2.54541">
        <ele>165.72606</ele>
        <time>2017-11-22T16:05:36Z</time>
      </trkpt>
      <trkpt lat="48.62417" lon="2.54519">
        <ele>164.83034</ele>
        <time>2017-11-22T16:05:38Z</time>
      </trkpt>
      <trkpt lat="48.62411" lon="2.54495">
        <ele>164.73521</ele>
        <time>2017-11-22T16:05:40Z</time>
      </trkpt>
      <trkpt lat="48.62404" lon="2.54473">
        <ele>164.90431</ele>
        <time>2017-11-22T16:05:42Z</time>
      </trkpt>
      <trkpt lat="48.62398" lon="2.5445">
        <ele>165.36935</ele>
        <time>2017-11-22T16:05:44Z</time>
      </trkpt>
      <trkpt lat="48.62392" lon="2.54429">
        <ele>165.49883</ele>
        <time>2017-11-22T16:05:46Z</time>
      </trkpt>
      <trkpt lat="48.62388" lon="2.54408">
        <ele>165.5411</ele>
        <time>2017-11-22T16:05:48Z</time>
      </trkpt>
      <trkpt lat="48.62383" lon="2.54389">
        <ele>165.80533</ele>
        <time>2017-11-22T16:05:50Z</time>
      </trkpt>
      <trkpt lat="48.62376" lon="2.5437">
        <ele>165.71814</ele>
        <time>2017-11-22T16:05:52Z</time>
      </trkpt>
      <trkpt lat="48.6237" lon="2.54357">
        <ele>165.73663</ele>
        <time>2017-11-22T16:05:54Z</time>
      </trkpt>
      <trkpt lat="48.62364" lon="2.54343">
        <ele>165.7657</ele>
        <time>2017-11-22T16:05:56Z</time>
      </trkpt>
      <trkpt lat="48.62359" lon="2.54327">
        <ele>165.7789</ele>
        <time>2017-11-22T16:05:59Z</time>
      </trkpt>
      <trkpt lat="48.62353" lon="2.5431">
        <ele>166.29414</ele>
        <time>2017-11-22T16:06:02Z</time>
      </trkpt>
      <trkpt lat="48.62348" lon="2.54293">
        <ele>166.31</ele>
        <time>2017-11-22T16:06:05Z</time>
      </trkpt>
      <trkpt lat="48.62343" lon="2.54276">
        <ele>166.6535</ele>
        <time>2017-11-22T16:06:08Z</time>
      </trkpt>
      <trkpt lat="48.62338" lon="2.54263">
        <ele>166.672</ele>
        <time>2017-11-22T16:06:10Z</time>
      </trkpt>
      <trkpt lat="48.62334" lon="2.5425">
        <ele>167.1529</ele>
        <time>2017-11-22T16:06:12Z</time>
      </trkpt>
      <trkpt lat="48.62328" lon="2.54231">
        <ele>166.73541</ele>
        <time>2017-11-22T16:06:15Z</time>
      </trkpt>
      <trkpt lat="48.62324" lon="2.54214">
        <ele>166.55045</ele>
        <time>2017-11-22T16:06:18Z</time>
      </trkpt>
      <trkpt lat="48.6232" lon="2.54194">
        <ele>165.66794</ele>
        <time>2017-11-22T16:06:21Z</time>
      </trkpt>
      <trkpt lat="48.62318" lon="2.54179">
        <ele>165.46712</ele>
        <time>2017-11-22T16:06:23Z</time>
      </trkpt>
      <trkpt lat="48.62315" lon="2.54165">
        <ele>165.6785</ele>
        <time>2017-11-22T16:06:25Z</time>
      </trkpt>
      <trkpt lat="48.62312" lon="2.54148">
        <ele>165.77626</ele>
        <time>2017-11-22T16:06:27Z</time>
      </trkpt>
      <trkpt lat="48.6231" lon="2.54133">
        <ele>165.46448</ele>
        <time>2017-11-22T16:06:29Z</time>
      </trkpt>
      <trkpt lat="48.62307" lon="2.54117">
        <ele>164.5846</ele>
        <time>2017-11-22T16:06:31Z</time>
      </trkpt>
      <trkpt lat="48.62306" lon="2.54102">
        <ele>164.81183</ele>
        <time>2017-11-22T16:06:33Z</time>
      </trkpt>
      <trkpt lat="48.62303" lon="2.54087">
        <ele>164.64801</ele>
        <time>2017-11-22T16:06:35Z</time>
      </trkpt>
      <trkpt lat="48.623" lon="2.54069">
        <ele>164.53703</ele>
        <time>2017-11-22T16:06:37Z</time>
      </trkpt>
      <trkpt lat="48.62296" lon="2.54051">
        <ele>165.53317</ele>
        <time>2017-11-22T16:06:39Z</time>
      </trkpt>
      <trkpt lat="48.62292" lon="2.54034">
        <ele>164.76956</ele>
        <time>2017-11-22T16:06:41Z</time>
      </trkpt>
      <trkpt lat="48.62286" lon="2.54015">
        <ele>164.89374</ele>
        <time>2017-11-22T16:06:43Z</time>
      </trkpt>
      <trkpt lat="48.62281" lon="2.53999">
        <ele>164.90431</ele>
        <time>2017-11-22T16:06:45Z</time>
      </trkpt>
      <trkpt lat="48.62276" lon="2.5398">
        <ele>165.46976</ele>
        <time>2017-11-22T16:06:47Z</time>
      </trkpt>
      <trkpt lat="48.6227" lon="2.53962">
        <ele>165.76834</ele>
        <time>2017-11-22T16:06:49Z</time>
      </trkpt>
      <trkpt lat="48.62265" lon="2.53943">
        <ele>164.89374</ele>
        <time>2017-11-22T16:06:51Z</time>
      </trkpt>
      <trkpt lat="48.6226" lon="2.53924">
        <ele>165.4592</ele>
        <time>2017-11-22T16:06:53Z</time>
      </trkpt>
      <trkpt lat="48.62254" lon="2.53904">
        <ele>165.4037</ele>
        <time>2017-11-22T16:06:55Z</time>
      </trkpt>
      <trkpt lat="48.62249" lon="2.53885">
        <ele>165.75777</ele>
        <time>2017-11-22T16:06:57Z</time>
      </trkpt>
      <trkpt lat="48.62243" lon="2.53865">
        <ele>165.82382</ele>
        <time>2017-11-22T16:06:59Z</time>
      </trkpt>
      <trkpt lat="48.62238" lon="2.53846">
        <ele>165.3535</ele>
        <time>2017-11-22T16:07:01Z</time>
      </trkpt>
      <trkpt lat="48.62232" lon="2.53826">
        <ele>165.92688</ele>
        <time>2017-11-22T16:07:03Z</time>
      </trkpt>
      <trkpt lat="48.62227" lon="2.53806">
        <ele>166.19374</ele>
        <time>2017-11-22T16:07:05Z</time>
      </trkpt>
      <trkpt lat="48.62221" lon="2.53785">
        <ele>166.48703</ele>
        <time>2017-11-22T16:07:07Z</time>
      </trkpt>
      <trkpt lat="48.62215" lon="2.53765">
        <ele>165.8661</ele>
        <time>2017-11-22T16:07:09Z</time>
      </trkpt>
      <trkpt lat="48.62209" lon="2.53744">
        <ele>166.28094</ele>
        <time>2017-11-22T16:07:11Z</time>
      </trkpt>
      <trkpt lat="48.62203" lon="2.53724">
        <ele>165.35878</ele>
        <time>2017-11-22T16:07:13Z</time>
      </trkpt>
      <trkpt lat="48.62198" lon="2.53702">
        <ele>165.49883</ele>
        <time>2017-11-22T16:07:15Z</time>
      </trkpt>
      <trkpt lat="48.62192" lon="2.53681">
        <ele>165.64679</ele>
        <time>2017-11-22T16:07:17Z</time>
      </trkpt>
      <trkpt lat="48.62185" lon="2.53659">
        <ele>165.24252</ele>
        <time>2017-11-22T16:07:19Z</time>
      </trkpt>
      <trkpt lat="48.62179" lon="2.53638">
        <ele>165.335</ele>
        <time>2017-11-22T16:07:21Z</time>
      </trkpt>
      <trkpt lat="48.62173" lon="2.53616">
        <ele>164.95187</ele>
        <time>2017-11-22T16:07:23Z</time>
      </trkpt>
      <trkpt lat="48.62167" lon="2.53596">
        <ele>164.74577</ele>
        <time>2017-11-22T16:07:25Z</time>
      </trkpt>
      <trkpt lat="48.62162" lon="2.53576">
        <ele>165.5596</ele>
        <time>2017-11-22T16:07:27Z</time>
      </trkpt>
      <trkpt lat="48.62157" lon="2.53558">
        <ele>164.86732</ele>
        <time>2017-11-22T16:07:29Z</time>
      </trkpt>
      <trkpt lat="48.62151" lon="2.5354">
        <ele>164.63216</ele>
        <time>2017-11-22T16:07:31Z</time>
      </trkpt>
      <trkpt lat="48.62147" lon="2.53523">
        <ele>164.50533</ele>
        <time>2017-11-22T16:07:33Z</time>
      </trkpt>
      <trkpt lat="48.62144" lon="2.53506">
        <ele>164.64273</ele>
        <time>2017-11-22T16:07:35Z</time>
      </trkpt>
      <trkpt lat="48.6214" lon="2.5349">
        <ele>163.62016</ele>
        <time>2017-11-22T16:07:38Z</time>
      </trkpt>
      <trkpt lat="48.62132" lon="2.5348">
        <ele>163.51184</ele>
        <time>2017-11-22T16:07:42Z</time>
      </trkpt>
      <trkpt lat="48.62129" lon="2.53459">
        <ele>163.35594</ele>
        <time>2017-11-22T16:07:45Z</time>
      </trkpt>
      <trkpt lat="48.62127" lon="2.53443">
        <ele>163.81041</ele>
        <time>2017-11-22T16:07:47Z</time>
      </trkpt>
      <trkpt lat="48.62122" lon="2.53425">
        <ele>164.5344</ele>
        <time>2017-11-22T16:07:49Z</time>
      </trkpt>
      <trkpt lat="48.62118" lon="2.53405">
        <ele>163.89496</ele>
        <time>2017-11-22T16:07:51Z</time>
      </trkpt>
      <trkpt lat="48.62114" lon="2.53383">
        <ele>164.30716</ele>
        <time>2017-11-22T16:07:53Z</time>
      </trkpt>
      <trkpt lat="48.62109" lon="2.5336">
        <ele>164.37057</ele>
        <time>2017-11-22T16:07:55Z</time>
      </trkpt>
      <trkpt lat="48.62105" lon="2.53338">
        <ele>163.59903</ele>
        <time>2017-11-22T16:07:57Z</time>
      </trkpt>
      <trkpt lat="48.621" lon="2.53315">
        <ele>163.94518</ele>
        <time>2017-11-22T16:07:59Z</time>
      </trkpt>
      <trkpt lat="48.62095" lon="2.53292">
        <ele>163.76285</ele>
        <time>2017-11-22T16:08:01Z</time>
      </trkpt>
      <trkpt lat="48.6209" lon="2.53268">
        <ele>164.5159</ele>
        <time>2017-11-22T16:08:03Z</time>
      </trkpt>
      <trkpt lat="48.62084" lon="2.53244">
        <ele>164.26224</ele>
        <time>2017-11-22T16:08:05Z</time>
      </trkpt>
      <trkpt lat="48.6208" lon="2.5322">
        <ele>164.72728</ele>
        <time>2017-11-22T16:08:07Z</time>
      </trkpt>
      <trkpt lat="48.62077" lon="2.53207">
        <ele>164.04558</ele>
        <time>2017-11-22T16:08:08Z</time>
      </trkpt>
      <trkpt lat="48.6207" lon="2.53186">
        <ele>163.8289</ele>
        <time>2017-11-22T16:08:10Z</time>
      </trkpt>
      <trkpt lat="48.62063" lon="2.53163">
        <ele>163.65187</ele>
        <time>2017-11-22T16:08:12Z</time>
      </trkpt>
      <trkpt lat="48.62058" lon="2.53141">
        <ele>164.18562</ele>
        <time>2017-11-22T16:08:14Z</time>
      </trkpt>
      <trkpt lat="48.62054" lon="2.53119">
        <ele>163.97688</ele>
        <time>2017-11-22T16:08:16Z</time>
      </trkpt>
      <trkpt lat="48.62049" lon="2.531">
        <ele>164.38115</ele>
        <time>2017-11-22T16:08:18Z</time>
      </trkpt>
      <trkpt lat="48.62044" lon="2.53081">
        <ele>163.40086</ele>
        <time>2017-11-22T16:08:20Z</time>
      </trkpt>
      <trkpt lat="48.6204" lon="2.53064">
        <ele>163.59639</ele>
        <time>2017-11-22T16:08:22Z</time>
      </trkpt>
      <trkpt lat="48.62035" lon="2.53049">
        <ele>163.53297</ele>
        <time>2017-11-22T16:08:24Z</time>
      </trkpt>
      <trkpt lat="48.62031" lon="2.53034">
        <ele>164.49477</ele>
        <time>2017-11-22T16:08:26Z</time>
      </trkpt>
      <trkpt lat="48.62027" lon="2.53019">
        <ele>163.46164</ele>
        <time>2017-11-22T16:08:28Z</time>
      </trkpt>
      <trkpt lat="48.62024" lon="2.53005">
        <ele>163.21854</ele>
        <time>2017-11-22T16:08:30Z</time>
      </trkpt>
      <trkpt lat="48.62019" lon="2.52992">
        <ele>162.78786</ele>
        <time>2017-11-22T16:08:32Z</time>
      </trkpt>
      <trkpt lat="48.62012" lon="2.52977">
        <ele>162.58176</ele>
        <time>2017-11-22T16:08:35Z</time>
      </trkpt>
      <trkpt lat="48.62008" lon="2.52965">
        <ele>161.77322</ele>
        <time>2017-11-22T16:08:39Z</time>
      </trkpt>
      <trkpt lat="48.62006" lon="2.52955">
        <ele>161.74152</ele>
        <time>2017-11-22T16:08:45Z</time>
      </trkpt>
      <trkpt lat="48.62006" lon="2.52955">
        <ele>161.74152</ele>
        <time>2017-11-22T16:08:45Z</time>
      </trkpt>
      <trkpt lat="48.61991" lon="2.52939">
        <ele>161.83398</ele>
        <time>2017-11-22T16:09:05Z</time>
      </trkpt>
      <trkpt lat="48.6198" lon="2.52942">
        <ele>162.64253</ele>
        <time>2017-11-22T16:09:07Z</time>
      </trkpt>
      <trkpt lat="48.6197" lon="2.52948">
        <ele>162.58176</ele>
        <time>2017-11-22T16:09:09Z</time>
      </trkpt>
      <trkpt lat="48.61958" lon="2.52955">
        <ele>162.92789</ele>
        <time>2017-11-22T16:09:11Z</time>
      </trkpt>
      <trkpt lat="48.61946" lon="2.52962">
        <ele>162.76407</ele>
        <time>2017-11-22T16:09:13Z</time>
      </trkpt>
      <trkpt lat="48.61932" lon="2.5297">
        <ele>162.72708</ele>
        <time>2017-11-22T16:09:15Z</time>
      </trkpt>
      <trkpt lat="48.61919" lon="2.52979">
        <ele>162.66895</ele>
        <time>2017-11-22T16:09:17Z</time>
      </trkpt>
      <trkpt lat="48.61905" lon="2.52988">
        <ele>162.86447</ele>
        <time>2017-11-22T16:09:19Z</time>
      </trkpt>
      <trkpt lat="48.61892" lon="2.52997">
        <ele>162.77464</ele>
        <time>2017-11-22T16:09:21Z</time>
      </trkpt>
      <trkpt lat="48.61877" lon="2.53006">
        <ele>162.88298</ele>
        <time>2017-11-22T16:09:23Z</time>
      </trkpt>
      <trkpt lat="48.61864" lon="2.53015">
        <ele>162.82748</ele>
        <time>2017-11-22T16:09:25Z</time>
      </trkpt>
      <trkpt lat="48.6185" lon="2.53023">
        <ele>162.99396</ele>
        <time>2017-11-22T16:09:27Z</time>
      </trkpt>
      <trkpt lat="48.61836" lon="2.53032">
        <ele>162.78256</ele>
        <time>2017-11-22T16:09:29Z</time>
      </trkpt>
      <trkpt lat="48.61822" lon="2.53041">
        <ele>163.05736</ele>
        <time>2017-11-22T16:09:31Z</time>
      </trkpt>
      <trkpt lat="48.61808" lon="2.53051">
        <ele>162.65309</ele>
        <time>2017-11-22T16:09:33Z</time>
      </trkpt>
      <trkpt lat="48.61794" lon="2.5306">
        <ele>163.71529</ele>
        <time>2017-11-22T16:09:35Z</time>
      </trkpt>
      <trkpt lat="48.6178" lon="2.53068">
        <ele>163.43257</ele>
        <time>2017-11-22T16:09:37Z</time>
      </trkpt>
      <trkpt lat="48.61766" lon="2.53077">
        <ele>163.6598</ele>
        <time>2017-11-22T16:09:39Z</time>
      </trkpt>
      <trkpt lat="48.61752" lon="2.53085">
        <ele>162.85919</ele>
        <time>2017-11-22T16:09:41Z</time>
      </trkpt>
      <trkpt lat="48.61739" lon="2.53094">
        <ele>163.93724</ele>
        <time>2017-11-22T16:09:43Z</time>
      </trkpt>
      <trkpt lat="48.61726" lon="2.53102">
        <ele>163.68623</ele>
        <time>2017-11-22T16:09:45Z</time>
      </trkpt>
      <trkpt lat="48.61713" lon="2.5311">
        <ele>163.3216</ele>
        <time>2017-11-22T16:09:47Z</time>
      </trkpt>
      <trkpt lat="48.61701" lon="2.53117">
        <ele>163.13928</ele>
        <time>2017-11-22T16:09:49Z</time>
      </trkpt>
      <trkpt lat="48.61689" lon="2.53125">
        <ele>163.72058</ele>
        <time>2017-11-22T16:09:51Z</time>
      </trkpt>
      <trkpt lat="48.61677" lon="2.53133">
        <ele>163.42464</ele>
        <time>2017-11-22T16:09:53Z</time>
      </trkpt>
      <trkpt lat="48.61664" lon="2.53142">
        <ele>162.97017</ele>
        <time>2017-11-22T16:09:55Z</time>
      </trkpt>
      <trkpt lat="48.61651" lon="2.5315">
        <ele>162.91997</ele>
        <time>2017-11-22T16:09:57Z</time>
      </trkpt>
      <trkpt lat="48.61638" lon="2.53158">
        <ele>163.39293</ele>
        <time>2017-11-22T16:09:59Z</time>
      </trkpt>
      <trkpt lat="48.61625" lon="2.53166">
        <ele>163.26875</ele>
        <time>2017-11-22T16:10:01Z</time>
      </trkpt>
      <trkpt lat="48.61612" lon="2.53174">
        <ele>163.8289</ele>
        <time>2017-11-22T16:10:03Z</time>
      </trkpt>
      <trkpt lat="48.61599" lon="2.53181">
        <ele>163.64659</ele>
        <time>2017-11-22T16:10:05Z</time>
      </trkpt>
      <trkpt lat="48.61587" lon="2.53189">
        <ele>163.99538</ele>
        <time>2017-11-22T16:10:07Z</time>
      </trkpt>
      <trkpt lat="48.61575" lon="2.53196">
        <ele>163.46164</ele>
        <time>2017-11-22T16:10:09Z</time>
      </trkpt>
      <trkpt lat="48.61564" lon="2.53205">
        <ele>163.55147</ele>
        <time>2017-11-22T16:10:11Z</time>
      </trkpt>
      <trkpt lat="48.61552" lon="2.53213">
        <ele>163.4537</ele>
        <time>2017-11-22T16:10:13Z</time>
      </trkpt>
      <trkpt lat="48.6154" lon="2.53219">
        <ele>163.88704</ele>
        <time>2017-11-22T16:10:15Z</time>
      </trkpt>
      <trkpt lat="48.61529" lon="2.53227">
        <ele>164.40492</ele>
        <time>2017-11-22T16:10:17Z</time>
      </trkpt>
      <trkpt lat="48.61517" lon="2.53235">
        <ele>164.06671</ele>
        <time>2017-11-22T16:10:19Z</time>
      </trkpt>
      <trkpt lat="48.61507" lon="2.53241">
        <ele>163.93196</ele>
        <time>2017-11-22T16:10:21Z</time>
      </trkpt>
      <trkpt lat="48.61498" lon="2.53247">
        <ele>164.46306</ele>
        <time>2017-11-22T16:10:23Z</time>
      </trkpt>
      <trkpt lat="48.61485" lon="2.53253">
        <ele>164.27281</ele>
        <time>2017-11-22T16:10:26Z</time>
      </trkpt>
      <trkpt lat="48.61475" lon="2.53261">
        <ele>164.62952</ele>
        <time>2017-11-22T16:10:29Z</time>
      </trkpt>
      <trkpt lat="48.61466" lon="2.53268">
        <ele>163.89496</ele>
        <time>2017-11-22T16:10:32Z</time>
      </trkpt>
      <trkpt lat="48.61454" lon="2.53276">
        <ele>163.76549</ele>
        <time>2017-11-22T16:10:35Z</time>
      </trkpt>
      <trkpt lat="48.61445" lon="2.53281">
        <ele>164.09314</ele>
        <time>2017-11-22T16:10:37Z</time>
      </trkpt>
      <trkpt lat="48.61435" lon="2.53288">
        <ele>165.07607</ele>
        <time>2017-11-22T16:10:39Z</time>
      </trkpt>
      <trkpt lat="48.61425" lon="2.53295">
        <ele>164.72728</ele>
        <time>2017-11-22T16:10:41Z</time>
      </trkpt>
      <trkpt lat="48.61412" lon="2.53302">
        <ele>164.7405</ele>
        <time>2017-11-22T16:10:43Z</time>
      </trkpt>
      <trkpt lat="48.61403" lon="2.53309">
        <ele>164.67708</ele>
        <time>2017-11-22T16:10:45Z</time>
      </trkpt>
      <trkpt lat="48.61392" lon="2.53315">
        <ele>165.23988</ele>
        <time>2017-11-22T16:10:47Z</time>
      </trkpt>
      <trkpt lat="48.6138" lon="2.53322">
        <ele>164.58723</ele>
        <time>2017-11-22T16:10:49Z</time>
      </trkpt>
      <trkpt lat="48.61367" lon="2.5333">
        <ele>164.91489</ele>
        <time>2017-11-22T16:10:51Z</time>
      </trkpt>
      <trkpt lat="48.61356" lon="2.53337">
        <ele>165.47505</ele>
        <time>2017-11-22T16:10:53Z</time>
      </trkpt>
      <trkpt lat="48.61343" lon="2.53345">
        <ele>165.6098</ele>
        <time>2017-11-22T16:10:55Z</time>
      </trkpt>
      <trkpt lat="48.61331" lon="2.53354">
        <ele>165.45126</ele>
        <time>2017-11-22T16:10:57Z</time>
      </trkpt>
      <trkpt lat="48.61318" lon="2.53362">
        <ele>165.30858</ele>
        <time>2017-11-22T16:10:59Z</time>
      </trkpt>
      <trkpt lat="48.61305" lon="2.5337">
        <ele>165.02057</ele>
        <time>2017-11-22T16:11:01Z</time>
      </trkpt>
      <trkpt lat="48.61292" lon="2.53378">
        <ele>165.4592</ele>
        <time>2017-11-22T16:11:03Z</time>
      </trkpt>
      <trkpt lat="48.61279" lon="2.53387">
        <ele>165.3218</ele>
        <time>2017-11-22T16:11:05Z</time>
      </trkpt>
      <trkpt lat="48.61266" lon="2.53396">
        <ele>166.64821</ele>
        <time>2017-11-22T16:11:07Z</time>
      </trkpt>
      <trkpt lat="48.61253" lon="2.53403">
        <ele>165.7842</ele>
        <time>2017-11-22T16:11:09Z</time>
      </trkpt>
      <trkpt lat="48.6124" lon="2.53412">
        <ele>165.76834</ele>
        <time>2017-11-22T16:11:11Z</time>
      </trkpt>
      <trkpt lat="48.61227" lon="2.5342">
        <ele>165.47505</ele>
        <time>2017-11-22T16:11:13Z</time>
      </trkpt>
      <trkpt lat="48.61214" lon="2.53428">
        <ele>165.27159</ele>
        <time>2017-11-22T16:11:15Z</time>
      </trkpt>
      <trkpt lat="48.61202" lon="2.53438">
        <ele>164.99944</ele>
        <time>2017-11-22T16:11:17Z</time>
      </trkpt>
      <trkpt lat="48.61188" lon="2.53446">
        <ele>165.7842</ele>
        <time>2017-11-22T16:11:19Z</time>
      </trkpt>
      <trkpt lat="48.61175" lon="2.53454">
        <ele>166.68521</ele>
        <time>2017-11-22T16:11:21Z</time>
      </trkpt>
      <trkpt lat="48.61161" lon="2.53464">
        <ele>166.76183</ele>
        <time>2017-11-22T16:11:23Z</time>
      </trkpt>
      <trkpt lat="48.61147" lon="2.53475">
        <ele>164.55818</ele>
        <time>2017-11-22T16:11:25Z</time>
      </trkpt>
      <trkpt lat="48.61134" lon="2.53483">
        <ele>165.67322</ele>
        <time>2017-11-22T16:11:27Z</time>
      </trkpt>
      <trkpt lat="48.61121" lon="2.53491">
        <ele>164.67708</ele>
        <time>2017-11-22T16:11:29Z</time>
      </trkpt>
      <trkpt lat="48.61107" lon="2.53499">
        <ele>164.69821</ele>
        <time>2017-11-22T16:11:31Z</time>
      </trkpt>
      <trkpt lat="48.61093" lon="2.53507">
        <ele>164.722</ele>
        <time>2017-11-22T16:11:33Z</time>
      </trkpt>
      <trkpt lat="48.61078" lon="2.53517">
        <ele>164.68501</ele>
        <time>2017-11-22T16:11:35Z</time>
      </trkpt>
      <trkpt lat="48.61063" lon="2.53526">
        <ele>164.54497</ele>
        <time>2017-11-22T16:11:37Z</time>
      </trkpt>
      <trkpt lat="48.61049" lon="2.53535">
        <ele>164.91225</ele>
        <time>2017-11-22T16:11:39Z</time>
      </trkpt>
      <trkpt lat="48.61034" lon="2.53544">
        <ele>164.86732</ele>
        <time>2017-11-22T16:11:41Z</time>
      </trkpt>
      <trkpt lat="48.6102" lon="2.53553">
        <ele>165.99294</ele>
        <time>2017-11-22T16:11:43Z</time>
      </trkpt>
      <trkpt lat="48.61007" lon="2.53561">
        <ele>165.48561</ele>
        <time>2017-11-22T16:11:45Z</time>
      </trkpt>
      <trkpt lat="48.60992" lon="2.53571">
        <ele>165.53847</ele>
        <time>2017-11-22T16:11:47Z</time>
      </trkpt>
      <trkpt lat="48.6098" lon="2.5358">
        <ele>165.49883</ele>
        <time>2017-11-22T16:11:49Z</time>
      </trkpt>
      <trkpt lat="48.60968" lon="2.53587">
        <ele>165.35086</ele>
        <time>2017-11-22T16:11:51Z</time>
      </trkpt>
      <trkpt lat="48.60957" lon="2.53594">
        <ele>164.88846</ele>
        <time>2017-11-22T16:11:53Z</time>
      </trkpt>
      <trkpt lat="48.60946" lon="2.53602">
        <ele>164.9783</ele>
        <time>2017-11-22T16:11:55Z</time>
      </trkpt>
      <trkpt lat="48.60933" lon="2.53603">
        <ele>166.45004</ele>
        <time>2017-11-22T16:11:57Z</time>
      </trkpt>
      <trkpt lat="48.60922" lon="2.53596">
        <ele>165.66794</ele>
        <time>2017-11-22T16:11:59Z</time>
      </trkpt>
      <trkpt lat="48.6091" lon="2.53593">
        <ele>165.39578</ele>
        <time>2017-11-22T16:12:01Z</time>
      </trkpt>
      <trkpt lat="48.60897" lon="2.53598">
        <ele>165.47505</ele>
        <time>2017-11-22T16:12:03Z</time>
      </trkpt>
      <trkpt lat="48.60889" lon="2.53612">
        <ele>166.18846</ele>
        <time>2017-11-22T16:12:05Z</time>
      </trkpt>
      <trkpt lat="48.60887" lon="2.53632">
        <ele>166.00615</ele>
        <time>2017-11-22T16:12:07Z</time>
      </trkpt>
      <trkpt lat="48.60892" lon="2.53652">
        <ele>164.722</ele>
        <time>2017-11-22T16:12:09Z</time>
      </trkpt>
      <trkpt lat="48.60904" lon="2.53665">
        <ele>165.1844</ele>
        <time>2017-11-22T16:12:11Z</time>
      </trkpt>
      <trkpt lat="48.60916" lon="2.53674">
        <ele>165.04172</ele>
        <time>2017-11-22T16:12:13Z</time>
      </trkpt>
      <trkpt lat="48.60926" lon="2.53692">
        <ele>165.69699</ele>
        <time>2017-11-22T16:12:15Z</time>
      </trkpt>
      <trkpt lat="48.60931" lon="2.53714">
        <ele>165.48561</ele>
        <time>2017-11-22T16:12:17Z</time>
      </trkpt>
      <trkpt lat="48.60937" lon="2.53736">
        <ele>165.27159</ele>
        <time>2017-11-22T16:12:19Z</time>
      </trkpt>
      <trkpt lat="48.60944" lon="2.53757">
        <ele>164.68765</ele>
        <time>2017-11-22T16:12:21Z</time>
      </trkpt>
      <trkpt lat="48.6095" lon="2.5378">
        <ele>165.08928</ele>
        <time>2017-11-22T16:12:23Z</time>
      </trkpt>
      <trkpt lat="48.60956" lon="2.53802">
        <ele>164.57668</ele>
        <time>2017-11-22T16:12:25Z</time>
      </trkpt>
      <trkpt lat="48.60963" lon="2.53825">
        <ele>165.21875</ele>
        <time>2017-11-22T16:12:27Z</time>
      </trkpt>
      <trkpt lat="48.6097" lon="2.53848">
        <ele>164.35208</ele>
        <time>2017-11-22T16:12:29Z</time>
      </trkpt>
      <trkpt lat="48.60976" lon="2.53871">
        <ele>164.38115</ele>
        <time>2017-11-22T16:12:31Z</time>
      </trkpt>
      <trkpt lat="48.60982" lon="2.53895">
        <ele>164.72992</ele>
        <time>2017-11-22T16:12:33Z</time>
      </trkpt>
      <trkpt lat="48.60989" lon="2.53918">
        <ele>164.35472</ele>
        <time>2017-11-22T16:12:35Z</time>
      </trkpt>
      <trkpt lat="48.60995" lon="2.53941">
        <ele>163.58054</ele>
        <time>2017-11-22T16:12:37Z</time>
      </trkpt>
      <trkpt lat="48.61002" lon="2.53965">
        <ele>163.92139</ele>
        <time>2017-11-22T16:12:39Z</time>
      </trkpt>
      <trkpt lat="48.61008" lon="2.53988">
        <ele>163.89761</ele>
        <time>2017-11-22T16:12:41Z</time>
      </trkpt>
      <trkpt lat="48.61014" lon="2.54012">
        <ele>163.97952</ele>
        <time>2017-11-22T16:12:43Z</time>
      </trkpt>
      <trkpt lat="48.6102" lon="2.54035">
        <ele>163.58846</ele>
        <time>2017-11-22T16:12:45Z</time>
      </trkpt>
      <trkpt lat="48.61027" lon="2.5406">
        <ele>163.82362</ele>
        <time>2017-11-22T16:12:47Z</time>
      </trkpt>
      <trkpt lat="48.61034" lon="2.54082">
        <ele>163.38501</ele>
        <time>2017-11-22T16:12:49Z</time>
      </trkpt>
      <trkpt lat="48.61039" lon="2.54106">
        <ele>163.784</ele>
        <time>2017-11-22T16:12:51Z</time>
      </trkpt>
      <trkpt lat="48.61046" lon="2.54129">
        <ele>162.90675</ele>
        <time>2017-11-22T16:12:53Z</time>
      </trkpt>
      <trkpt lat="48.61053" lon="2.54153">
        <ele>163.45898</ele>
        <time>2017-11-22T16:12:55Z</time>
      </trkpt>
      <trkpt lat="48.61059" lon="2.54176">
        <ele>163.64131</ele>
        <time>2017-11-22T16:12:57Z</time>
      </trkpt>
      <trkpt lat="48.61065" lon="2.54198">
        <ele>162.9226</ele>
        <time>2017-11-22T16:12:59Z</time>
      </trkpt>
      <trkpt lat="48.61072" lon="2.54221">
        <ele>163.69943</ele>
        <time>2017-11-22T16:13:01Z</time>
      </trkpt>
      <trkpt lat="48.61078" lon="2.54244">
        <ele>163.82626</ele>
        <time>2017-11-22T16:13:03Z</time>
      </trkpt>
      <trkpt lat="48.61084" lon="2.54266">
        <ele>165.2848</ele>
        <time>2017-11-22T16:13:05Z</time>
      </trkpt>
      <trkpt lat="48.61091" lon="2.54288">
        <ele>163.71</ele>
        <time>2017-11-22T16:13:07Z</time>
      </trkpt>
      <trkpt lat="48.61097" lon="2.5431">
        <ele>164.52118</ele>
        <time>2017-11-22T16:13:09Z</time>
      </trkpt>
      <trkpt lat="48.61104" lon="2.54332">
        <ele>163.9531</ele>
        <time>2017-11-22T16:13:11Z</time>
      </trkpt>
      <trkpt lat="48.6111" lon="2.54354">
        <ele>164.4102</ele>
        <time>2017-11-22T16:13:13Z</time>
      </trkpt>
      <trkpt lat="48.61116" lon="2.54376">
        <ele>164.76163</ele>
        <time>2017-11-22T16:13:15Z</time>
      </trkpt>
      <trkpt lat="48.61122" lon="2.54397">
        <ele>165.57016</ele>
        <time>2017-11-22T16:13:17Z</time>
      </trkpt>
      <trkpt lat="48.61129" lon="2.54419">
        <ele>164.5476</ele>
        <time>2017-11-22T16:13:19Z</time>
      </trkpt>
      <trkpt lat="48.61135" lon="2.5444">
        <ele>164.09842</ele>
        <time>2017-11-22T16:13:21Z</time>
      </trkpt>
      <trkpt lat="48.61141" lon="2.54462">
        <ele>164.46042</ele>
        <time>2017-11-22T16:13:23Z</time>
      </trkpt>
      <trkpt lat="48.61147" lon="2.54484">
        <ele>164.6163</ele>
        <time>2017-11-22T16:13:25Z</time>
      </trkpt>
      <trkpt lat="48.61153" lon="2.54506">
        <ele>165.12363</ele>
        <time>2017-11-22T16:13:27Z</time>
      </trkpt>
      <trkpt lat="48.61159" lon="2.54527">
        <ele>164.09578</ele>
        <time>2017-11-22T16:13:29Z</time>
      </trkpt>
      <trkpt lat="48.61168" lon="2.5456">
        <ele>165.05757</ele>
        <time>2017-11-22T16:13:32Z</time>
      </trkpt>
      <trkpt lat="48.61174" lon="2.5458">
        <ele>165.24516</ele>
        <time>2017-11-22T16:13:34Z</time>
      </trkpt>
      <trkpt lat="48.61184" lon="2.54612">
        <ele>165.4724</ele>
        <time>2017-11-22T16:13:37Z</time>
      </trkpt>
      <trkpt lat="48.6119" lon="2.54633">
        <ele>165.18704</ele>
        <time>2017-11-22T16:13:39Z</time>
      </trkpt>
      <trkpt lat="48.61198" lon="2.54664">
        <ele>164.74841</ele>
        <time>2017-11-22T16:13:42Z</time>
      </trkpt>
      <trkpt lat="48.61204" lon="2.54685">
        <ele>166.13297</ele>
        <time>2017-11-22T16:13:44Z</time>
      </trkpt>
      <trkpt lat="48.61209" lon="2.54706">
        <ele>164.9413</ele>
        <time>2017-11-22T16:13:46Z</time>
      </trkpt>
      <trkpt lat="48.61215" lon="2.54727">
        <ele>165.05757</ele>
        <time>2017-11-22T16:13:48Z</time>
      </trkpt>
      <trkpt lat="48.61225" lon="2.54759">
        <ele>164.4102</ele>
        <time>2017-11-22T16:13:51Z</time>
      </trkpt>
      <trkpt lat="48.61231" lon="2.5478">
        <ele>164.01387</ele>
        <time>2017-11-22T16:13:53Z</time>
      </trkpt>
      <trkpt lat="48.61236" lon="2.54801">
        <ele>164.56874</ele>
        <time>2017-11-22T16:13:55Z</time>
      </trkpt>
      <trkpt lat="48.61245" lon="2.54834">
        <ele>165.5041</ele>
        <time>2017-11-22T16:13:58Z</time>
      </trkpt>
      <trkpt lat="48.6125" lon="2.54855">
        <ele>165.43805</ele>
        <time>2017-11-22T16:14:00Z</time>
      </trkpt>
      <trkpt lat="48.61256" lon="2.54873">
        <ele>163.91875</ele>
        <time>2017-11-22T16:14:02Z</time>
      </trkpt>
      <trkpt lat="48.61261" lon="2.54892">
        <ele>163.23969</ele>
        <time>2017-11-22T16:14:04Z</time>
      </trkpt>
      <trkpt lat="48.61267" lon="2.54909">
        <ele>163.25024</ele>
        <time>2017-11-22T16:14:06Z</time>
      </trkpt>
      <trkpt lat="48.61271" lon="2.54929">
        <ele>163.08643</ele>
        <time>2017-11-22T16:14:08Z</time>
      </trkpt>
      <trkpt lat="48.61277" lon="2.54948">
        <ele>163.784</ele>
        <time>2017-11-22T16:14:10Z</time>
      </trkpt>
      <trkpt lat="48.61282" lon="2.54968">
        <ele>162.86447</ele>
        <time>2017-11-22T16:14:12Z</time>
      </trkpt>
      <trkpt lat="48.61288" lon="2.54987">
        <ele>163.41142</ele>
        <time>2017-11-22T16:14:14Z</time>
      </trkpt>
      <trkpt lat="48.61293" lon="2.55008">
        <ele>163.5779</ele>
        <time>2017-11-22T16:14:16Z</time>
      </trkpt>
      <trkpt lat="48.61299" lon="2.55028">
        <ele>163.30838</ele>
        <time>2017-11-22T16:14:18Z</time>
      </trkpt>
      <trkpt lat="48.61304" lon="2.55047">
        <ele>163.68358</ele>
        <time>2017-11-22T16:14:20Z</time>
      </trkpt>
      <trkpt lat="48.61308" lon="2.55065">
        <ele>163.03094</ele>
        <time>2017-11-22T16:14:22Z</time>
      </trkpt>
      <trkpt lat="48.61314" lon="2.55082">
        <ele>163.17627</ele>
        <time>2017-11-22T16:14:24Z</time>
      </trkpt>
      <trkpt lat="48.61319" lon="2.55099">
        <ele>163.54883</ele>
        <time>2017-11-22T16:14:26Z</time>
      </trkpt>
      <trkpt lat="48.61325" lon="2.55118">
        <ele>163.71</ele>
        <time>2017-11-22T16:14:28Z</time>
      </trkpt>
      <trkpt lat="48.6133" lon="2.55137">
        <ele>163.72322</ele>
        <time>2017-11-22T16:14:30Z</time>
      </trkpt>
      <trkpt lat="48.61337" lon="2.55155">
        <ele>163.6968</ele>
        <time>2017-11-22T16:14:32Z</time>
      </trkpt>
      <trkpt lat="48.61343" lon="2.5517">
        <ele>163.59903</ele>
        <time>2017-11-22T16:14:34Z</time>
      </trkpt>
      <trkpt lat="48.61351" lon="2.55183">
        <ele>163.87383</ele>
        <time>2017-11-22T16:14:36Z</time>
      </trkpt>
      <trkpt lat="48.61359" lon="2.55196">
        <ele>163.89496</ele>
        <time>2017-11-22T16:14:38Z</time>
      </trkpt>
      <trkpt lat="48.61368" lon="2.5521">
        <ele>164.66916</ele>
        <time>2017-11-22T16:14:40Z</time>
      </trkpt>
      <trkpt lat="48.61373" lon="2.55229">
        <ele>164.91753</ele>
        <time>2017-11-22T16:14:42Z</time>
      </trkpt>
      <trkpt lat="48.61371" lon="2.55252">
        <ele>165.42484</ele>
        <time>2017-11-22T16:14:44Z</time>
      </trkpt>
      <trkpt lat="48.61362" lon="2.55269">
        <ele>165.81326</ele>
        <time>2017-11-22T16:14:46Z</time>
      </trkpt>
      <trkpt lat="48.61347" lon="2.5528">
        <ele>165.79741</ele>
        <time>2017-11-22T16:14:48Z</time>
      </trkpt>
      <trkpt lat="48.61333" lon="2.55293">
        <ele>165.72078</ele>
        <time>2017-11-22T16:14:50Z</time>
      </trkpt>
      <trkpt lat="48.61321" lon="2.5531">
        <ele>166.03786</ele>
        <time>2017-11-22T16:14:52Z</time>
      </trkpt>
      <trkpt lat="48.6131" lon="2.55329">
        <ele>165.64943</ele>
        <time>2017-11-22T16:14:54Z</time>
      </trkpt>
      <trkpt lat="48.61305" lon="2.5534">
        <ele>165.77626</ele>
        <time>2017-11-22T16:14:55Z</time>
      </trkpt>
      <trkpt lat="48.61292" lon="2.55355">
        <ele>165.6098</ele>
        <time>2017-11-22T16:14:57Z</time>
      </trkpt>
      <trkpt lat="48.61189" lon="2.55411">
        <ele>165.49355</ele>
        <time>2017-11-22T16:15:10Z</time>
      </trkpt>
      <trkpt lat="48.61173" lon="2.55418">
        <ele>164.72464</ele>
        <time>2017-11-22T16:15:12Z</time>
      </trkpt>
      <trkpt lat="48.61158" lon="2.55426">
        <ele>165.22139</ele>
        <time>2017-11-22T16:15:14Z</time>
      </trkpt>
      <trkpt lat="48.61142" lon="2.55434">
        <ele>165.99294</ele>
        <time>2017-11-22T16:15:16Z</time>
      </trkpt>
      <trkpt lat="48.61127" lon="2.55442">
        <ele>165.99821</ele>
        <time>2017-11-22T16:15:18Z</time>
      </trkpt>
      <trkpt lat="48.61095" lon="2.55457">
        <ele>164.88318</ele>
        <time>2017-11-22T16:15:22Z</time>
      </trkpt>
      <trkpt lat="48.61079" lon="2.55463">
        <ele>165.45126</ele>
        <time>2017-11-22T16:15:24Z</time>
      </trkpt>
      <trkpt lat="48.61063" lon="2.55471">
        <ele>166.0854</ele>
        <time>2017-11-22T16:15:26Z</time>
      </trkpt>
      <trkpt lat="48.61047" lon="2.55479">
        <ele>165.94801</ele>
        <time>2017-11-22T16:15:28Z</time>
      </trkpt>
      <trkpt lat="48.61031" lon="2.55485">
        <ele>165.97708</ele>
        <time>2017-11-22T16:15:30Z</time>
      </trkpt>
      <trkpt lat="48.61015" lon="2.55493">
        <ele>167.97728</ele>
        <time>2017-11-22T16:15:32Z</time>
      </trkpt>
      <trkpt lat="48.61" lon="2.555">
        <ele>167.10269</ele>
        <time>2017-11-22T16:15:34Z</time>
      </trkpt>
      <trkpt lat="48.60985" lon="2.55508">
        <ele>166.52931</ele>
        <time>2017-11-22T16:15:36Z</time>
      </trkpt>
      <trkpt lat="48.60969" lon="2.55515">
        <ele>166.1726</ele>
        <time>2017-11-22T16:15:38Z</time>
      </trkpt>
      <trkpt lat="48.60954" lon="2.55523">
        <ele>166.62708</ele>
        <time>2017-11-22T16:15:40Z</time>
      </trkpt>
      <trkpt lat="48.60938" lon="2.55529">
        <ele>167.00227</ele>
        <time>2017-11-22T16:15:42Z</time>
      </trkpt>
      <trkpt lat="48.60923" lon="2.55536">
        <ele>167.64435</ele>
        <time>2017-11-22T16:15:44Z</time>
      </trkpt>
      <trkpt lat="48.60908" lon="2.55543">
        <ele>167.22423</ele>
        <time>2017-11-22T16:15:46Z</time>
      </trkpt>
      <trkpt lat="48.60893" lon="2.5555">
        <ele>166.80411</ele>
        <time>2017-11-22T16:15:48Z</time>
      </trkpt>
      <trkpt lat="48.60878" lon="2.55558">
        <ele>167.20837</ele>
        <time>2017-11-22T16:15:50Z</time>
      </trkpt>
      <trkpt lat="48.60864" lon="2.55565">
        <ele>167.34314</ele>
        <time>2017-11-22T16:15:52Z</time>
      </trkpt>
      <trkpt lat="48.60851" lon="2.55571">
        <ele>168.63785</ele>
        <time>2017-11-22T16:15:54Z</time>
      </trkpt>
      <trkpt lat="48.60836" lon="2.55579">
        <ele>168.04597</ele>
        <time>2017-11-22T16:15:56Z</time>
      </trkpt>
      <trkpt lat="48.60824" lon="2.55585">
        <ele>167.20573</ele>
        <time>2017-11-22T16:15:58Z</time>
      </trkpt>
      <trkpt lat="48.60811" lon="2.5559">
        <ele>168.9285</ele>
        <time>2017-11-22T16:16:00Z</time>
      </trkpt>
      <trkpt lat="48.60797" lon="2.55596">
        <ele>167.96143</ele>
        <time>2017-11-22T16:16:02Z</time>
      </trkpt>
      <trkpt lat="48.60783" lon="2.556">
        <ele>166.89131</ele>
        <time>2017-11-22T16:16:04Z</time>
      </trkpt>
      <trkpt lat="48.6077" lon="2.55604">
        <ele>168.00635</ele>
        <time>2017-11-22T16:16:06Z</time>
      </trkpt>
      <trkpt lat="48.60751" lon="2.55612">
        <ele>167.14496</ele>
        <time>2017-11-22T16:16:09Z</time>
      </trkpt>
      <trkpt lat="48.60737" lon="2.55616">
        <ele>167.53867</ele>
        <time>2017-11-22T16:16:11Z</time>
      </trkpt>
      <trkpt lat="48.60723" lon="2.5562">
        <ele>167.23744</ele>
        <time>2017-11-22T16:16:13Z</time>
      </trkpt>
      <trkpt lat="48.60708" lon="2.55625">
        <ele>167.64699</ele>
        <time>2017-11-22T16:16:15Z</time>
      </trkpt>
      <trkpt lat="48.60694" lon="2.55631">
        <ele>167.4092</ele>
        <time>2017-11-22T16:16:17Z</time>
      </trkpt>
      <trkpt lat="48.60679" lon="2.55636">
        <ele>168.19394</ele>
        <time>2017-11-22T16:16:19Z</time>
      </trkpt>
      <trkpt lat="48.60664" lon="2.55642">
        <ele>168.03012</ele>
        <time>2017-11-22T16:16:21Z</time>
      </trkpt>
      <trkpt lat="48.60644" lon="2.55652">
        <ele>168.25208</ele>
        <time>2017-11-22T16:16:24Z</time>
      </trkpt>
      <trkpt lat="48.60631" lon="2.55658">
        <ele>168.42383</ele>
        <time>2017-11-22T16:16:26Z</time>
      </trkpt>
      <trkpt lat="48.60617" lon="2.55665">
        <ele>168.63785</ele>
        <time>2017-11-22T16:16:28Z</time>
      </trkpt>
      <trkpt lat="48.60597" lon="2.55676">
        <ele>167.972</ele>
        <time>2017-11-22T16:16:31Z</time>
      </trkpt>
      <trkpt lat="48.60585" lon="2.55683">
        <ele>168.11732</ele>
        <time>2017-11-22T16:16:33Z</time>
      </trkpt>
      <trkpt lat="48.60569" lon="2.55694">
        <ele>168.03276</ele>
        <time>2017-11-22T16:16:36Z</time>
      </trkpt>
      <trkpt lat="48.6056" lon="2.55701">
        <ele>167.80025</ele>
        <time>2017-11-22T16:16:38Z</time>
      </trkpt>
      <trkpt lat="48.6055" lon="2.55705">
        <ele>167.50432</ele>
        <time>2017-11-22T16:16:40Z</time>
      </trkpt>
      <trkpt lat="48.60542" lon="2.55714">
        <ele>169.1663</ele>
        <time>2017-11-22T16:16:42Z</time>
      </trkpt>
      <trkpt lat="48.60529" lon="2.55724">
        <ele>167.45676</ele>
        <time>2017-11-22T16:16:45Z</time>
      </trkpt>
      <trkpt lat="48.60518" lon="2.55734">
        <ele>167.47525</ele>
        <time>2017-11-22T16:16:48Z</time>
      </trkpt>
      <trkpt lat="48.60506" lon="2.55746">
        <ele>167.69191</ele>
        <time>2017-11-22T16:16:51Z</time>
      </trkpt>
      <trkpt lat="48.605" lon="2.55759">
        <ele>167.36691</ele>
        <time>2017-11-22T16:16:54Z</time>
      </trkpt>
      <trkpt lat="48.6049" lon="2.55771">
        <ele>167.35634</ele>
        <time>2017-11-22T16:16:57Z</time>
      </trkpt>
      <trkpt lat="48.60483" lon="2.5578">
        <ele>167.31143</ele>
        <time>2017-11-22T16:16:59Z</time>
      </trkpt>
      <trkpt lat="48.60475" lon="2.55791">
        <ele>166.84903</ele>
        <time>2017-11-22T16:17:01Z</time>
      </trkpt>
      <trkpt lat="48.60468" lon="2.55803">
        <ele>169.19008</ele>
        <time>2017-11-22T16:17:03Z</time>
      </trkpt>
      <trkpt lat="48.60459" lon="2.55812">
        <ele>167.36691</ele>
        <time>2017-11-22T16:17:05Z</time>
      </trkpt>
      <trkpt lat="48.6045" lon="2.55823">
        <ele>167.67078</ele>
        <time>2017-11-22T16:17:07Z</time>
      </trkpt>
      <trkpt lat="48.60444" lon="2.55836">
        <ele>166.25452</ele>
        <time>2017-11-22T16:17:09Z</time>
      </trkpt>
      <trkpt lat="48.60436" lon="2.55846">
        <ele>166.1911</ele>
        <time>2017-11-22T16:17:11Z</time>
      </trkpt>
      <trkpt lat="48.60429" lon="2.55856">
        <ele>166.1409</ele>
        <time>2017-11-22T16:17:13Z</time>
      </trkpt>
      <trkpt lat="48.60418" lon="2.5587">
        <ele>165.37463</ele>
        <time>2017-11-22T16:17:16Z</time>
      </trkpt>
      <trkpt lat="48.60411" lon="2.55878">
        <ele>165.79211</ele>
        <time>2017-11-22T16:17:18Z</time>
      </trkpt>
      <trkpt lat="48.60405" lon="2.55889">
        <ele>165.2531</ele>
        <time>2017-11-22T16:17:20Z</time>
      </trkpt>
      <trkpt lat="48.60399" lon="2.55899">
        <ele>164.80655</ele>
        <time>2017-11-22T16:17:22Z</time>
      </trkpt>
      <trkpt lat="48.60393" lon="2.55911">
        <ele>165.60716</ele>
        <time>2017-11-22T16:17:24Z</time>
      </trkpt>
      <trkpt lat="48.60385" lon="2.55924">
        <ele>164.9466</ele>
        <time>2017-11-22T16:17:26Z</time>
      </trkpt>
      <trkpt lat="48.60364" lon="2.55935">
        <ele>165.0787</ele>
        <time>2017-11-22T16:17:30Z</time>
      </trkpt>
      <trkpt lat="48.60348" lon="2.55947">
        <ele>165.84497</ele>
        <time>2017-11-22T16:17:32Z</time>
      </trkpt>
      <trkpt lat="48.60334" lon="2.55979">
        <ele>165.1844</ele>
        <time>2017-11-22T16:17:35Z</time>
      </trkpt>
      <trkpt lat="48.60333" lon="2.55993">
        <ele>165.75249</ele>
        <time>2017-11-22T16:17:36Z</time>
      </trkpt>
      <trkpt lat="48.60338" lon="2.56019">
        <ele>165.14476</ele>
        <time>2017-11-22T16:17:38Z</time>
      </trkpt>
      <trkpt lat="48.60344" lon="2.5603">
        <ele>165.38785</ele>
        <time>2017-11-22T16:17:39Z</time>
      </trkpt>
      <trkpt lat="48.60359" lon="2.56045">
        <ele>165.08134</ele>
        <time>2017-11-22T16:17:41Z</time>
      </trkpt>
      <trkpt lat="48.60368" lon="2.56048">
        <ele>165.44862</ele>
        <time>2017-11-22T16:17:42Z</time>
      </trkpt>
      <trkpt lat="48.60385" lon="2.56053">
        <ele>165.6283</ele>
        <time>2017-11-22T16:17:44Z</time>
      </trkpt>
      <trkpt lat="48.60399" lon="2.56068">
        <ele>165.35878</ele>
        <time>2017-11-22T16:17:46Z</time>
      </trkpt>
      <trkpt lat="48.60406" lon="2.56091">
        <ele>165.53581</ele>
        <time>2017-11-22T16:17:48Z</time>
      </trkpt>
      <trkpt lat="48.60413" lon="2.56113">
        <ele>165.89517</ele>
        <time>2017-11-22T16:17:50Z</time>
      </trkpt>
      <trkpt lat="48.60421" lon="2.56135">
        <ele>165.73134</ele>
        <time>2017-11-22T16:17:52Z</time>
      </trkpt>
      <trkpt lat="48.60428" lon="2.56155">
        <ele>166.01935</ele>
        <time>2017-11-22T16:17:54Z</time>
      </trkpt>
      <trkpt lat="48.60434" lon="2.56176">
        <ele>165.6098</ele>
        <time>2017-11-22T16:17:56Z</time>
      </trkpt>
      <trkpt lat="48.60443" lon="2.56204">
        <ele>165.50676</ele>
        <time>2017-11-22T16:17:59Z</time>
      </trkpt>
      <trkpt lat="48.60447" lon="2.56225">
        <ele>165.30066</ele>
        <time>2017-11-22T16:18:01Z</time>
      </trkpt>
      <trkpt lat="48.60449" lon="2.56241">
        <ele>165.19232</ele>
        <time>2017-11-22T16:18:03Z</time>
      </trkpt>
      <trkpt lat="48.60453" lon="2.56256">
        <ele>163.84741</ele>
        <time>2017-11-22T16:18:05Z</time>
      </trkpt>
      <trkpt lat="48.60461" lon="2.56282">
        <ele>166.11977</ele>
        <time>2017-11-22T16:18:08Z</time>
      </trkpt>
      <trkpt lat="48.60463" lon="2.56306">
        <ele>164.84354</ele>
        <time>2017-11-22T16:18:10Z</time>
      </trkpt>
      <trkpt lat="48.60465" lon="2.5633">
        <ele>164.23846</ele>
        <time>2017-11-22T16:18:12Z</time>
      </trkpt>
      <trkpt lat="48.60468" lon="2.56355">
        <ele>164.23582</ele>
        <time>2017-11-22T16:18:14Z</time>
      </trkpt>
      <trkpt lat="48.6047" lon="2.56368">
        <ele>164.76163</ele>
        <time>2017-11-22T16:18:15Z</time>
      </trkpt>
      <trkpt lat="48.60473" lon="2.56394">
        <ele>164.2094</ele>
        <time>2017-11-22T16:18:17Z</time>
      </trkpt>
      <trkpt lat="48.60474" lon="2.56418">
        <ele>164.3785</ele>
        <time>2017-11-22T16:18:19Z</time>
      </trkpt>
      <trkpt lat="48.60476" lon="2.5644">
        <ele>164.48683</ele>
        <time>2017-11-22T16:18:21Z</time>
      </trkpt>
      <trkpt lat="48.60478" lon="2.56463">
        <ele>165.0285</ele>
        <time>2017-11-22T16:18:23Z</time>
      </trkpt>
      <trkpt lat="48.6048" lon="2.56493">
        <ele>164.56082</ele>
        <time>2017-11-22T16:18:26Z</time>
      </trkpt>
      <trkpt lat="48.60482" lon="2.56512">
        <ele>164.89374</ele>
        <time>2017-11-22T16:18:28Z</time>
      </trkpt>
      <trkpt lat="48.60482" lon="2.56529">
        <ele>164.75107</ele>
        <time>2017-11-22T16:18:30Z</time>
      </trkpt>
      <trkpt lat="48.60482" lon="2.56547">
        <ele>165.03642</ele>
        <time>2017-11-22T16:18:32Z</time>
      </trkpt>
      <trkpt lat="48.60486" lon="2.56561">
        <ele>164.7167</ele>
        <time>2017-11-22T16:18:34Z</time>
      </trkpt>
      <trkpt lat="48.60497" lon="2.56565">
        <ele>165.4909</ele>
        <time>2017-11-22T16:18:36Z</time>
      </trkpt>
      <trkpt lat="48.60511" lon="2.56559">
        <ele>165.04964</ele>
        <time>2017-11-22T16:18:38Z</time>
      </trkpt>
      <trkpt lat="48.60526" lon="2.56554">
        <ele>165.59923</ele>
        <time>2017-11-22T16:18:40Z</time>
      </trkpt>
      <trkpt lat="48.60542" lon="2.5655">
        <ele>164.98094</ele>
        <time>2017-11-22T16:18:42Z</time>
      </trkpt>
      <trkpt lat="48.60558" lon="2.56544">
        <ele>165.00737</ele>
        <time>2017-11-22T16:18:44Z</time>
      </trkpt>
      <trkpt lat="48.60575" lon="2.56538">
        <ele>165.08928</ele>
        <time>2017-11-22T16:18:46Z</time>
      </trkpt>
      <trkpt lat="48.60592" lon="2.56528">
        <ele>165.15797</ele>
        <time>2017-11-22T16:18:48Z</time>
      </trkpt>
      <trkpt lat="48.60606" lon="2.56516">
        <ele>166.33643</ele>
        <time>2017-11-22T16:18:50Z</time>
      </trkpt>
      <trkpt lat="48.60618" lon="2.565">
        <ele>165.84761</ele>
        <time>2017-11-22T16:18:52Z</time>
      </trkpt>
      <trkpt lat="48.6063" lon="2.56484">
        <ele>165.11569</ele>
        <time>2017-11-22T16:18:54Z</time>
      </trkpt>
      <trkpt lat="48.6064" lon="2.56465">
        <ele>165.54375</ele>
        <time>2017-11-22T16:18:56Z</time>
      </trkpt>
      <trkpt lat="48.60652" lon="2.56433">
        <ele>167.77646</ele>
        <time>2017-11-22T16:18:59Z</time>
      </trkpt>
      <trkpt lat="48.60657" lon="2.56412">
        <ele>165.52525</ele>
        <time>2017-11-22T16:19:01Z</time>
      </trkpt>
      <trkpt lat="48.60661" lon="2.56392">
        <ele>165.08398</ele>
        <time>2017-11-22T16:19:03Z</time>
      </trkpt>
      <trkpt lat="48.60663" lon="2.5637">
        <ele>166.0405</ele>
        <time>2017-11-22T16:19:05Z</time>
      </trkpt>
      <trkpt lat="48.60665" lon="2.56352">
        <ele>165.99557</ele>
        <time>2017-11-22T16:19:07Z</time>
      </trkpt>
      <trkpt lat="48.60665" lon="2.56335">
        <ele>165.67586</ele>
        <time>2017-11-22T16:19:09Z</time>
      </trkpt>
      <trkpt lat="48.60664" lon="2.5632">
        <ele>165.23988</ele>
        <time>2017-11-22T16:19:11Z</time>
      </trkpt>
      <trkpt lat="48.60657" lon="2.5631">
        <ele>165.84761</ele>
        <time>2017-11-22T16:19:14Z</time>
      </trkpt>
      <trkpt lat="48.60646" lon="2.5631">
        <ele>166.34964</ele>
        <time>2017-11-22T16:19:18Z</time>
      </trkpt>
      <trkpt lat="48.60634" lon="2.56313">
        <ele>165.33765</ele>
        <time>2017-11-22T16:19:22Z</time>
      </trkpt>
      <trkpt lat="48.60624" lon="2.56319">
        <ele>165.46976</ele>
        <time>2017-11-22T16:19:25Z</time>
      </trkpt>
      <trkpt lat="48.60616" lon="2.56332">
        <ele>165.17119</ele>
        <time>2017-11-22T16:19:28Z</time>
      </trkpt>
      <trkpt lat="48.60613" lon="2.5635">
        <ele>165.23195</ele>
        <time>2017-11-22T16:19:31Z</time>
      </trkpt>
      <trkpt lat="48.60611" lon="2.56355">
        <ele>164.57138</ele>
        <time>2017-11-22T16:19:38Z</time>
      </trkpt>
      <trkpt lat="48.60611" lon="2.56355">
        <ele>164.57138</ele>
        <time>2017-11-22T16:19:38Z</time>
      </trkpt>
    </trkseg>
  </trk>
</gpx>